<?xml version="1.0" encoding="UTF-8" standalone="no" ?>
<gpx xmlns="http://www.topografix.com/GPX/1/1" xmlns:xsi="http://www.w3.org/2001/XMLSchema-instance" xsi:schemaLocation="http://www.topografix.com/GPX/1/1 http://www.topografix.com/GPX/1/1/gpx.xsd" version="1.1" creator="VisuGPX - https://www.visugpx.com">
  <metadata>
    <name>Tour du Cantal 7</name>
  </metadata>
  <trk>
    <name><![CDATA[Tour du Cantal - 2025-10-19]]></name>
    <trkseg>
      <trkpt lat="45.01563" lon="2.66582">
        <ele>833.12</ele>
        <time>2025-10-19T06:19:29Z</time>
      </trkpt>
      <trkpt lat="45.01564" lon="2.6658">
        <ele>833.12</ele>
        <time>2025-10-19T06:19:30Z</time>
      </trkpt>
      <trkpt lat="45.01565" lon="2.66573">
        <ele>831.2</ele>
        <time>2025-10-19T06:19:35Z</time>
      </trkpt>
      <trkpt lat="45.0157" lon="2.66558">
        <ele>829.76</ele>
        <time>2025-10-19T06:19:51Z</time>
      </trkpt>
      <trkpt lat="45.01574" lon="2.66556">
        <ele>831.2</ele>
        <time>2025-10-19T06:19:59Z</time>
      </trkpt>
      <trkpt lat="45.0159" lon="2.66557">
        <ele>834.08</ele>
        <time>2025-10-19T06:20:21Z</time>
      </trkpt>
      <trkpt lat="45.01598" lon="2.66564">
        <ele>836.96</ele>
        <time>2025-10-19T06:20:37Z</time>
      </trkpt>
      <trkpt lat="45.01606" lon="2.66571">
        <ele>839.85</ele>
        <time>2025-10-19T06:20:59Z</time>
      </trkpt>
      <trkpt lat="45.01616" lon="2.66576">
        <ele>842.25</ele>
        <time>2025-10-19T06:21:19Z</time>
      </trkpt>
      <trkpt lat="45.01626" lon="2.66586">
        <ele>845.14</ele>
        <time>2025-10-19T06:21:40Z</time>
      </trkpt>
      <trkpt lat="45.01633" lon="2.666">
        <ele>848.02</ele>
        <time>2025-10-19T06:21:57Z</time>
      </trkpt>
      <trkpt lat="45.01642" lon="2.66613">
        <ele>849.46</ele>
        <time>2025-10-19T06:22:15Z</time>
      </trkpt>
      <trkpt lat="45.01655" lon="2.6662">
        <ele>852.83</ele>
        <time>2025-10-19T06:22:39Z</time>
      </trkpt>
      <trkpt lat="45.0166" lon="2.66618">
        <ele>855.71</ele>
        <time>2025-10-19T06:22:54Z</time>
      </trkpt>
      <trkpt lat="45.01669" lon="2.66633">
        <ele>858.59</ele>
        <time>2025-10-19T06:23:14Z</time>
      </trkpt>
      <trkpt lat="45.01672" lon="2.66652">
        <ele>861.48</ele>
        <time>2025-10-19T06:23:35Z</time>
      </trkpt>
      <trkpt lat="45.01669" lon="2.66675">
        <ele>863.88</ele>
        <time>2025-10-19T06:23:57Z</time>
      </trkpt>
      <trkpt lat="45.01669" lon="2.66696">
        <ele>866.29</ele>
        <time>2025-10-19T06:24:16Z</time>
      </trkpt>
      <trkpt lat="45.01666" lon="2.6671">
        <ele>869.65</ele>
        <time>2025-10-19T06:24:33Z</time>
      </trkpt>
      <trkpt lat="45.01667" lon="2.66729">
        <ele>872.05</ele>
        <time>2025-10-19T06:24:53Z</time>
      </trkpt>
      <trkpt lat="45.01668" lon="2.6675">
        <ele>874.46</ele>
        <time>2025-10-19T06:25:12Z</time>
      </trkpt>
      <trkpt lat="45.01668" lon="2.66766">
        <ele>876.86</ele>
        <time>2025-10-19T06:25:28Z</time>
      </trkpt>
      <trkpt lat="45.01665" lon="2.66783">
        <ele>880.22</ele>
        <time>2025-10-19T06:25:46Z</time>
      </trkpt>
      <trkpt lat="45.01664" lon="2.66797">
        <ele>882.15</ele>
        <time>2025-10-19T06:26:05Z</time>
      </trkpt>
      <trkpt lat="45.01672" lon="2.66809">
        <ele>884.07</ele>
        <time>2025-10-19T06:26:23Z</time>
      </trkpt>
      <trkpt lat="45.01678" lon="2.66798">
        <ele>885.99</ele>
        <time>2025-10-19T06:26:41Z</time>
      </trkpt>
      <trkpt lat="45.0168" lon="2.66783">
        <ele>887.91</ele>
        <time>2025-10-19T06:27:00Z</time>
      </trkpt>
      <trkpt lat="45.01686" lon="2.66772">
        <ele>890.8</ele>
        <time>2025-10-19T06:27:19Z</time>
      </trkpt>
      <trkpt lat="45.01692" lon="2.6676">
        <ele>893.2</ele>
        <time>2025-10-19T06:27:38Z</time>
      </trkpt>
      <trkpt lat="45.01704" lon="2.66748">
        <ele>896.09</ele>
        <time>2025-10-19T06:28:00Z</time>
      </trkpt>
      <trkpt lat="45.01711" lon="2.66741">
        <ele>898.97</ele>
        <time>2025-10-19T06:28:16Z</time>
      </trkpt>
      <trkpt lat="45.01722" lon="2.66731">
        <ele>901.85</ele>
        <time>2025-10-19T06:28:37Z</time>
      </trkpt>
      <trkpt lat="45.01731" lon="2.66719">
        <ele>904.74</ele>
        <time>2025-10-19T06:28:57Z</time>
      </trkpt>
      <trkpt lat="45.01733" lon="2.66715">
        <ele>906.66</ele>
        <time>2025-10-19T06:29:19Z</time>
      </trkpt>
      <trkpt lat="45.01728" lon="2.66716">
        <ele>907.14</ele>
        <time>2025-10-19T06:29:48Z</time>
      </trkpt>
      <trkpt lat="45.0173" lon="2.66708">
        <ele>909.06</ele>
        <time>2025-10-19T06:30:07Z</time>
      </trkpt>
      <trkpt lat="45.01736" lon="2.66698">
        <ele>911.47</ele>
        <time>2025-10-19T06:30:25Z</time>
      </trkpt>
      <trkpt lat="45.01747" lon="2.66689">
        <ele>915.31</ele>
        <time>2025-10-19T06:30:46Z</time>
      </trkpt>
      <trkpt lat="45.01754" lon="2.66689">
        <ele>917.72</ele>
        <time>2025-10-19T06:31:05Z</time>
      </trkpt>
      <trkpt lat="45.01757" lon="2.66695">
        <ele>921.08</ele>
        <time>2025-10-19T06:31:23Z</time>
      </trkpt>
      <trkpt lat="45.01759" lon="2.66705">
        <ele>923.96</ele>
        <time>2025-10-19T06:31:42Z</time>
      </trkpt>
      <trkpt lat="45.01762" lon="2.66711">
        <ele>927.33</ele>
        <time>2025-10-19T06:32:03Z</time>
      </trkpt>
      <trkpt lat="45.0176" lon="2.66723">
        <ele>930.21</ele>
        <time>2025-10-19T06:32:23Z</time>
      </trkpt>
      <trkpt lat="45.01756" lon="2.66728">
        <ele>931.65</ele>
        <time>2025-10-19T06:32:40Z</time>
      </trkpt>
      <trkpt lat="45.01762" lon="2.66733">
        <ele>934.06</ele>
        <time>2025-10-19T06:33:00Z</time>
      </trkpt>
      <trkpt lat="45.01768" lon="2.66739">
        <ele>936.46</ele>
        <time>2025-10-19T06:33:21Z</time>
      </trkpt>
      <trkpt lat="45.0177" lon="2.66733">
        <ele>939.35</ele>
        <time>2025-10-19T06:33:39Z</time>
      </trkpt>
      <trkpt lat="45.01777" lon="2.6673">
        <ele>941.27</ele>
        <time>2025-10-19T06:33:57Z</time>
      </trkpt>
      <trkpt lat="45.01788" lon="2.66732">
        <ele>944.63</ele>
        <time>2025-10-19T06:34:15Z</time>
      </trkpt>
      <trkpt lat="45.01797" lon="2.66737">
        <ele>947.52</ele>
        <time>2025-10-19T06:34:35Z</time>
      </trkpt>
      <trkpt lat="45.01799" lon="2.6674">
        <ele>950.4</ele>
        <time>2025-10-19T06:34:56Z</time>
      </trkpt>
      <trkpt lat="45.01808" lon="2.66741">
        <ele>953.28</ele>
        <time>2025-10-19T06:35:17Z</time>
      </trkpt>
      <trkpt lat="45.01816" lon="2.66743">
        <ele>956.65</ele>
        <time>2025-10-19T06:35:37Z</time>
      </trkpt>
      <trkpt lat="45.0182" lon="2.66758">
        <ele>958.57</ele>
        <time>2025-10-19T06:35:57Z</time>
      </trkpt>
      <trkpt lat="45.01828" lon="2.66767">
        <ele>961.94</ele>
        <time>2025-10-19T06:36:16Z</time>
      </trkpt>
      <trkpt lat="45.01829" lon="2.66768">
        <ele>965.3</ele>
        <time>2025-10-19T06:36:35Z</time>
      </trkpt>
      <trkpt lat="45.01835" lon="2.66767">
        <ele>968.67</ele>
        <time>2025-10-19T06:36:55Z</time>
      </trkpt>
      <trkpt lat="45.0184" lon="2.66761">
        <ele>971.07</ele>
        <time>2025-10-19T06:37:17Z</time>
      </trkpt>
      <trkpt lat="45.01851" lon="2.66758">
        <ele>974.43</ele>
        <time>2025-10-19T06:37:40Z</time>
      </trkpt>
      <trkpt lat="45.01855" lon="2.66772">
        <ele>977.32</ele>
        <time>2025-10-19T06:38:04Z</time>
      </trkpt>
      <trkpt lat="45.01856" lon="2.66791">
        <ele>980.2</ele>
        <time>2025-10-19T06:38:24Z</time>
      </trkpt>
      <trkpt lat="45.01853" lon="2.66811">
        <ele>983.09</ele>
        <time>2025-10-19T06:38:45Z</time>
      </trkpt>
      <trkpt lat="45.01854" lon="2.66826">
        <ele>984.53</ele>
        <time>2025-10-19T06:39:00Z</time>
      </trkpt>
      <trkpt lat="45.01856" lon="2.66831">
        <ele>986.93</ele>
        <time>2025-10-19T06:39:18Z</time>
      </trkpt>
      <trkpt lat="45.01863" lon="2.66841">
        <ele>989.81</ele>
        <time>2025-10-19T06:39:36Z</time>
      </trkpt>
      <trkpt lat="45.01869" lon="2.66848">
        <ele>992.22</ele>
        <time>2025-10-19T06:39:55Z</time>
      </trkpt>
      <trkpt lat="45.01874" lon="2.66862">
        <ele>995.1</ele>
        <time>2025-10-19T06:40:15Z</time>
      </trkpt>
      <trkpt lat="45.01881" lon="2.66872">
        <ele>997.02</ele>
        <time>2025-10-19T06:40:36Z</time>
      </trkpt>
      <trkpt lat="45.01887" lon="2.6688">
        <ele>999.91</ele>
        <time>2025-10-19T06:40:57Z</time>
      </trkpt>
      <trkpt lat="45.01893" lon="2.6689">
        <ele>1002.31</ele>
        <time>2025-10-19T06:41:14Z</time>
      </trkpt>
      <trkpt lat="45.01902" lon="2.669">
        <ele>1005.68</ele>
        <time>2025-10-19T06:41:37Z</time>
      </trkpt>
      <trkpt lat="45.019" lon="2.66896">
        <ele>1008.08</ele>
        <time>2025-10-19T06:42:00Z</time>
      </trkpt>
      <trkpt lat="45.01899" lon="2.66881">
        <ele>1010.96</ele>
        <time>2025-10-19T06:42:21Z</time>
      </trkpt>
      <trkpt lat="45.01899" lon="2.66864">
        <ele>1013.37</ele>
        <time>2025-10-19T06:42:41Z</time>
      </trkpt>
      <trkpt lat="45.01899" lon="2.66846">
        <ele>1015.29</ele>
        <time>2025-10-19T06:43:00Z</time>
      </trkpt>
      <trkpt lat="45.01904" lon="2.66843">
        <ele>1017.69</ele>
        <time>2025-10-19T06:43:23Z</time>
      </trkpt>
      <trkpt lat="45.01912" lon="2.66851">
        <ele>1020.58</ele>
        <time>2025-10-19T06:43:44Z</time>
      </trkpt>
      <trkpt lat="45.01921" lon="2.66856">
        <ele>1023.94</ele>
        <time>2025-10-19T06:44:06Z</time>
      </trkpt>
      <trkpt lat="45.01929" lon="2.66858">
        <ele>1026.83</ele>
        <time>2025-10-19T06:44:28Z</time>
      </trkpt>
      <trkpt lat="45.01934" lon="2.66859">
        <ele>1030.19</ele>
        <time>2025-10-19T06:44:50Z</time>
      </trkpt>
      <trkpt lat="45.0193" lon="2.66849">
        <ele>1033.07</ele>
        <time>2025-10-19T06:45:13Z</time>
      </trkpt>
      <trkpt lat="45.01931" lon="2.66836">
        <ele>1035.96</ele>
        <time>2025-10-19T06:45:30Z</time>
      </trkpt>
      <trkpt lat="45.01937" lon="2.66827">
        <ele>1039.32</ele>
        <time>2025-10-19T06:45:49Z</time>
      </trkpt>
      <trkpt lat="45.01946" lon="2.66834">
        <ele>1041.73</ele>
        <time>2025-10-19T06:46:08Z</time>
      </trkpt>
      <trkpt lat="45.01945" lon="2.66837">
        <ele>1041.73</ele>
        <time>2025-10-19T06:46:31Z</time>
      </trkpt>
      <trkpt lat="45.01945" lon="2.66836">
        <ele>1041.73</ele>
        <time>2025-10-19T06:47:03Z</time>
      </trkpt>
      <trkpt lat="45.01948" lon="2.66834">
        <ele>1042.21</ele>
        <time>2025-10-19T06:47:28Z</time>
      </trkpt>
      <trkpt lat="45.01947" lon="2.66826">
        <ele>1044.61</ele>
        <time>2025-10-19T06:47:50Z</time>
      </trkpt>
      <trkpt lat="45.01952" lon="2.66816">
        <ele>1047.97</ele>
        <time>2025-10-19T06:48:07Z</time>
      </trkpt>
      <trkpt lat="45.01963" lon="2.66824">
        <ele>1050.38</ele>
        <time>2025-10-19T06:48:28Z</time>
      </trkpt>
      <trkpt lat="45.01969" lon="2.66824">
        <ele>1051.34</ele>
        <time>2025-10-19T06:48:44Z</time>
      </trkpt>
      <trkpt lat="45.01977" lon="2.66822">
        <ele>1054.7</ele>
        <time>2025-10-19T06:49:03Z</time>
      </trkpt>
      <trkpt lat="45.01985" lon="2.66819">
        <ele>1058.07</ele>
        <time>2025-10-19T06:49:20Z</time>
      </trkpt>
      <trkpt lat="45.01993" lon="2.66817">
        <ele>1059.51</ele>
        <time>2025-10-19T06:49:37Z</time>
      </trkpt>
      <trkpt lat="45.02002" lon="2.66813">
        <ele>1061.91</ele>
        <time>2025-10-19T06:49:55Z</time>
      </trkpt>
      <trkpt lat="45.02012" lon="2.66812">
        <ele>1064.8</ele>
        <time>2025-10-19T06:50:14Z</time>
      </trkpt>
      <trkpt lat="45.02028" lon="2.66809">
        <ele>1067.2</ele>
        <time>2025-10-19T06:50:36Z</time>
      </trkpt>
      <trkpt lat="45.0204" lon="2.66809">
        <ele>1068.16</ele>
        <time>2025-10-19T06:50:53Z</time>
      </trkpt>
      <trkpt lat="45.02054" lon="2.66809">
        <ele>1069.12</ele>
        <time>2025-10-19T06:51:12Z</time>
      </trkpt>
      <trkpt lat="45.0207" lon="2.66813">
        <ele>1067.68</ele>
        <time>2025-10-19T06:51:29Z</time>
      </trkpt>
      <trkpt lat="45.02085" lon="2.66815">
        <ele>1067.68</ele>
        <time>2025-10-19T06:51:45Z</time>
      </trkpt>
      <trkpt lat="45.02091" lon="2.66819">
        <ele>1069.12</ele>
        <time>2025-10-19T06:51:52Z</time>
      </trkpt>
      <trkpt lat="45.02102" lon="2.66821">
        <ele>1070.57</ele>
        <time>2025-10-19T06:52:06Z</time>
      </trkpt>
      <trkpt lat="45.02115" lon="2.6682">
        <ele>1072.49</ele>
        <time>2025-10-19T06:52:26Z</time>
      </trkpt>
      <trkpt lat="45.02126" lon="2.66821">
        <ele>1074.41</ele>
        <time>2025-10-19T06:52:42Z</time>
      </trkpt>
      <trkpt lat="45.02137" lon="2.66822">
        <ele>1075.85</ele>
        <time>2025-10-19T06:52:59Z</time>
      </trkpt>
      <trkpt lat="45.0215" lon="2.66821">
        <ele>1077.29</ele>
        <time>2025-10-19T06:53:17Z</time>
      </trkpt>
      <trkpt lat="45.02163" lon="2.66822">
        <ele>1080.18</ele>
        <time>2025-10-19T06:53:37Z</time>
      </trkpt>
      <trkpt lat="45.02172" lon="2.66822">
        <ele>1082.58</ele>
        <time>2025-10-19T06:53:57Z</time>
      </trkpt>
      <trkpt lat="45.0218" lon="2.66819">
        <ele>1085.95</ele>
        <time>2025-10-19T06:54:13Z</time>
      </trkpt>
      <trkpt lat="45.02185" lon="2.66815">
        <ele>1086.91</ele>
        <time>2025-10-19T06:54:36Z</time>
      </trkpt>
      <trkpt lat="45.02185" lon="2.66812">
        <ele>1086.91</ele>
        <time>2025-10-19T06:55:03Z</time>
      </trkpt>
      <trkpt lat="45.02193" lon="2.66816">
        <ele>1086.91</ele>
        <time>2025-10-19T06:55:39Z</time>
      </trkpt>
      <trkpt lat="45.022" lon="2.66825">
        <ele>1085.95</ele>
        <time>2025-10-19T06:55:55Z</time>
      </trkpt>
      <trkpt lat="45.02207" lon="2.66839">
        <ele>1084.02</ele>
        <time>2025-10-19T06:56:09Z</time>
      </trkpt>
      <trkpt lat="45.02217" lon="2.66852">
        <ele>1084.02</ele>
        <time>2025-10-19T06:56:25Z</time>
      </trkpt>
      <trkpt lat="45.02228" lon="2.66855">
        <ele>1083.54</ele>
        <time>2025-10-19T06:56:40Z</time>
      </trkpt>
      <trkpt lat="45.02228" lon="2.66855">
        <ele>1083.54</ele>
        <time>2025-10-19T06:56:41Z</time>
      </trkpt>
      <trkpt lat="45.02246" lon="2.66865">
        <ele>1083.06</ele>
        <time>2025-10-19T06:56:59Z</time>
      </trkpt>
      <trkpt lat="45.02268" lon="2.66879">
        <ele>1083.06</ele>
        <time>2025-10-19T06:57:19Z</time>
      </trkpt>
      <trkpt lat="45.02284" lon="2.66897">
        <ele>1083.06</ele>
        <time>2025-10-19T06:57:37Z</time>
      </trkpt>
      <trkpt lat="45.02297" lon="2.66913">
        <ele>1083.06</ele>
        <time>2025-10-19T06:57:52Z</time>
      </trkpt>
      <trkpt lat="45.02299" lon="2.66918">
        <ele>1083.06</ele>
        <time>2025-10-19T06:57:56Z</time>
      </trkpt>
      <trkpt lat="45.02301" lon="2.66925">
        <ele>1083.06</ele>
        <time>2025-10-19T06:58:01Z</time>
      </trkpt>
      <trkpt lat="45.02303" lon="2.66931">
        <ele>1083.06</ele>
        <time>2025-10-19T06:58:06Z</time>
      </trkpt>
      <trkpt lat="45.02313" lon="2.66959">
        <ele>1084.02</ele>
        <time>2025-10-19T06:58:27Z</time>
      </trkpt>
      <trkpt lat="45.02313" lon="2.66962">
        <ele>1084.02</ele>
        <time>2025-10-19T06:58:44Z</time>
      </trkpt>
      <trkpt lat="45.02312" lon="2.66968">
        <ele>1084.02</ele>
        <time>2025-10-19T06:59:10Z</time>
      </trkpt>
      <trkpt lat="45.02316" lon="2.66975">
        <ele>1084.02</ele>
        <time>2025-10-19T06:59:16Z</time>
      </trkpt>
      <trkpt lat="45.02328" lon="2.67">
        <ele>1084.5</ele>
        <time>2025-10-19T06:59:36Z</time>
      </trkpt>
      <trkpt lat="45.02339" lon="2.67026">
        <ele>1085.95</ele>
        <time>2025-10-19T06:59:56Z</time>
      </trkpt>
      <trkpt lat="45.02352" lon="2.67054">
        <ele>1087.87</ele>
        <time>2025-10-19T07:00:19Z</time>
      </trkpt>
      <trkpt lat="45.02359" lon="2.67078">
        <ele>1088.83</ele>
        <time>2025-10-19T07:00:38Z</time>
      </trkpt>
      <trkpt lat="45.02367" lon="2.67102">
        <ele>1090.27</ele>
        <time>2025-10-19T07:00:58Z</time>
      </trkpt>
      <trkpt lat="45.02375" lon="2.67128">
        <ele>1092.2</ele>
        <time>2025-10-19T07:01:17Z</time>
      </trkpt>
      <trkpt lat="45.02386" lon="2.6715">
        <ele>1094.12</ele>
        <time>2025-10-19T07:01:36Z</time>
      </trkpt>
      <trkpt lat="45.02393" lon="2.67175">
        <ele>1095.56</ele>
        <time>2025-10-19T07:01:56Z</time>
      </trkpt>
      <trkpt lat="45.02393" lon="2.67203">
        <ele>1097.48</ele>
        <time>2025-10-19T07:02:17Z</time>
      </trkpt>
      <trkpt lat="45.02393" lon="2.67232">
        <ele>1099.4</ele>
        <time>2025-10-19T07:02:38Z</time>
      </trkpt>
      <trkpt lat="45.02391" lon="2.67257">
        <ele>1100.37</ele>
        <time>2025-10-19T07:02:56Z</time>
      </trkpt>
      <trkpt lat="45.02388" lon="2.67284">
        <ele>1101.33</ele>
        <time>2025-10-19T07:03:16Z</time>
      </trkpt>
      <trkpt lat="45.02388" lon="2.67302">
        <ele>1101.81</ele>
        <time>2025-10-19T07:03:27Z</time>
      </trkpt>
      <trkpt lat="45.02388" lon="2.67329">
        <ele>1101.33</ele>
        <time>2025-10-19T07:03:44Z</time>
      </trkpt>
      <trkpt lat="45.02395" lon="2.67352">
        <ele>1100.37</ele>
        <time>2025-10-19T07:04:00Z</time>
      </trkpt>
      <trkpt lat="45.02402" lon="2.67379">
        <ele>1099.89</ele>
        <time>2025-10-19T07:04:20Z</time>
      </trkpt>
      <trkpt lat="45.02408" lon="2.67405">
        <ele>1099.4</ele>
        <time>2025-10-19T07:04:37Z</time>
      </trkpt>
      <trkpt lat="45.0241" lon="2.67415">
        <ele>1100.37</ele>
        <time>2025-10-19T07:04:44Z</time>
      </trkpt>
      <trkpt lat="45.02415" lon="2.67435">
        <ele>1100.37</ele>
        <time>2025-10-19T07:05:02Z</time>
      </trkpt>
      <trkpt lat="45.02422" lon="2.67457">
        <ele>1100.85</ele>
        <time>2025-10-19T07:05:19Z</time>
      </trkpt>
      <trkpt lat="45.02428" lon="2.67478">
        <ele>1102.29</ele>
        <time>2025-10-19T07:05:37Z</time>
      </trkpt>
      <trkpt lat="45.02445" lon="2.67495">
        <ele>1105.17</ele>
        <time>2025-10-19T07:05:59Z</time>
      </trkpt>
      <trkpt lat="45.0246" lon="2.67508">
        <ele>1106.61</ele>
        <time>2025-10-19T07:06:22Z</time>
      </trkpt>
      <trkpt lat="45.02478" lon="2.67518">
        <ele>1108.06</ele>
        <time>2025-10-19T07:06:44Z</time>
      </trkpt>
      <trkpt lat="45.025" lon="2.67517">
        <ele>1106.61</ele>
        <time>2025-10-19T07:07:07Z</time>
      </trkpt>
      <trkpt lat="45.02521" lon="2.67511">
        <ele>1104.69</ele>
        <time>2025-10-19T07:07:30Z</time>
      </trkpt>
      <trkpt lat="45.02542" lon="2.67496">
        <ele>1104.21</ele>
        <time>2025-10-19T07:07:52Z</time>
      </trkpt>
      <trkpt lat="45.02556" lon="2.67476">
        <ele>1103.73</ele>
        <time>2025-10-19T07:08:10Z</time>
      </trkpt>
      <trkpt lat="45.0257" lon="2.67453">
        <ele>1102.77</ele>
        <time>2025-10-19T07:08:32Z</time>
      </trkpt>
      <trkpt lat="45.02589" lon="2.6745">
        <ele>1101.81</ele>
        <time>2025-10-19T07:08:45Z</time>
      </trkpt>
      <trkpt lat="45.02629" lon="2.67459">
        <ele>1099.89</ele>
        <time>2025-10-19T07:09:15Z</time>
      </trkpt>
      <trkpt lat="45.02646" lon="2.67466">
        <ele>1099.4</ele>
        <time>2025-10-19T07:09:34Z</time>
      </trkpt>
      <trkpt lat="45.02656" lon="2.6747">
        <ele>1099.4</ele>
        <time>2025-10-19T07:09:45Z</time>
      </trkpt>
      <trkpt lat="45.02675" lon="2.6748">
        <ele>1100.85</ele>
        <time>2025-10-19T07:10:06Z</time>
      </trkpt>
      <trkpt lat="45.02696" lon="2.67491">
        <ele>1101.81</ele>
        <time>2025-10-19T07:10:27Z</time>
      </trkpt>
      <trkpt lat="45.02715" lon="2.67493">
        <ele>1100.37</ele>
        <time>2025-10-19T07:10:48Z</time>
      </trkpt>
      <trkpt lat="45.02739" lon="2.67494">
        <ele>1100.37</ele>
        <time>2025-10-19T07:11:11Z</time>
      </trkpt>
      <trkpt lat="45.0276" lon="2.67495">
        <ele>1099.4</ele>
        <time>2025-10-19T07:11:33Z</time>
      </trkpt>
      <trkpt lat="45.02766" lon="2.67498">
        <ele>1100.85</ele>
        <time>2025-10-19T07:11:40Z</time>
      </trkpt>
      <trkpt lat="45.02787" lon="2.67512">
        <ele>1100.85</ele>
        <time>2025-10-19T07:11:55Z</time>
      </trkpt>
      <trkpt lat="45.028" lon="2.67535">
        <ele>1101.33</ele>
        <time>2025-10-19T07:12:13Z</time>
      </trkpt>
      <trkpt lat="45.02806" lon="2.67559">
        <ele>1103.73</ele>
        <time>2025-10-19T07:12:32Z</time>
      </trkpt>
      <trkpt lat="45.02806" lon="2.6756">
        <ele>1103.73</ele>
        <time>2025-10-19T07:12:33Z</time>
      </trkpt>
      <trkpt lat="45.02816" lon="2.67584">
        <ele>1104.69</ele>
        <time>2025-10-19T07:12:52Z</time>
      </trkpt>
      <trkpt lat="45.02823" lon="2.67618">
        <ele>1105.17</ele>
        <time>2025-10-19T07:13:15Z</time>
      </trkpt>
      <trkpt lat="45.02824" lon="2.67624">
        <ele>1104.69</ele>
        <time>2025-10-19T07:13:20Z</time>
      </trkpt>
      <trkpt lat="45.02834" lon="2.67653">
        <ele>1104.21</ele>
        <time>2025-10-19T07:13:41Z</time>
      </trkpt>
      <trkpt lat="45.02853" lon="2.67669">
        <ele>1103.73</ele>
        <time>2025-10-19T07:14:02Z</time>
      </trkpt>
      <trkpt lat="45.02872" lon="2.67673">
        <ele>1105.65</ele>
        <time>2025-10-19T07:14:22Z</time>
      </trkpt>
      <trkpt lat="45.02893" lon="2.67681">
        <ele>1106.13</ele>
        <time>2025-10-19T07:14:42Z</time>
      </trkpt>
      <trkpt lat="45.02912" lon="2.67694">
        <ele>1106.13</ele>
        <time>2025-10-19T07:15:07Z</time>
      </trkpt>
      <trkpt lat="45.02933" lon="2.67697">
        <ele>1107.58</ele>
        <time>2025-10-19T07:15:29Z</time>
      </trkpt>
      <trkpt lat="45.02961" lon="2.677">
        <ele>1108.06</ele>
        <time>2025-10-19T07:15:51Z</time>
      </trkpt>
      <trkpt lat="45.02982" lon="2.67691">
        <ele>1109.5</ele>
        <time>2025-10-19T07:16:13Z</time>
      </trkpt>
      <trkpt lat="45.03" lon="2.67689">
        <ele>1111.42</ele>
        <time>2025-10-19T07:16:34Z</time>
      </trkpt>
      <trkpt lat="45.03023" lon="2.67688">
        <ele>1112.86</ele>
        <time>2025-10-19T07:16:55Z</time>
      </trkpt>
      <trkpt lat="45.03039" lon="2.6769">
        <ele>1114.31</ele>
        <time>2025-10-19T07:17:13Z</time>
      </trkpt>
      <trkpt lat="45.03053" lon="2.6769">
        <ele>1116.23</ele>
        <time>2025-10-19T07:17:31Z</time>
      </trkpt>
      <trkpt lat="45.03052" lon="2.67684">
        <ele>1118.15</ele>
        <time>2025-10-19T07:17:50Z</time>
      </trkpt>
      <trkpt lat="45.03049" lon="2.67679">
        <ele>1120.55</ele>
        <time>2025-10-19T07:18:09Z</time>
      </trkpt>
      <trkpt lat="45.0304" lon="2.67673">
        <ele>1122</ele>
        <time>2025-10-19T07:18:26Z</time>
      </trkpt>
      <trkpt lat="45.03023" lon="2.67668">
        <ele>1122.96</ele>
        <time>2025-10-19T07:18:45Z</time>
      </trkpt>
      <trkpt lat="45.03015" lon="2.67656">
        <ele>1126.8</ele>
        <time>2025-10-19T07:19:04Z</time>
      </trkpt>
      <trkpt lat="45.03004" lon="2.67635">
        <ele>1128.73</ele>
        <time>2025-10-19T07:19:25Z</time>
      </trkpt>
      <trkpt lat="45.02996" lon="2.6762">
        <ele>1131.13</ele>
        <time>2025-10-19T07:19:46Z</time>
      </trkpt>
      <trkpt lat="45.02989" lon="2.67607">
        <ele>1133.05</ele>
        <time>2025-10-19T07:20:04Z</time>
      </trkpt>
      <trkpt lat="45.02983" lon="2.6759">
        <ele>1135.94</ele>
        <time>2025-10-19T07:20:25Z</time>
      </trkpt>
      <trkpt lat="45.02969" lon="2.67575">
        <ele>1136.9</ele>
        <time>2025-10-19T07:20:44Z</time>
      </trkpt>
      <trkpt lat="45.02964" lon="2.67561">
        <ele>1137.86</ele>
        <time>2025-10-19T07:21:04Z</time>
      </trkpt>
      <trkpt lat="45.02958" lon="2.67545">
        <ele>1141.22</ele>
        <time>2025-10-19T07:21:21Z</time>
      </trkpt>
      <trkpt lat="45.02953" lon="2.67531">
        <ele>1143.14</ele>
        <time>2025-10-19T07:21:40Z</time>
      </trkpt>
      <trkpt lat="45.02945" lon="2.67515">
        <ele>1145.07</ele>
        <time>2025-10-19T07:22:02Z</time>
      </trkpt>
      <trkpt lat="45.02936" lon="2.67498">
        <ele>1146.51</ele>
        <time>2025-10-19T07:22:22Z</time>
      </trkpt>
      <trkpt lat="45.02928" lon="2.67477">
        <ele>1148.43</ele>
        <time>2025-10-19T07:22:43Z</time>
      </trkpt>
      <trkpt lat="45.02922" lon="2.67462">
        <ele>1150.84</ele>
        <time>2025-10-19T07:23:02Z</time>
      </trkpt>
      <trkpt lat="45.02917" lon="2.67445">
        <ele>1152.76</ele>
        <time>2025-10-19T07:23:22Z</time>
      </trkpt>
      <trkpt lat="45.02912" lon="2.67422">
        <ele>1155.16</ele>
        <time>2025-10-19T07:23:47Z</time>
      </trkpt>
      <trkpt lat="45.02909" lon="2.67408">
        <ele>1156.6</ele>
        <time>2025-10-19T07:24:07Z</time>
      </trkpt>
      <trkpt lat="45.02906" lon="2.6739">
        <ele>1159.01</ele>
        <time>2025-10-19T07:24:26Z</time>
      </trkpt>
      <trkpt lat="45.02896" lon="2.67369">
        <ele>1160.45</ele>
        <time>2025-10-19T07:24:47Z</time>
      </trkpt>
      <trkpt lat="45.02882" lon="2.67352">
        <ele>1161.89</ele>
        <time>2025-10-19T07:25:08Z</time>
      </trkpt>
      <trkpt lat="45.02868" lon="2.67344">
        <ele>1162.85</ele>
        <time>2025-10-19T07:25:28Z</time>
      </trkpt>
      <trkpt lat="45.02856" lon="2.67327">
        <ele>1165.74</ele>
        <time>2025-10-19T07:25:49Z</time>
      </trkpt>
      <trkpt lat="45.02848" lon="2.67317">
        <ele>1167.18</ele>
        <time>2025-10-19T07:26:08Z</time>
      </trkpt>
      <trkpt lat="45.02839" lon="2.67311">
        <ele>1170.54</ele>
        <time>2025-10-19T07:26:30Z</time>
      </trkpt>
      <trkpt lat="45.02828" lon="2.67297">
        <ele>1172.95</ele>
        <time>2025-10-19T07:26:53Z</time>
      </trkpt>
      <trkpt lat="45.0281" lon="2.67293">
        <ele>1175.35</ele>
        <time>2025-10-19T07:27:14Z</time>
      </trkpt>
      <trkpt lat="45.02795" lon="2.67289">
        <ele>1177.75</ele>
        <time>2025-10-19T07:27:34Z</time>
      </trkpt>
      <trkpt lat="45.02779" lon="2.67279">
        <ele>1180.16</ele>
        <time>2025-10-19T07:27:56Z</time>
      </trkpt>
      <trkpt lat="45.02771" lon="2.67267">
        <ele>1183.52</ele>
        <time>2025-10-19T07:28:18Z</time>
      </trkpt>
      <trkpt lat="45.0276" lon="2.67263">
        <ele>1186.88</ele>
        <time>2025-10-19T07:28:41Z</time>
      </trkpt>
      <trkpt lat="45.02743" lon="2.67263">
        <ele>1190.25</ele>
        <time>2025-10-19T07:29:06Z</time>
      </trkpt>
      <trkpt lat="45.02732" lon="2.67258">
        <ele>1193.13</ele>
        <time>2025-10-19T07:29:28Z</time>
      </trkpt>
      <trkpt lat="45.02722" lon="2.67251">
        <ele>1196.02</ele>
        <time>2025-10-19T07:29:48Z</time>
      </trkpt>
      <trkpt lat="45.02713" lon="2.67243">
        <ele>1197.94</ele>
        <time>2025-10-19T07:30:08Z</time>
      </trkpt>
      <trkpt lat="45.02716" lon="2.6723">
        <ele>1200.82</ele>
        <time>2025-10-19T07:30:26Z</time>
      </trkpt>
      <trkpt lat="45.02726" lon="2.67228">
        <ele>1203.23</ele>
        <time>2025-10-19T07:30:51Z</time>
      </trkpt>
      <trkpt lat="45.0274" lon="2.67216">
        <ele>1206.11</ele>
        <time>2025-10-19T07:31:14Z</time>
      </trkpt>
      <trkpt lat="45.0275" lon="2.67208">
        <ele>1209</ele>
        <time>2025-10-19T07:31:36Z</time>
      </trkpt>
      <trkpt lat="45.02763" lon="2.67195">
        <ele>1210.92</ele>
        <time>2025-10-19T07:31:57Z</time>
      </trkpt>
      <trkpt lat="45.02772" lon="2.67188">
        <ele>1213.32</ele>
        <time>2025-10-19T07:32:10Z</time>
      </trkpt>
      <trkpt lat="45.02784" lon="2.67186">
        <ele>1216.69</ele>
        <time>2025-10-19T07:32:33Z</time>
      </trkpt>
      <trkpt lat="45.028" lon="2.6719">
        <ele>1219.09</ele>
        <time>2025-10-19T07:32:53Z</time>
      </trkpt>
      <trkpt lat="45.02814" lon="2.67185">
        <ele>1221.97</ele>
        <time>2025-10-19T07:33:15Z</time>
      </trkpt>
      <trkpt lat="45.02828" lon="2.67182">
        <ele>1222.93</ele>
        <time>2025-10-19T07:33:36Z</time>
      </trkpt>
      <trkpt lat="45.02851" lon="2.67191">
        <ele>1223.42</ele>
        <time>2025-10-19T07:33:57Z</time>
      </trkpt>
      <trkpt lat="45.02865" lon="2.67204">
        <ele>1223.9</ele>
        <time>2025-10-19T07:34:19Z</time>
      </trkpt>
      <trkpt lat="45.02883" lon="2.67213">
        <ele>1224.38</ele>
        <time>2025-10-19T07:34:40Z</time>
      </trkpt>
      <trkpt lat="45.02904" lon="2.67226">
        <ele>1225.34</ele>
        <time>2025-10-19T07:34:59Z</time>
      </trkpt>
      <trkpt lat="45.02922" lon="2.67234">
        <ele>1227.26</ele>
        <time>2025-10-19T07:35:22Z</time>
      </trkpt>
      <trkpt lat="45.02937" lon="2.67244">
        <ele>1229.18</ele>
        <time>2025-10-19T07:35:44Z</time>
      </trkpt>
      <trkpt lat="45.02955" lon="2.67251">
        <ele>1231.59</ele>
        <time>2025-10-19T07:36:05Z</time>
      </trkpt>
      <trkpt lat="45.02969" lon="2.67258">
        <ele>1233.03</ele>
        <time>2025-10-19T07:36:26Z</time>
      </trkpt>
      <trkpt lat="45.02983" lon="2.67266">
        <ele>1235.91</ele>
        <time>2025-10-19T07:36:47Z</time>
      </trkpt>
      <trkpt lat="45.02996" lon="2.6728">
        <ele>1238.32</ele>
        <time>2025-10-19T07:37:08Z</time>
      </trkpt>
      <trkpt lat="45.0301" lon="2.67286">
        <ele>1241.68</ele>
        <time>2025-10-19T07:37:30Z</time>
      </trkpt>
      <trkpt lat="45.03023" lon="2.67287">
        <ele>1245.04</ele>
        <time>2025-10-19T07:37:53Z</time>
      </trkpt>
      <trkpt lat="45.03042" lon="2.67295">
        <ele>1246.49</ele>
        <time>2025-10-19T07:38:13Z</time>
      </trkpt>
      <trkpt lat="45.03055" lon="2.67298">
        <ele>1249.37</ele>
        <time>2025-10-19T07:38:35Z</time>
      </trkpt>
      <trkpt lat="45.03067" lon="2.67302">
        <ele>1251.29</ele>
        <time>2025-10-19T07:38:55Z</time>
      </trkpt>
      <trkpt lat="45.03079" lon="2.67295">
        <ele>1253.22</ele>
        <time>2025-10-19T07:39:14Z</time>
      </trkpt>
      <trkpt lat="45.03084" lon="2.67285">
        <ele>1255.62</ele>
        <time>2025-10-19T07:39:30Z</time>
      </trkpt>
      <trkpt lat="45.03086" lon="2.67271">
        <ele>1258.98</ele>
        <time>2025-10-19T07:39:46Z</time>
      </trkpt>
      <trkpt lat="45.03086" lon="2.67252">
        <ele>1260.43</ele>
        <time>2025-10-19T07:40:06Z</time>
      </trkpt>
      <trkpt lat="45.03086" lon="2.67228">
        <ele>1262.83</ele>
        <time>2025-10-19T07:40:29Z</time>
      </trkpt>
      <trkpt lat="45.03087" lon="2.67209">
        <ele>1265.23</ele>
        <time>2025-10-19T07:40:50Z</time>
      </trkpt>
      <trkpt lat="45.03095" lon="2.67214">
        <ele>1267.64</ele>
        <time>2025-10-19T07:41:08Z</time>
      </trkpt>
      <trkpt lat="45.03106" lon="2.67215">
        <ele>1270.52</ele>
        <time>2025-10-19T07:41:29Z</time>
      </trkpt>
      <trkpt lat="45.03115" lon="2.67222">
        <ele>1272.92</ele>
        <time>2025-10-19T07:41:48Z</time>
      </trkpt>
      <trkpt lat="45.03122" lon="2.67222">
        <ele>1276.29</ele>
        <time>2025-10-19T07:42:06Z</time>
      </trkpt>
      <trkpt lat="45.03135" lon="2.67225">
        <ele>1278.69</ele>
        <time>2025-10-19T07:42:27Z</time>
      </trkpt>
      <trkpt lat="45.03152" lon="2.6722">
        <ele>1281.57</ele>
        <time>2025-10-19T07:42:50Z</time>
      </trkpt>
      <trkpt lat="45.03146" lon="2.67209">
        <ele>1283.5</ele>
        <time>2025-10-19T07:43:08Z</time>
      </trkpt>
      <trkpt lat="45.03141" lon="2.67196">
        <ele>1286.86</ele>
        <time>2025-10-19T07:43:25Z</time>
      </trkpt>
      <trkpt lat="45.03135" lon="2.67181">
        <ele>1289.75</ele>
        <time>2025-10-19T07:43:46Z</time>
      </trkpt>
      <trkpt lat="45.0313" lon="2.67169">
        <ele>1292.63</ele>
        <time>2025-10-19T07:44:04Z</time>
      </trkpt>
      <trkpt lat="45.03129" lon="2.67158">
        <ele>1295.03</ele>
        <time>2025-10-19T07:44:19Z</time>
      </trkpt>
      <trkpt lat="45.03127" lon="2.67144">
        <ele>1296.96</ele>
        <time>2025-10-19T07:44:34Z</time>
      </trkpt>
      <trkpt lat="45.03128" lon="2.67127">
        <ele>1297.92</ele>
        <time>2025-10-19T07:44:49Z</time>
      </trkpt>
      <trkpt lat="45.03137" lon="2.67125">
        <ele>1300.32</ele>
        <time>2025-10-19T07:45:06Z</time>
      </trkpt>
      <trkpt lat="45.03148" lon="2.67118">
        <ele>1301.28</ele>
        <time>2025-10-19T07:45:26Z</time>
      </trkpt>
      <trkpt lat="45.03151" lon="2.67118">
        <ele>1301.76</ele>
        <time>2025-10-19T07:45:43Z</time>
      </trkpt>
      <trkpt lat="45.03152" lon="2.67118">
        <ele>1302.24</ele>
        <time>2025-10-19T07:46:07Z</time>
      </trkpt>
      <trkpt lat="45.03156" lon="2.67116">
        <ele>1303.2</ele>
        <time>2025-10-19T07:46:39Z</time>
      </trkpt>
      <trkpt lat="45.03171" lon="2.67112">
        <ele>1306.57</ele>
        <time>2025-10-19T07:47:02Z</time>
      </trkpt>
      <trkpt lat="45.03183" lon="2.6711">
        <ele>1308.01</ele>
        <time>2025-10-19T07:47:19Z</time>
      </trkpt>
      <trkpt lat="45.03198" lon="2.67105">
        <ele>1310.41</ele>
        <time>2025-10-19T07:47:39Z</time>
      </trkpt>
      <trkpt lat="45.03214" lon="2.67103">
        <ele>1311.38</ele>
        <time>2025-10-19T07:47:58Z</time>
      </trkpt>
      <trkpt lat="45.03228" lon="2.67098">
        <ele>1312.34</ele>
        <time>2025-10-19T07:48:17Z</time>
      </trkpt>
      <trkpt lat="45.0324" lon="2.67095">
        <ele>1313.78</ele>
        <time>2025-10-19T07:48:36Z</time>
      </trkpt>
      <trkpt lat="45.03254" lon="2.67087">
        <ele>1315.22</ele>
        <time>2025-10-19T07:48:55Z</time>
      </trkpt>
      <trkpt lat="45.03267" lon="2.67078">
        <ele>1317.14</ele>
        <time>2025-10-19T07:49:11Z</time>
      </trkpt>
      <trkpt lat="45.0328" lon="2.67073">
        <ele>1319.55</ele>
        <time>2025-10-19T07:49:28Z</time>
      </trkpt>
      <trkpt lat="45.0329" lon="2.67065">
        <ele>1321.47</ele>
        <time>2025-10-19T07:49:44Z</time>
      </trkpt>
      <trkpt lat="45.03293" lon="2.6706">
        <ele>1322.43</ele>
        <time>2025-10-19T07:49:51Z</time>
      </trkpt>
      <trkpt lat="45.03301" lon="2.67053">
        <ele>1325.31</ele>
        <time>2025-10-19T07:50:07Z</time>
      </trkpt>
      <trkpt lat="45.03305" lon="2.6705">
        <ele>1326.76</ele>
        <time>2025-10-19T07:50:16Z</time>
      </trkpt>
      <trkpt lat="45.03314" lon="2.67047">
        <ele>1328.68</ele>
        <time>2025-10-19T07:50:33Z</time>
      </trkpt>
      <trkpt lat="45.03325" lon="2.67041">
        <ele>1330.6</ele>
        <time>2025-10-19T07:50:49Z</time>
      </trkpt>
      <trkpt lat="45.03335" lon="2.67035">
        <ele>1332.04</ele>
        <time>2025-10-19T07:51:03Z</time>
      </trkpt>
      <trkpt lat="45.03346" lon="2.6703">
        <ele>1333.49</ele>
        <time>2025-10-19T07:51:21Z</time>
      </trkpt>
      <trkpt lat="45.03358" lon="2.67027">
        <ele>1335.41</ele>
        <time>2025-10-19T07:51:40Z</time>
      </trkpt>
      <trkpt lat="45.03373" lon="2.67028">
        <ele>1337.33</ele>
        <time>2025-10-19T07:51:58Z</time>
      </trkpt>
      <trkpt lat="45.03388" lon="2.6703">
        <ele>1338.29</ele>
        <time>2025-10-19T07:52:18Z</time>
      </trkpt>
      <trkpt lat="45.03401" lon="2.67033">
        <ele>1339.73</ele>
        <time>2025-10-19T07:52:34Z</time>
      </trkpt>
      <trkpt lat="45.03415" lon="2.67034">
        <ele>1340.7</ele>
        <time>2025-10-19T07:52:50Z</time>
      </trkpt>
      <trkpt lat="45.03427" lon="2.67034">
        <ele>1344.06</ele>
        <time>2025-10-19T07:53:09Z</time>
      </trkpt>
      <trkpt lat="45.0344" lon="2.67032">
        <ele>1345.98</ele>
        <time>2025-10-19T07:53:27Z</time>
      </trkpt>
      <trkpt lat="45.03438" lon="2.67026">
        <ele>1347.91</ele>
        <time>2025-10-19T07:53:46Z</time>
      </trkpt>
      <trkpt lat="45.03429" lon="2.67019">
        <ele>1350.79</ele>
        <time>2025-10-19T07:54:04Z</time>
      </trkpt>
      <trkpt lat="45.0342" lon="2.67009">
        <ele>1353.19</ele>
        <time>2025-10-19T07:54:22Z</time>
      </trkpt>
      <trkpt lat="45.03409" lon="2.67">
        <ele>1355.12</ele>
        <time>2025-10-19T07:54:41Z</time>
      </trkpt>
      <trkpt lat="45.03399" lon="2.6699">
        <ele>1357.04</ele>
        <time>2025-10-19T07:54:59Z</time>
      </trkpt>
      <trkpt lat="45.03387" lon="2.66982">
        <ele>1358</ele>
        <time>2025-10-19T07:55:14Z</time>
      </trkpt>
      <trkpt lat="45.03386" lon="2.66982">
        <ele>1358</ele>
        <time>2025-10-19T07:55:15Z</time>
      </trkpt>
      <trkpt lat="45.03374" lon="2.66973">
        <ele>1358.96</ele>
        <time>2025-10-19T07:55:30Z</time>
      </trkpt>
      <trkpt lat="45.03364" lon="2.66964">
        <ele>1359.92</ele>
        <time>2025-10-19T07:55:44Z</time>
      </trkpt>
      <trkpt lat="45.03362" lon="2.6696">
        <ele>1360.4</ele>
        <time>2025-10-19T07:55:48Z</time>
      </trkpt>
      <trkpt lat="45.03361" lon="2.66945">
        <ele>1359.44</ele>
        <time>2025-10-19T07:55:59Z</time>
      </trkpt>
      <trkpt lat="45.0336" lon="2.66941">
        <ele>1359.44</ele>
        <time>2025-10-19T07:56:02Z</time>
      </trkpt>
      <trkpt lat="45.0336" lon="2.6692">
        <ele>1359.44</ele>
        <time>2025-10-19T07:56:18Z</time>
      </trkpt>
      <trkpt lat="45.03358" lon="2.66898">
        <ele>1359.92</ele>
        <time>2025-10-19T07:56:35Z</time>
      </trkpt>
      <trkpt lat="45.03358" lon="2.66875">
        <ele>1360.4</ele>
        <time>2025-10-19T07:56:51Z</time>
      </trkpt>
      <trkpt lat="45.03358" lon="2.66872">
        <ele>1359.44</ele>
        <time>2025-10-19T07:56:53Z</time>
      </trkpt>
      <trkpt lat="45.03358" lon="2.66862">
        <ele>1358.96</ele>
        <time>2025-10-19T07:57:00Z</time>
      </trkpt>
      <trkpt lat="45.03358" lon="2.66858">
        <ele>1359.44</ele>
        <time>2025-10-19T07:57:03Z</time>
      </trkpt>
      <trkpt lat="45.03358" lon="2.66853">
        <ele>1358.96</ele>
        <time>2025-10-19T07:57:07Z</time>
      </trkpt>
      <trkpt lat="45.03357" lon="2.66843">
        <ele>1357.52</ele>
        <time>2025-10-19T07:57:13Z</time>
      </trkpt>
      <trkpt lat="45.03358" lon="2.66838">
        <ele>1358.96</ele>
        <time>2025-10-19T07:57:16Z</time>
      </trkpt>
      <trkpt lat="45.03362" lon="2.66816">
        <ele>1359.44</ele>
        <time>2025-10-19T07:57:32Z</time>
      </trkpt>
      <trkpt lat="45.03367" lon="2.66805">
        <ele>1360.88</ele>
        <time>2025-10-19T07:57:47Z</time>
      </trkpt>
      <trkpt lat="45.03367" lon="2.66804">
        <ele>1360.88</ele>
        <time>2025-10-19T07:57:48Z</time>
      </trkpt>
      <trkpt lat="45.03372" lon="2.66792">
        <ele>1360.88</ele>
        <time>2025-10-19T07:57:59Z</time>
      </trkpt>
      <trkpt lat="45.03373" lon="2.66789">
        <ele>1360.88</ele>
        <time>2025-10-19T07:58:03Z</time>
      </trkpt>
      <trkpt lat="45.03375" lon="2.66784">
        <ele>1360.88</ele>
        <time>2025-10-19T07:58:06Z</time>
      </trkpt>
      <trkpt lat="45.03375" lon="2.66779">
        <ele>1360.88</ele>
        <time>2025-10-19T07:58:10Z</time>
      </trkpt>
      <trkpt lat="45.03378" lon="2.6676">
        <ele>1360.88</ele>
        <time>2025-10-19T07:58:24Z</time>
      </trkpt>
      <trkpt lat="45.03381" lon="2.66746">
        <ele>1360.88</ele>
        <time>2025-10-19T07:58:34Z</time>
      </trkpt>
      <trkpt lat="45.03383" lon="2.66737">
        <ele>1360.88</ele>
        <time>2025-10-19T07:58:42Z</time>
      </trkpt>
      <trkpt lat="45.03391" lon="2.66723">
        <ele>1362.33</ele>
        <time>2025-10-19T07:58:57Z</time>
      </trkpt>
      <trkpt lat="45.03399" lon="2.66708">
        <ele>1363.77</ele>
        <time>2025-10-19T07:59:11Z</time>
      </trkpt>
      <trkpt lat="45.03402" lon="2.66706">
        <ele>1364.25</ele>
        <time>2025-10-19T07:59:14Z</time>
      </trkpt>
      <trkpt lat="45.03404" lon="2.66702">
        <ele>1364.25</ele>
        <time>2025-10-19T07:59:17Z</time>
      </trkpt>
      <trkpt lat="45.03412" lon="2.66685">
        <ele>1366.17</ele>
        <time>2025-10-19T07:59:33Z</time>
      </trkpt>
      <trkpt lat="45.03419" lon="2.6667">
        <ele>1368.09</ele>
        <time>2025-10-19T07:59:47Z</time>
      </trkpt>
      <trkpt lat="45.03419" lon="2.66669">
        <ele>1368.09</ele>
        <time>2025-10-19T07:59:48Z</time>
      </trkpt>
      <trkpt lat="45.03422" lon="2.66658">
        <ele>1368.57</ele>
        <time>2025-10-19T08:00:01Z</time>
      </trkpt>
      <trkpt lat="45.03424" lon="2.66647">
        <ele>1370.02</ele>
        <time>2025-10-19T08:00:11Z</time>
      </trkpt>
      <trkpt lat="45.03426" lon="2.66645">
        <ele>1370.02</ele>
        <time>2025-10-19T08:00:13Z</time>
      </trkpt>
      <trkpt lat="45.03429" lon="2.66636">
        <ele>1370.5</ele>
        <time>2025-10-19T08:00:20Z</time>
      </trkpt>
      <trkpt lat="45.03431" lon="2.66632">
        <ele>1370.98</ele>
        <time>2025-10-19T08:00:23Z</time>
      </trkpt>
      <trkpt lat="45.03435" lon="2.6662">
        <ele>1371.46</ele>
        <time>2025-10-19T08:00:33Z</time>
      </trkpt>
      <trkpt lat="45.03438" lon="2.66599">
        <ele>1371.94</ele>
        <time>2025-10-19T08:00:49Z</time>
      </trkpt>
      <trkpt lat="45.0344" lon="2.66578">
        <ele>1372.42</ele>
        <time>2025-10-19T08:01:04Z</time>
      </trkpt>
      <trkpt lat="45.03441" lon="2.66562">
        <ele>1373.38</ele>
        <time>2025-10-19T08:01:16Z</time>
      </trkpt>
      <trkpt lat="45.03441" lon="2.66557">
        <ele>1373.38</ele>
        <time>2025-10-19T08:01:20Z</time>
      </trkpt>
      <trkpt lat="45.03443" lon="2.66546">
        <ele>1374.34</ele>
        <time>2025-10-19T08:01:29Z</time>
      </trkpt>
      <trkpt lat="45.03445" lon="2.66538">
        <ele>1374.82</ele>
        <time>2025-10-19T08:01:35Z</time>
      </trkpt>
      <trkpt lat="45.03447" lon="2.66518">
        <ele>1375.3</ele>
        <time>2025-10-19T08:01:50Z</time>
      </trkpt>
      <trkpt lat="45.03446" lon="2.66497">
        <ele>1375.78</ele>
        <time>2025-10-19T08:02:04Z</time>
      </trkpt>
      <trkpt lat="45.03449" lon="2.66482">
        <ele>1377.23</ele>
        <time>2025-10-19T08:02:16Z</time>
      </trkpt>
      <trkpt lat="45.03454" lon="2.66463">
        <ele>1378.19</ele>
        <time>2025-10-19T08:02:31Z</time>
      </trkpt>
      <trkpt lat="45.03458" lon="2.66446">
        <ele>1379.15</ele>
        <time>2025-10-19T08:02:45Z</time>
      </trkpt>
      <trkpt lat="45.03464" lon="2.66431">
        <ele>1380.11</ele>
        <time>2025-10-19T08:02:57Z</time>
      </trkpt>
      <trkpt lat="45.03471" lon="2.66418">
        <ele>1380.11</ele>
        <time>2025-10-19T08:03:11Z</time>
      </trkpt>
      <trkpt lat="45.03474" lon="2.66421">
        <ele>1380.59</ele>
        <time>2025-10-19T08:03:27Z</time>
      </trkpt>
      <trkpt lat="45.03483" lon="2.66432">
        <ele>1382.51</ele>
        <time>2025-10-19T08:03:41Z</time>
      </trkpt>
      <trkpt lat="45.03485" lon="2.66437">
        <ele>1382.51</ele>
        <time>2025-10-19T08:03:46Z</time>
      </trkpt>
      <trkpt lat="45.03492" lon="2.66455">
        <ele>1383.96</ele>
        <time>2025-10-19T08:04:02Z</time>
      </trkpt>
      <trkpt lat="45.03498" lon="2.66467">
        <ele>1385.4</ele>
        <time>2025-10-19T08:04:15Z</time>
      </trkpt>
      <trkpt lat="45.03505" lon="2.66481">
        <ele>1387.8</ele>
        <time>2025-10-19T08:04:30Z</time>
      </trkpt>
      <trkpt lat="45.03509" lon="2.66494">
        <ele>1389.24</ele>
        <time>2025-10-19T08:04:43Z</time>
      </trkpt>
      <trkpt lat="45.03515" lon="2.66508">
        <ele>1390.68</ele>
        <time>2025-10-19T08:04:58Z</time>
      </trkpt>
      <trkpt lat="45.03522" lon="2.66518">
        <ele>1392.13</ele>
        <time>2025-10-19T08:05:11Z</time>
      </trkpt>
      <trkpt lat="45.0353" lon="2.66526">
        <ele>1394.53</ele>
        <time>2025-10-19T08:05:27Z</time>
      </trkpt>
      <trkpt lat="45.03534" lon="2.66541">
        <ele>1396.45</ele>
        <time>2025-10-19T08:05:43Z</time>
      </trkpt>
      <trkpt lat="45.03538" lon="2.66555">
        <ele>1399.34</ele>
        <time>2025-10-19T08:05:58Z</time>
      </trkpt>
      <trkpt lat="45.03544" lon="2.66567">
        <ele>1401.26</ele>
        <time>2025-10-19T08:06:14Z</time>
      </trkpt>
      <trkpt lat="45.0355" lon="2.66579">
        <ele>1403.18</ele>
        <time>2025-10-19T08:06:29Z</time>
      </trkpt>
      <trkpt lat="45.03553" lon="2.66589">
        <ele>1404.62</ele>
        <time>2025-10-19T08:06:41Z</time>
      </trkpt>
      <trkpt lat="45.03558" lon="2.666">
        <ele>1407.03</ele>
        <time>2025-10-19T08:06:56Z</time>
      </trkpt>
      <trkpt lat="45.03563" lon="2.66612">
        <ele>1407.99</ele>
        <time>2025-10-19T08:07:08Z</time>
      </trkpt>
      <trkpt lat="45.03567" lon="2.66622">
        <ele>1409.91</ele>
        <time>2025-10-19T08:07:21Z</time>
      </trkpt>
      <trkpt lat="45.03575" lon="2.66631">
        <ele>1412.31</ele>
        <time>2025-10-19T08:07:35Z</time>
      </trkpt>
      <trkpt lat="45.03582" lon="2.66639">
        <ele>1414.24</ele>
        <time>2025-10-19T08:07:48Z</time>
      </trkpt>
      <trkpt lat="45.03587" lon="2.66648">
        <ele>1415.68</ele>
        <time>2025-10-19T08:08:00Z</time>
      </trkpt>
      <trkpt lat="45.03594" lon="2.66659">
        <ele>1417.12</ele>
        <time>2025-10-19T08:08:14Z</time>
      </trkpt>
      <trkpt lat="45.03601" lon="2.66668">
        <ele>1419.52</ele>
        <time>2025-10-19T08:08:27Z</time>
      </trkpt>
      <trkpt lat="45.03609" lon="2.66679">
        <ele>1421.93</ele>
        <time>2025-10-19T08:08:41Z</time>
      </trkpt>
      <trkpt lat="45.03615" lon="2.6669">
        <ele>1423.37</ele>
        <time>2025-10-19T08:08:55Z</time>
      </trkpt>
      <trkpt lat="45.03622" lon="2.66699">
        <ele>1424.81</ele>
        <time>2025-10-19T08:09:08Z</time>
      </trkpt>
      <trkpt lat="45.03631" lon="2.66708">
        <ele>1426.73</ele>
        <time>2025-10-19T08:09:23Z</time>
      </trkpt>
      <trkpt lat="45.03642" lon="2.66714">
        <ele>1429.14</ele>
        <time>2025-10-19T08:09:38Z</time>
      </trkpt>
      <trkpt lat="45.03647" lon="2.66718">
        <ele>1430.58</ele>
        <time>2025-10-19T08:09:46Z</time>
      </trkpt>
      <trkpt lat="45.03658" lon="2.66723">
        <ele>1432.02</ele>
        <time>2025-10-19T08:10:01Z</time>
      </trkpt>
      <trkpt lat="45.03671" lon="2.66729">
        <ele>1434.42</ele>
        <time>2025-10-19T08:10:18Z</time>
      </trkpt>
      <trkpt lat="45.03682" lon="2.66734">
        <ele>1436.83</ele>
        <time>2025-10-19T08:10:33Z</time>
      </trkpt>
      <trkpt lat="45.03694" lon="2.66741">
        <ele>1438.27</ele>
        <time>2025-10-19T08:10:50Z</time>
      </trkpt>
      <trkpt lat="45.03706" lon="2.6675">
        <ele>1441.15</ele>
        <time>2025-10-19T08:11:07Z</time>
      </trkpt>
      <trkpt lat="45.03715" lon="2.66757">
        <ele>1442.11</ele>
        <time>2025-10-19T08:11:21Z</time>
      </trkpt>
      <trkpt lat="45.03716" lon="2.66758">
        <ele>1442.6</ele>
        <time>2025-10-19T08:11:22Z</time>
      </trkpt>
      <trkpt lat="45.03727" lon="2.6677">
        <ele>1444.04</ele>
        <time>2025-10-19T08:11:39Z</time>
      </trkpt>
      <trkpt lat="45.03736" lon="2.66777">
        <ele>1445.48</ele>
        <time>2025-10-19T08:11:53Z</time>
      </trkpt>
      <trkpt lat="45.03748" lon="2.66782">
        <ele>1447.88</ele>
        <time>2025-10-19T08:12:08Z</time>
      </trkpt>
      <trkpt lat="45.03764" lon="2.66786">
        <ele>1449.81</ele>
        <time>2025-10-19T08:12:28Z</time>
      </trkpt>
      <trkpt lat="45.03774" lon="2.66791">
        <ele>1451.73</ele>
        <time>2025-10-19T08:12:44Z</time>
      </trkpt>
      <trkpt lat="45.03788" lon="2.66798">
        <ele>1454.13</ele>
        <time>2025-10-19T08:13:01Z</time>
      </trkpt>
      <trkpt lat="45.03797" lon="2.66805">
        <ele>1455.57</ele>
        <time>2025-10-19T08:13:16Z</time>
      </trkpt>
      <trkpt lat="45.03806" lon="2.66809">
        <ele>1457.02</ele>
        <time>2025-10-19T08:13:29Z</time>
      </trkpt>
      <trkpt lat="45.03818" lon="2.66815">
        <ele>1458.94</ele>
        <time>2025-10-19T08:13:46Z</time>
      </trkpt>
      <trkpt lat="45.03829" lon="2.66823">
        <ele>1460.86</ele>
        <time>2025-10-19T08:14:02Z</time>
      </trkpt>
      <trkpt lat="45.03836" lon="2.6683">
        <ele>1463.26</ele>
        <time>2025-10-19T08:14:15Z</time>
      </trkpt>
      <trkpt lat="45.03845" lon="2.66837">
        <ele>1464.71</ele>
        <time>2025-10-19T08:14:29Z</time>
      </trkpt>
      <trkpt lat="45.03854" lon="2.66846">
        <ele>1466.63</ele>
        <time>2025-10-19T08:14:45Z</time>
      </trkpt>
      <trkpt lat="45.03861" lon="2.66856">
        <ele>1468.55</ele>
        <time>2025-10-19T08:14:59Z</time>
      </trkpt>
      <trkpt lat="45.03868" lon="2.66867">
        <ele>1470.47</ele>
        <time>2025-10-19T08:15:13Z</time>
      </trkpt>
      <trkpt lat="45.0388" lon="2.66873">
        <ele>1473.36</ele>
        <time>2025-10-19T08:15:30Z</time>
      </trkpt>
      <trkpt lat="45.03895" lon="2.66875">
        <ele>1476.72</ele>
        <time>2025-10-19T08:15:49Z</time>
      </trkpt>
      <trkpt lat="45.03907" lon="2.66876">
        <ele>1478.16</ele>
        <time>2025-10-19T08:16:05Z</time>
      </trkpt>
      <trkpt lat="45.03919" lon="2.66879">
        <ele>1480.57</ele>
        <time>2025-10-19T08:16:19Z</time>
      </trkpt>
      <trkpt lat="45.03931" lon="2.66886">
        <ele>1482.01</ele>
        <time>2025-10-19T08:16:34Z</time>
      </trkpt>
      <trkpt lat="45.03944" lon="2.66892">
        <ele>1484.41</ele>
        <time>2025-10-19T08:16:50Z</time>
      </trkpt>
      <trkpt lat="45.03957" lon="2.66899">
        <ele>1485.85</ele>
        <time>2025-10-19T08:17:06Z</time>
      </trkpt>
      <trkpt lat="45.03972" lon="2.66905">
        <ele>1486.82</ele>
        <time>2025-10-19T08:17:22Z</time>
      </trkpt>
      <trkpt lat="45.0399" lon="2.66906">
        <ele>1488.26</ele>
        <time>2025-10-19T08:17:41Z</time>
      </trkpt>
      <trkpt lat="45.04005" lon="2.66905">
        <ele>1489.7</ele>
        <time>2025-10-19T08:17:59Z</time>
      </trkpt>
      <trkpt lat="45.04023" lon="2.66908">
        <ele>1492.1</ele>
        <time>2025-10-19T08:18:18Z</time>
      </trkpt>
      <trkpt lat="45.04037" lon="2.66911">
        <ele>1492.58</ele>
        <time>2025-10-19T08:18:33Z</time>
      </trkpt>
      <trkpt lat="45.04058" lon="2.66909">
        <ele>1493.06</ele>
        <time>2025-10-19T08:18:53Z</time>
      </trkpt>
      <trkpt lat="45.04073" lon="2.66907">
        <ele>1494.03</ele>
        <time>2025-10-19T08:19:10Z</time>
      </trkpt>
      <trkpt lat="45.04087" lon="2.66897">
        <ele>1493.55</ele>
        <time>2025-10-19T08:19:25Z</time>
      </trkpt>
      <trkpt lat="45.04104" lon="2.66886">
        <ele>1493.55</ele>
        <time>2025-10-19T08:19:42Z</time>
      </trkpt>
      <trkpt lat="45.04121" lon="2.66879">
        <ele>1493.55</ele>
        <time>2025-10-19T08:20:00Z</time>
      </trkpt>
      <trkpt lat="45.04135" lon="2.66871">
        <ele>1494.51</ele>
        <time>2025-10-19T08:20:14Z</time>
      </trkpt>
      <trkpt lat="45.04154" lon="2.66861">
        <ele>1493.55</ele>
        <time>2025-10-19T08:20:33Z</time>
      </trkpt>
      <trkpt lat="45.04169" lon="2.66847">
        <ele>1493.55</ele>
        <time>2025-10-19T08:20:50Z</time>
      </trkpt>
      <trkpt lat="45.04184" lon="2.66832">
        <ele>1494.99</ele>
        <time>2025-10-19T08:21:08Z</time>
      </trkpt>
      <trkpt lat="45.042" lon="2.66822">
        <ele>1494.51</ele>
        <time>2025-10-19T08:21:25Z</time>
      </trkpt>
      <trkpt lat="45.04216" lon="2.66816">
        <ele>1495.47</ele>
        <time>2025-10-19T08:21:42Z</time>
      </trkpt>
      <trkpt lat="45.04222" lon="2.66814">
        <ele>1497.39</ele>
        <time>2025-10-19T08:21:48Z</time>
      </trkpt>
      <trkpt lat="45.04236" lon="2.66812">
        <ele>1498.83</ele>
        <time>2025-10-19T08:22:03Z</time>
      </trkpt>
      <trkpt lat="45.04252" lon="2.66812">
        <ele>1499.79</ele>
        <time>2025-10-19T08:22:20Z</time>
      </trkpt>
      <trkpt lat="45.04258" lon="2.66812">
        <ele>1501.24</ele>
        <time>2025-10-19T08:22:27Z</time>
      </trkpt>
      <trkpt lat="45.04271" lon="2.66821">
        <ele>1502.2</ele>
        <time>2025-10-19T08:22:44Z</time>
      </trkpt>
      <trkpt lat="45.04283" lon="2.66829">
        <ele>1503.64</ele>
        <time>2025-10-19T08:23:00Z</time>
      </trkpt>
      <trkpt lat="45.04294" lon="2.66835">
        <ele>1505.08</ele>
        <time>2025-10-19T08:23:14Z</time>
      </trkpt>
      <trkpt lat="45.04305" lon="2.66836">
        <ele>1507.97</ele>
        <time>2025-10-19T08:23:30Z</time>
      </trkpt>
      <trkpt lat="45.04319" lon="2.66834">
        <ele>1510.85</ele>
        <time>2025-10-19T08:23:49Z</time>
      </trkpt>
      <trkpt lat="45.04329" lon="2.66832">
        <ele>1513.25</ele>
        <time>2025-10-19T08:24:07Z</time>
      </trkpt>
      <trkpt lat="45.0434" lon="2.66831">
        <ele>1515.66</ele>
        <time>2025-10-19T08:24:25Z</time>
      </trkpt>
      <trkpt lat="45.04348" lon="2.66836">
        <ele>1517.58</ele>
        <time>2025-10-19T08:24:40Z</time>
      </trkpt>
      <trkpt lat="45.04357" lon="2.66835">
        <ele>1519.02</ele>
        <time>2025-10-19T08:24:55Z</time>
      </trkpt>
      <trkpt lat="45.04364" lon="2.66831">
        <ele>1520.46</ele>
        <time>2025-10-19T08:25:12Z</time>
      </trkpt>
      <trkpt lat="45.04367" lon="2.66824">
        <ele>1520.94</ele>
        <time>2025-10-19T08:25:26Z</time>
      </trkpt>
      <trkpt lat="45.0437" lon="2.66818">
        <ele>1520.94</ele>
        <time>2025-10-19T08:25:41Z</time>
      </trkpt>
      <trkpt lat="45.0437" lon="2.66819">
        <ele>1521.42</ele>
        <time>2025-10-19T08:25:56Z</time>
      </trkpt>
      <trkpt lat="45.04372" lon="2.6682">
        <ele>1521.42</ele>
        <time>2025-10-19T08:26:08Z</time>
      </trkpt>
      <trkpt lat="45.04375" lon="2.66835">
        <ele>1523.35</ele>
        <time>2025-10-19T08:26:21Z</time>
      </trkpt>
      <trkpt lat="45.04384" lon="2.66832">
        <ele>1523.35</ele>
        <time>2025-10-19T08:26:35Z</time>
      </trkpt>
      <trkpt lat="45.04395" lon="2.66832">
        <ele>1524.79</ele>
        <time>2025-10-19T08:26:52Z</time>
      </trkpt>
      <trkpt lat="45.04402" lon="2.66828">
        <ele>1526.71</ele>
        <time>2025-10-19T08:27:07Z</time>
      </trkpt>
      <trkpt lat="45.04413" lon="2.66828">
        <ele>1528.63</ele>
        <time>2025-10-19T08:27:23Z</time>
      </trkpt>
      <trkpt lat="45.04424" lon="2.66833">
        <ele>1530.56</ele>
        <time>2025-10-19T08:27:39Z</time>
      </trkpt>
      <trkpt lat="45.04439" lon="2.66834">
        <ele>1532.96</ele>
        <time>2025-10-19T08:27:59Z</time>
      </trkpt>
      <trkpt lat="45.04449" lon="2.66838">
        <ele>1534.88</ele>
        <time>2025-10-19T08:28:15Z</time>
      </trkpt>
      <trkpt lat="45.04462" lon="2.6684">
        <ele>1535.84</ele>
        <time>2025-10-19T08:28:32Z</time>
      </trkpt>
      <trkpt lat="45.04471" lon="2.66843">
        <ele>1536.8</ele>
        <time>2025-10-19T08:28:46Z</time>
      </trkpt>
      <trkpt lat="45.04474" lon="2.66842">
        <ele>1536.8</ele>
        <time>2025-10-19T08:28:49Z</time>
      </trkpt>
      <trkpt lat="45.04488" lon="2.66841">
        <ele>1536.8</ele>
        <time>2025-10-19T08:29:03Z</time>
      </trkpt>
      <trkpt lat="45.04495" lon="2.66842">
        <ele>1537.29</ele>
        <time>2025-10-19T08:29:13Z</time>
      </trkpt>
      <trkpt lat="45.04506" lon="2.6684">
        <ele>1539.21</ele>
        <time>2025-10-19T08:29:29Z</time>
      </trkpt>
      <trkpt lat="45.04511" lon="2.66841">
        <ele>1542.09</ele>
        <time>2025-10-19T08:29:46Z</time>
      </trkpt>
      <trkpt lat="45.04514" lon="2.6684">
        <ele>1540.65</ele>
        <time>2025-10-19T08:29:58Z</time>
      </trkpt>
      <trkpt lat="45.04521" lon="2.66837">
        <ele>1540.17</ele>
        <time>2025-10-19T08:30:15Z</time>
      </trkpt>
      <trkpt lat="45.04519" lon="2.66839">
        <ele>1540.17</ele>
        <time>2025-10-19T08:30:33Z</time>
      </trkpt>
      <trkpt lat="45.04519" lon="2.6684">
        <ele>1540.65</ele>
        <time>2025-10-19T08:31:10Z</time>
      </trkpt>
      <trkpt lat="45.04519" lon="2.66839">
        <ele>1540.65</ele>
        <time>2025-10-19T08:31:27Z</time>
      </trkpt>
      <trkpt lat="45.0452" lon="2.66837">
        <ele>1540.17</ele>
        <time>2025-10-19T08:32:02Z</time>
      </trkpt>
      <trkpt lat="45.04519" lon="2.66839">
        <ele>1539.69</ele>
        <time>2025-10-19T08:32:20Z</time>
      </trkpt>
      <trkpt lat="45.04527" lon="2.66836">
        <ele>1539.69</ele>
        <time>2025-10-19T08:32:41Z</time>
      </trkpt>
      <trkpt lat="45.04536" lon="2.66836">
        <ele>1538.25</ele>
        <time>2025-10-19T08:32:53Z</time>
      </trkpt>
      <trkpt lat="45.04546" lon="2.66844">
        <ele>1535.36</ele>
        <time>2025-10-19T08:33:10Z</time>
      </trkpt>
      <trkpt lat="45.0455" lon="2.66847">
        <ele>1534.4</ele>
        <time>2025-10-19T08:33:25Z</time>
      </trkpt>
      <trkpt lat="45.04556" lon="2.6684">
        <ele>1531.52</ele>
        <time>2025-10-19T08:33:42Z</time>
      </trkpt>
      <trkpt lat="45.04565" lon="2.66844">
        <ele>1528.15</ele>
        <time>2025-10-19T08:33:59Z</time>
      </trkpt>
      <trkpt lat="45.04571" lon="2.6685">
        <ele>1526.71</ele>
        <time>2025-10-19T08:34:08Z</time>
      </trkpt>
      <trkpt lat="45.04577" lon="2.66853">
        <ele>1527.67</ele>
        <time>2025-10-19T08:34:15Z</time>
      </trkpt>
      <trkpt lat="45.04579" lon="2.66857">
        <ele>1527.67</ele>
        <time>2025-10-19T08:34:21Z</time>
      </trkpt>
      <trkpt lat="45.04594" lon="2.66859">
        <ele>1528.63</ele>
        <time>2025-10-19T08:34:36Z</time>
      </trkpt>
      <trkpt lat="45.04601" lon="2.66861">
        <ele>1528.63</ele>
        <time>2025-10-19T08:34:43Z</time>
      </trkpt>
      <trkpt lat="45.04604" lon="2.6686">
        <ele>1528.63</ele>
        <time>2025-10-19T08:34:46Z</time>
      </trkpt>
      <trkpt lat="45.0462" lon="2.66864">
        <ele>1529.59</ele>
        <time>2025-10-19T08:35:02Z</time>
      </trkpt>
      <trkpt lat="45.04629" lon="2.66855">
        <ele>1530.56</ele>
        <time>2025-10-19T08:35:16Z</time>
      </trkpt>
      <trkpt lat="45.04642" lon="2.66845">
        <ele>1532</ele>
        <time>2025-10-19T08:35:32Z</time>
      </trkpt>
      <trkpt lat="45.04645" lon="2.66837">
        <ele>1528.63</ele>
        <time>2025-10-19T08:35:45Z</time>
      </trkpt>
      <trkpt lat="45.04645" lon="2.66831">
        <ele>1528.15</ele>
        <time>2025-10-19T08:35:51Z</time>
      </trkpt>
      <trkpt lat="45.0465" lon="2.66817">
        <ele>1526.23</ele>
        <time>2025-10-19T08:36:08Z</time>
      </trkpt>
      <trkpt lat="45.04654" lon="2.66815">
        <ele>1525.75</ele>
        <time>2025-10-19T08:36:13Z</time>
      </trkpt>
      <trkpt lat="45.04663" lon="2.66811">
        <ele>1522.87</ele>
        <time>2025-10-19T08:36:28Z</time>
      </trkpt>
      <trkpt lat="45.04667" lon="2.6681">
        <ele>1522.87</ele>
        <time>2025-10-19T08:36:33Z</time>
      </trkpt>
      <trkpt lat="45.04679" lon="2.66812">
        <ele>1521.42</ele>
        <time>2025-10-19T08:36:50Z</time>
      </trkpt>
      <trkpt lat="45.04691" lon="2.66808">
        <ele>1518.54</ele>
        <time>2025-10-19T08:37:07Z</time>
      </trkpt>
      <trkpt lat="45.04707" lon="2.66806">
        <ele>1515.66</ele>
        <time>2025-10-19T08:37:26Z</time>
      </trkpt>
      <trkpt lat="45.04715" lon="2.66801">
        <ele>1514.69</ele>
        <time>2025-10-19T08:37:36Z</time>
      </trkpt>
      <trkpt lat="45.04726" lon="2.6679">
        <ele>1512.29</ele>
        <time>2025-10-19T08:37:55Z</time>
      </trkpt>
      <trkpt lat="45.04738" lon="2.66781">
        <ele>1509.41</ele>
        <time>2025-10-19T08:38:12Z</time>
      </trkpt>
      <trkpt lat="45.04753" lon="2.66779">
        <ele>1506.52</ele>
        <time>2025-10-19T08:38:31Z</time>
      </trkpt>
      <trkpt lat="45.04763" lon="2.66775">
        <ele>1503.64</ele>
        <time>2025-10-19T08:38:44Z</time>
      </trkpt>
      <trkpt lat="45.04765" lon="2.66771">
        <ele>1503.64</ele>
        <time>2025-10-19T08:38:47Z</time>
      </trkpt>
      <trkpt lat="45.04775" lon="2.66764">
        <ele>1499.79</ele>
        <time>2025-10-19T08:39:02Z</time>
      </trkpt>
      <trkpt lat="45.04785" lon="2.66757">
        <ele>1496.91</ele>
        <time>2025-10-19T08:39:14Z</time>
      </trkpt>
      <trkpt lat="45.048" lon="2.66744">
        <ele>1495.47</ele>
        <time>2025-10-19T08:39:34Z</time>
      </trkpt>
      <trkpt lat="45.04812" lon="2.6673">
        <ele>1494.51</ele>
        <time>2025-10-19T08:39:50Z</time>
      </trkpt>
      <trkpt lat="45.04832" lon="2.66721">
        <ele>1494.51</ele>
        <time>2025-10-19T08:40:11Z</time>
      </trkpt>
      <trkpt lat="45.04844" lon="2.66717">
        <ele>1494.03</ele>
        <time>2025-10-19T08:40:24Z</time>
      </trkpt>
      <trkpt lat="45.04857" lon="2.66713">
        <ele>1493.55</ele>
        <time>2025-10-19T08:40:37Z</time>
      </trkpt>
      <trkpt lat="45.04862" lon="2.66711">
        <ele>1494.51</ele>
        <time>2025-10-19T08:40:42Z</time>
      </trkpt>
      <trkpt lat="45.04873" lon="2.66705">
        <ele>1495.47</ele>
        <time>2025-10-19T08:40:55Z</time>
      </trkpt>
      <trkpt lat="45.04881" lon="2.66697">
        <ele>1494.51</ele>
        <time>2025-10-19T08:41:05Z</time>
      </trkpt>
      <trkpt lat="45.04883" lon="2.66692">
        <ele>1494.03</ele>
        <time>2025-10-19T08:41:10Z</time>
      </trkpt>
      <trkpt lat="45.04887" lon="2.66685">
        <ele>1493.06</ele>
        <time>2025-10-19T08:41:16Z</time>
      </trkpt>
      <trkpt lat="45.04888" lon="2.66682">
        <ele>1492.1</ele>
        <time>2025-10-19T08:41:18Z</time>
      </trkpt>
      <trkpt lat="45.04895" lon="2.66665">
        <ele>1488.74</ele>
        <time>2025-10-19T08:41:35Z</time>
      </trkpt>
      <trkpt lat="45.04895" lon="2.66661">
        <ele>1487.78</ele>
        <time>2025-10-19T08:41:39Z</time>
      </trkpt>
      <trkpt lat="45.04899" lon="2.66656">
        <ele>1487.78</ele>
        <time>2025-10-19T08:41:45Z</time>
      </trkpt>
      <trkpt lat="45.04908" lon="2.66659">
        <ele>1489.22</ele>
        <time>2025-10-19T08:41:57Z</time>
      </trkpt>
      <trkpt lat="45.04916" lon="2.66662">
        <ele>1489.7</ele>
        <time>2025-10-19T08:42:07Z</time>
      </trkpt>
      <trkpt lat="45.04933" lon="2.66659">
        <ele>1491.62</ele>
        <time>2025-10-19T08:42:27Z</time>
      </trkpt>
      <trkpt lat="45.04936" lon="2.66657">
        <ele>1491.62</ele>
        <time>2025-10-19T08:42:30Z</time>
      </trkpt>
      <trkpt lat="45.04945" lon="2.66642">
        <ele>1493.55</ele>
        <time>2025-10-19T08:42:46Z</time>
      </trkpt>
      <trkpt lat="45.04952" lon="2.66633">
        <ele>1495.47</ele>
        <time>2025-10-19T08:43:00Z</time>
      </trkpt>
      <trkpt lat="45.04957" lon="2.66627">
        <ele>1496.91</ele>
        <time>2025-10-19T08:43:09Z</time>
      </trkpt>
      <trkpt lat="45.04963" lon="2.6662">
        <ele>1498.35</ele>
        <time>2025-10-19T08:43:23Z</time>
      </trkpt>
      <trkpt lat="45.0497" lon="2.66611">
        <ele>1499.79</ele>
        <time>2025-10-19T08:43:37Z</time>
      </trkpt>
      <trkpt lat="45.04978" lon="2.66603">
        <ele>1501.24</ele>
        <time>2025-10-19T08:43:53Z</time>
      </trkpt>
      <trkpt lat="45.04984" lon="2.66593">
        <ele>1504.12</ele>
        <time>2025-10-19T08:44:08Z</time>
      </trkpt>
      <trkpt lat="45.04992" lon="2.6659">
        <ele>1506.04</ele>
        <time>2025-10-19T08:44:25Z</time>
      </trkpt>
      <trkpt lat="45.04998" lon="2.66584">
        <ele>1507.97</ele>
        <time>2025-10-19T08:44:39Z</time>
      </trkpt>
      <trkpt lat="45.05005" lon="2.66579">
        <ele>1509.89</ele>
        <time>2025-10-19T08:44:55Z</time>
      </trkpt>
      <trkpt lat="45.05009" lon="2.66572">
        <ele>1511.33</ele>
        <time>2025-10-19T08:45:09Z</time>
      </trkpt>
      <trkpt lat="45.0501" lon="2.66568">
        <ele>1512.77</ele>
        <time>2025-10-19T08:45:15Z</time>
      </trkpt>
      <trkpt lat="45.05022" lon="2.66564">
        <ele>1514.21</ele>
        <time>2025-10-19T08:45:33Z</time>
      </trkpt>
      <trkpt lat="45.05029" lon="2.66556">
        <ele>1515.66</ele>
        <time>2025-10-19T08:45:48Z</time>
      </trkpt>
      <trkpt lat="45.05034" lon="2.66547">
        <ele>1517.58</ele>
        <time>2025-10-19T08:46:03Z</time>
      </trkpt>
      <trkpt lat="45.05035" lon="2.66538">
        <ele>1519.98</ele>
        <time>2025-10-19T08:46:16Z</time>
      </trkpt>
      <trkpt lat="45.05035" lon="2.66531">
        <ele>1521.9</ele>
        <time>2025-10-19T08:46:28Z</time>
      </trkpt>
      <trkpt lat="45.0504" lon="2.66528">
        <ele>1523.83</ele>
        <time>2025-10-19T08:46:41Z</time>
      </trkpt>
      <trkpt lat="45.05042" lon="2.66527">
        <ele>1524.79</ele>
        <time>2025-10-19T08:46:45Z</time>
      </trkpt>
      <trkpt lat="45.0505" lon="2.66526">
        <ele>1527.19</ele>
        <time>2025-10-19T08:46:59Z</time>
      </trkpt>
      <trkpt lat="45.05056" lon="2.6652">
        <ele>1528.63</ele>
        <time>2025-10-19T08:47:12Z</time>
      </trkpt>
      <trkpt lat="45.05059" lon="2.6651">
        <ele>1530.56</ele>
        <time>2025-10-19T08:47:25Z</time>
      </trkpt>
      <trkpt lat="45.05064" lon="2.66505">
        <ele>1532</ele>
        <time>2025-10-19T08:47:38Z</time>
      </trkpt>
      <trkpt lat="45.05068" lon="2.665">
        <ele>1533.92</ele>
        <time>2025-10-19T08:47:51Z</time>
      </trkpt>
      <trkpt lat="45.05072" lon="2.66495">
        <ele>1536.32</ele>
        <time>2025-10-19T08:48:09Z</time>
      </trkpt>
      <trkpt lat="45.05081" lon="2.66491">
        <ele>1538.73</ele>
        <time>2025-10-19T08:48:29Z</time>
      </trkpt>
      <trkpt lat="45.05083" lon="2.66485">
        <ele>1539.69</ele>
        <time>2025-10-19T08:48:40Z</time>
      </trkpt>
      <trkpt lat="45.05092" lon="2.66483">
        <ele>1543.05</ele>
        <time>2025-10-19T08:48:58Z</time>
      </trkpt>
      <trkpt lat="45.05098" lon="2.66481">
        <ele>1545.46</ele>
        <time>2025-10-19T08:49:15Z</time>
      </trkpt>
      <trkpt lat="45.05106" lon="2.6648">
        <ele>1548.34</ele>
        <time>2025-10-19T08:49:35Z</time>
      </trkpt>
      <trkpt lat="45.05112" lon="2.66476">
        <ele>1551.71</ele>
        <time>2025-10-19T08:49:49Z</time>
      </trkpt>
      <trkpt lat="45.05116" lon="2.6647">
        <ele>1555.07</ele>
        <time>2025-10-19T08:50:02Z</time>
      </trkpt>
      <trkpt lat="45.05117" lon="2.66468">
        <ele>1556.51</ele>
        <time>2025-10-19T08:50:07Z</time>
      </trkpt>
      <trkpt lat="45.05118" lon="2.66465">
        <ele>1558.43</ele>
        <time>2025-10-19T08:50:14Z</time>
      </trkpt>
      <trkpt lat="45.05118" lon="2.66461">
        <ele>1556.99</ele>
        <time>2025-10-19T08:50:18Z</time>
      </trkpt>
      <trkpt lat="45.05117" lon="2.66458">
        <ele>1555.55</ele>
        <time>2025-10-19T08:50:21Z</time>
      </trkpt>
      <trkpt lat="45.0511" lon="2.66443">
        <ele>1556.99</ele>
        <time>2025-10-19T08:50:34Z</time>
      </trkpt>
      <trkpt lat="45.05104" lon="2.66428">
        <ele>1558.92</ele>
        <time>2025-10-19T08:50:48Z</time>
      </trkpt>
      <trkpt lat="45.05103" lon="2.66426">
        <ele>1557.47</ele>
        <time>2025-10-19T08:50:51Z</time>
      </trkpt>
      <trkpt lat="45.05101" lon="2.66424">
        <ele>1554.11</ele>
        <time>2025-10-19T08:50:53Z</time>
      </trkpt>
      <trkpt lat="45.051" lon="2.66421">
        <ele>1554.59</ele>
        <time>2025-10-19T08:50:57Z</time>
      </trkpt>
      <trkpt lat="45.05099" lon="2.66417">
        <ele>1556.99</ele>
        <time>2025-10-19T08:51:00Z</time>
      </trkpt>
      <trkpt lat="45.05099" lon="2.66413">
        <ele>1560.36</ele>
        <time>2025-10-19T08:51:03Z</time>
      </trkpt>
      <trkpt lat="45.05099" lon="2.66411">
        <ele>1557.95</ele>
        <time>2025-10-19T08:51:06Z</time>
      </trkpt>
      <trkpt lat="45.05099" lon="2.66406">
        <ele>1559.4</ele>
        <time>2025-10-19T08:51:12Z</time>
      </trkpt>
      <trkpt lat="45.05098" lon="2.66398">
        <ele>1559.4</ele>
        <time>2025-10-19T08:51:20Z</time>
      </trkpt>
      <trkpt lat="45.05098" lon="2.66397">
        <ele>1562.28</ele>
        <time>2025-10-19T08:51:21Z</time>
      </trkpt>
      <trkpt lat="45.05098" lon="2.66397">
        <ele>1562.28</ele>
        <time>2025-10-19T08:51:22Z</time>
      </trkpt>
      <trkpt lat="45.05098" lon="2.66395">
        <ele>1559.4</ele>
        <time>2025-10-19T08:51:26Z</time>
      </trkpt>
      <trkpt lat="45.05096" lon="2.66384">
        <ele>1559.4</ele>
        <time>2025-10-19T08:51:35Z</time>
      </trkpt>
      <trkpt lat="45.05096" lon="2.6638">
        <ele>1559.88</ele>
        <time>2025-10-19T08:51:38Z</time>
      </trkpt>
      <trkpt lat="45.05094" lon="2.6636">
        <ele>1559.88</ele>
        <time>2025-10-19T08:51:54Z</time>
      </trkpt>
      <trkpt lat="45.05092" lon="2.66344">
        <ele>1559.4</ele>
        <time>2025-10-19T08:52:08Z</time>
      </trkpt>
      <trkpt lat="45.05092" lon="2.66337">
        <ele>1562.76</ele>
        <time>2025-10-19T08:52:17Z</time>
      </trkpt>
      <trkpt lat="45.05093" lon="2.66338">
        <ele>1564.68</ele>
        <time>2025-10-19T08:52:19Z</time>
      </trkpt>
      <trkpt lat="45.05093" lon="2.66337">
        <ele>1560.36</ele>
        <time>2025-10-19T08:52:23Z</time>
      </trkpt>
      <trkpt lat="45.05093" lon="2.66337">
        <ele>1560.36</ele>
        <time>2025-10-19T08:52:24Z</time>
      </trkpt>
      <trkpt lat="45.05092" lon="2.66334">
        <ele>1563.72</ele>
        <time>2025-10-19T08:52:28Z</time>
      </trkpt>
      <trkpt lat="45.05092" lon="2.66333">
        <ele>1563.72</ele>
        <time>2025-10-19T08:52:29Z</time>
      </trkpt>
      <trkpt lat="45.05092" lon="2.66326">
        <ele>1561.8</ele>
        <time>2025-10-19T08:52:39Z</time>
      </trkpt>
      <trkpt lat="45.05093" lon="2.66323">
        <ele>1565.16</ele>
        <time>2025-10-19T08:52:43Z</time>
      </trkpt>
      <trkpt lat="45.05094" lon="2.66326">
        <ele>1568.53</ele>
        <time>2025-10-19T08:52:51Z</time>
      </trkpt>
      <trkpt lat="45.05094" lon="2.66319">
        <ele>1567.57</ele>
        <time>2025-10-19T08:53:03Z</time>
      </trkpt>
      <trkpt lat="45.0509" lon="2.66315">
        <ele>1567.57</ele>
        <time>2025-10-19T08:53:26Z</time>
      </trkpt>
      <trkpt lat="45.05092" lon="2.66321">
        <ele>1567.57</ele>
        <time>2025-10-19T08:53:55Z</time>
      </trkpt>
      <trkpt lat="45.05091" lon="2.66323">
        <ele>1568.05</ele>
        <time>2025-10-19T08:54:13Z</time>
      </trkpt>
      <trkpt lat="45.05091" lon="2.66325">
        <ele>1564.68</ele>
        <time>2025-10-19T08:54:21Z</time>
      </trkpt>
      <trkpt lat="45.0509" lon="2.66328">
        <ele>1564.2</ele>
        <time>2025-10-19T08:54:39Z</time>
      </trkpt>
      <trkpt lat="45.05093" lon="2.66335">
        <ele>1563.72</ele>
        <time>2025-10-19T08:54:54Z</time>
      </trkpt>
      <trkpt lat="45.05095" lon="2.66342">
        <ele>1563.24</ele>
        <time>2025-10-19T08:55:01Z</time>
      </trkpt>
      <trkpt lat="45.05097" lon="2.66358">
        <ele>1563.72</ele>
        <time>2025-10-19T08:55:13Z</time>
      </trkpt>
      <trkpt lat="45.05097" lon="2.66363">
        <ele>1562.28</ele>
        <time>2025-10-19T08:55:17Z</time>
      </trkpt>
      <trkpt lat="45.05099" lon="2.66386">
        <ele>1561.8</ele>
        <time>2025-10-19T08:55:33Z</time>
      </trkpt>
      <trkpt lat="45.051" lon="2.66388">
        <ele>1562.76</ele>
        <time>2025-10-19T08:55:35Z</time>
      </trkpt>
      <trkpt lat="45.05102" lon="2.66403">
        <ele>1560.84</ele>
        <time>2025-10-19T08:55:46Z</time>
      </trkpt>
      <trkpt lat="45.05102" lon="2.66412">
        <ele>1558.92</ele>
        <time>2025-10-19T08:55:52Z</time>
      </trkpt>
      <trkpt lat="45.05103" lon="2.66417">
        <ele>1560.36</ele>
        <time>2025-10-19T08:55:55Z</time>
      </trkpt>
      <trkpt lat="45.05103" lon="2.66419">
        <ele>1558.92</ele>
        <time>2025-10-19T08:55:57Z</time>
      </trkpt>
      <trkpt lat="45.05105" lon="2.66426">
        <ele>1557.95</ele>
        <time>2025-10-19T08:56:02Z</time>
      </trkpt>
      <trkpt lat="45.05112" lon="2.66444">
        <ele>1555.55</ele>
        <time>2025-10-19T08:56:17Z</time>
      </trkpt>
      <trkpt lat="45.05116" lon="2.66456">
        <ele>1556.99</ele>
        <time>2025-10-19T08:56:27Z</time>
      </trkpt>
      <trkpt lat="45.05119" lon="2.66463">
        <ele>1556.99</ele>
        <time>2025-10-19T08:56:35Z</time>
      </trkpt>
      <trkpt lat="45.05134" lon="2.66472">
        <ele>1556.03</ele>
        <time>2025-10-19T08:56:53Z</time>
      </trkpt>
      <trkpt lat="45.05142" lon="2.66483">
        <ele>1557.95</ele>
        <time>2025-10-19T08:57:10Z</time>
      </trkpt>
      <trkpt lat="45.05146" lon="2.66493">
        <ele>1561.32</ele>
        <time>2025-10-19T08:57:26Z</time>
      </trkpt>
      <trkpt lat="45.05151" lon="2.66499">
        <ele>1564.68</ele>
        <time>2025-10-19T08:57:39Z</time>
      </trkpt>
      <trkpt lat="45.05154" lon="2.66502">
        <ele>1565.64</ele>
        <time>2025-10-19T08:57:53Z</time>
      </trkpt>
      <trkpt lat="45.05155" lon="2.66504">
        <ele>1567.57</ele>
        <time>2025-10-19T08:57:57Z</time>
      </trkpt>
      <trkpt lat="45.05162" lon="2.66513">
        <ele>1568.05</ele>
        <time>2025-10-19T08:58:13Z</time>
      </trkpt>
      <trkpt lat="45.05168" lon="2.66518">
        <ele>1568.05</ele>
        <time>2025-10-19T08:58:29Z</time>
      </trkpt>
      <trkpt lat="45.05171" lon="2.6652">
        <ele>1568.05</ele>
        <time>2025-10-19T08:58:59Z</time>
      </trkpt>
      <trkpt lat="45.05173" lon="2.66522">
        <ele>1564.68</ele>
        <time>2025-10-19T08:59:11Z</time>
      </trkpt>
      <trkpt lat="45.05175" lon="2.66518">
        <ele>1566.12</ele>
        <time>2025-10-19T08:59:25Z</time>
      </trkpt>
      <trkpt lat="45.05174" lon="2.66516">
        <ele>1567.57</ele>
        <time>2025-10-19T08:59:31Z</time>
      </trkpt>
      <trkpt lat="45.05172" lon="2.66512">
        <ele>1566.12</ele>
        <time>2025-10-19T08:59:39Z</time>
      </trkpt>
      <trkpt lat="45.05174" lon="2.66509">
        <ele>1562.76</ele>
        <time>2025-10-19T08:59:53Z</time>
      </trkpt>
      <trkpt lat="45.05179" lon="2.66518">
        <ele>1559.88</ele>
        <time>2025-10-19T09:00:06Z</time>
      </trkpt>
      <trkpt lat="45.05181" lon="2.66531">
        <ele>1557.95</ele>
        <time>2025-10-19T09:00:24Z</time>
      </trkpt>
      <trkpt lat="45.05182" lon="2.66536">
        <ele>1555.07</ele>
        <time>2025-10-19T09:00:37Z</time>
      </trkpt>
      <trkpt lat="45.05182" lon="2.66536">
        <ele>1556.51</ele>
        <time>2025-10-19T09:00:39Z</time>
      </trkpt>
      <trkpt lat="45.05185" lon="2.66539">
        <ele>1552.67</ele>
        <time>2025-10-19T09:00:49Z</time>
      </trkpt>
      <trkpt lat="45.05187" lon="2.66545">
        <ele>1549.3</ele>
        <time>2025-10-19T09:01:05Z</time>
      </trkpt>
      <trkpt lat="45.05187" lon="2.66551">
        <ele>1546.42</ele>
        <time>2025-10-19T09:01:18Z</time>
      </trkpt>
      <trkpt lat="45.0519" lon="2.66556">
        <ele>1543.53</ele>
        <time>2025-10-19T09:01:34Z</time>
      </trkpt>
      <trkpt lat="45.05188" lon="2.66561">
        <ele>1542.57</ele>
        <time>2025-10-19T09:01:49Z</time>
      </trkpt>
      <trkpt lat="45.05191" lon="2.66566">
        <ele>1539.21</ele>
        <time>2025-10-19T09:02:01Z</time>
      </trkpt>
      <trkpt lat="45.05194" lon="2.66574">
        <ele>1536.8</ele>
        <time>2025-10-19T09:02:16Z</time>
      </trkpt>
      <trkpt lat="45.05194" lon="2.66578">
        <ele>1534.88</ele>
        <time>2025-10-19T09:02:20Z</time>
      </trkpt>
      <trkpt lat="45.05194" lon="2.66584">
        <ele>1531.52</ele>
        <time>2025-10-19T09:02:34Z</time>
      </trkpt>
      <trkpt lat="45.05195" lon="2.66591">
        <ele>1528.63</ele>
        <time>2025-10-19T09:02:48Z</time>
      </trkpt>
      <trkpt lat="45.05195" lon="2.66601">
        <ele>1527.19</ele>
        <time>2025-10-19T09:03:03Z</time>
      </trkpt>
      <trkpt lat="45.05196" lon="2.66606">
        <ele>1524.79</ele>
        <time>2025-10-19T09:03:20Z</time>
      </trkpt>
      <trkpt lat="45.05197" lon="2.6661">
        <ele>1523.35</ele>
        <time>2025-10-19T09:03:28Z</time>
      </trkpt>
      <trkpt lat="45.05199" lon="2.66615">
        <ele>1519.98</ele>
        <time>2025-10-19T09:03:40Z</time>
      </trkpt>
      <trkpt lat="45.05203" lon="2.66625">
        <ele>1516.62</ele>
        <time>2025-10-19T09:03:55Z</time>
      </trkpt>
      <trkpt lat="45.05204" lon="2.66637">
        <ele>1514.69</ele>
        <time>2025-10-19T09:04:10Z</time>
      </trkpt>
      <trkpt lat="45.05204" lon="2.66641">
        <ele>1513.25</ele>
        <time>2025-10-19T09:04:29Z</time>
      </trkpt>
      <trkpt lat="45.05208" lon="2.66647">
        <ele>1510.37</ele>
        <time>2025-10-19T09:04:42Z</time>
      </trkpt>
      <trkpt lat="45.05211" lon="2.66653">
        <ele>1507</ele>
        <time>2025-10-19T09:04:53Z</time>
      </trkpt>
      <trkpt lat="45.05216" lon="2.66662">
        <ele>1503.64</ele>
        <time>2025-10-19T09:05:08Z</time>
      </trkpt>
      <trkpt lat="45.05217" lon="2.66664">
        <ele>1502.68</ele>
        <time>2025-10-19T09:05:11Z</time>
      </trkpt>
      <trkpt lat="45.0522" lon="2.66676">
        <ele>1500.27</ele>
        <time>2025-10-19T09:05:27Z</time>
      </trkpt>
      <trkpt lat="45.05222" lon="2.6668">
        <ele>1496.91</ele>
        <time>2025-10-19T09:05:40Z</time>
      </trkpt>
      <trkpt lat="45.05226" lon="2.66692">
        <ele>1493.55</ele>
        <time>2025-10-19T09:05:57Z</time>
      </trkpt>
      <trkpt lat="45.05228" lon="2.66699">
        <ele>1490.66</ele>
        <time>2025-10-19T09:06:08Z</time>
      </trkpt>
      <trkpt lat="45.05229" lon="2.66706">
        <ele>1490.18</ele>
        <time>2025-10-19T09:06:39Z</time>
      </trkpt>
      <trkpt lat="45.05233" lon="2.66712">
        <ele>1487.3</ele>
        <time>2025-10-19T09:06:53Z</time>
      </trkpt>
      <trkpt lat="45.05239" lon="2.66725">
        <ele>1483.45</ele>
        <time>2025-10-19T09:07:08Z</time>
      </trkpt>
      <trkpt lat="45.05241" lon="2.66733">
        <ele>1480.57</ele>
        <time>2025-10-19T09:07:22Z</time>
      </trkpt>
      <trkpt lat="45.05245" lon="2.66744">
        <ele>1477.2</ele>
        <time>2025-10-19T09:07:34Z</time>
      </trkpt>
      <trkpt lat="45.05251" lon="2.66758">
        <ele>1473.36</ele>
        <time>2025-10-19T09:07:48Z</time>
      </trkpt>
      <trkpt lat="45.05257" lon="2.66776">
        <ele>1472.88</ele>
        <time>2025-10-19T09:08:05Z</time>
      </trkpt>
      <trkpt lat="45.05258" lon="2.66782">
        <ele>1469.51</ele>
        <time>2025-10-19T09:08:14Z</time>
      </trkpt>
      <trkpt lat="45.05259" lon="2.66795">
        <ele>1466.63</ele>
        <time>2025-10-19T09:08:28Z</time>
      </trkpt>
      <trkpt lat="45.05259" lon="2.66803">
        <ele>1463.26</ele>
        <time>2025-10-19T09:08:39Z</time>
      </trkpt>
      <trkpt lat="45.0526" lon="2.66814">
        <ele>1459.42</ele>
        <time>2025-10-19T09:08:50Z</time>
      </trkpt>
      <trkpt lat="45.0526" lon="2.66815">
        <ele>1459.42</ele>
        <time>2025-10-19T09:08:51Z</time>
      </trkpt>
      <trkpt lat="45.05264" lon="2.66825">
        <ele>1455.57</ele>
        <time>2025-10-19T09:09:03Z</time>
      </trkpt>
      <trkpt lat="45.05264" lon="2.66825">
        <ele>1455.57</ele>
        <time>2025-10-19T09:09:04Z</time>
      </trkpt>
      <trkpt lat="45.05264" lon="2.66829">
        <ele>1453.65</ele>
        <time>2025-10-19T09:09:08Z</time>
      </trkpt>
      <trkpt lat="45.05264" lon="2.66839">
        <ele>1450.29</ele>
        <time>2025-10-19T09:09:17Z</time>
      </trkpt>
      <trkpt lat="45.05264" lon="2.66841">
        <ele>1450.29</ele>
        <time>2025-10-19T09:09:18Z</time>
      </trkpt>
      <trkpt lat="45.05266" lon="2.66857">
        <ele>1447.4</ele>
        <time>2025-10-19T09:09:33Z</time>
      </trkpt>
      <trkpt lat="45.05271" lon="2.66879">
        <ele>1444.04</ele>
        <time>2025-10-19T09:09:53Z</time>
      </trkpt>
      <trkpt lat="45.0528" lon="2.66899">
        <ele>1440.67</ele>
        <time>2025-10-19T09:10:14Z</time>
      </trkpt>
      <trkpt lat="45.05286" lon="2.6691">
        <ele>1440.19</ele>
        <time>2025-10-19T09:10:32Z</time>
      </trkpt>
      <trkpt lat="45.05288" lon="2.66912">
        <ele>1438.75</ele>
        <time>2025-10-19T09:10:49Z</time>
      </trkpt>
      <trkpt lat="45.05281" lon="2.66908">
        <ele>1435.39</ele>
        <time>2025-10-19T09:11:09Z</time>
      </trkpt>
      <trkpt lat="45.05272" lon="2.66908">
        <ele>1432.5</ele>
        <time>2025-10-19T09:11:25Z</time>
      </trkpt>
      <trkpt lat="45.05264" lon="2.66909">
        <ele>1429.14</ele>
        <time>2025-10-19T09:11:42Z</time>
      </trkpt>
      <trkpt lat="45.05263" lon="2.66909">
        <ele>1429.14</ele>
        <time>2025-10-19T09:11:43Z</time>
      </trkpt>
      <trkpt lat="45.05259" lon="2.66909">
        <ele>1426.25</ele>
        <time>2025-10-19T09:11:54Z</time>
      </trkpt>
      <trkpt lat="45.05257" lon="2.66916">
        <ele>1423.85</ele>
        <time>2025-10-19T09:12:05Z</time>
      </trkpt>
      <trkpt lat="45.05259" lon="2.66924">
        <ele>1420.49</ele>
        <time>2025-10-19T09:12:20Z</time>
      </trkpt>
      <trkpt lat="45.05263" lon="2.66928">
        <ele>1417.6</ele>
        <time>2025-10-19T09:12:44Z</time>
      </trkpt>
      <trkpt lat="45.05264" lon="2.66932">
        <ele>1414.24</ele>
        <time>2025-10-19T09:13:00Z</time>
      </trkpt>
      <trkpt lat="45.05267" lon="2.66934">
        <ele>1413.28</ele>
        <time>2025-10-19T09:13:22Z</time>
      </trkpt>
      <trkpt lat="45.05276" lon="2.66942">
        <ele>1410.87</ele>
        <time>2025-10-19T09:13:42Z</time>
      </trkpt>
      <trkpt lat="45.05281" lon="2.66951">
        <ele>1408.47</ele>
        <time>2025-10-19T09:14:02Z</time>
      </trkpt>
      <trkpt lat="45.05282" lon="2.66956">
        <ele>1405.1</ele>
        <time>2025-10-19T09:14:10Z</time>
      </trkpt>
      <trkpt lat="45.05284" lon="2.66957">
        <ele>1404.14</ele>
        <time>2025-10-19T09:14:12Z</time>
      </trkpt>
      <trkpt lat="45.0529" lon="2.66964">
        <ele>1400.78</ele>
        <time>2025-10-19T09:14:26Z</time>
      </trkpt>
      <trkpt lat="45.05291" lon="2.66969">
        <ele>1398.37</ele>
        <time>2025-10-19T09:14:31Z</time>
      </trkpt>
      <trkpt lat="45.05293" lon="2.66973">
        <ele>1396.93</ele>
        <time>2025-10-19T09:14:35Z</time>
      </trkpt>
      <trkpt lat="45.05299" lon="2.66979">
        <ele>1393.57</ele>
        <time>2025-10-19T09:14:44Z</time>
      </trkpt>
      <trkpt lat="45.05312" lon="2.66992">
        <ele>1390.68</ele>
        <time>2025-10-19T09:15:03Z</time>
      </trkpt>
      <trkpt lat="45.05315" lon="2.67013">
        <ele>1387.32</ele>
        <time>2025-10-19T09:15:18Z</time>
      </trkpt>
      <trkpt lat="45.05323" lon="2.67031">
        <ele>1384.44</ele>
        <time>2025-10-19T09:15:34Z</time>
      </trkpt>
      <trkpt lat="45.05327" lon="2.67032">
        <ele>1382.03</ele>
        <time>2025-10-19T09:15:45Z</time>
      </trkpt>
      <trkpt lat="45.05335" lon="2.67039">
        <ele>1378.19</ele>
        <time>2025-10-19T09:16:00Z</time>
      </trkpt>
      <trkpt lat="45.05336" lon="2.67039">
        <ele>1378.19</ele>
        <time>2025-10-19T09:16:01Z</time>
      </trkpt>
      <trkpt lat="45.05344" lon="2.67038">
        <ele>1374.82</ele>
        <time>2025-10-19T09:16:14Z</time>
      </trkpt>
      <trkpt lat="45.05353" lon="2.6704">
        <ele>1372.9</ele>
        <time>2025-10-19T09:16:27Z</time>
      </trkpt>
      <trkpt lat="45.05362" lon="2.6705">
        <ele>1369.54</ele>
        <time>2025-10-19T09:16:40Z</time>
      </trkpt>
      <trkpt lat="45.05362" lon="2.67054">
        <ele>1368.09</ele>
        <time>2025-10-19T09:16:44Z</time>
      </trkpt>
      <trkpt lat="45.0537" lon="2.6706">
        <ele>1365.69</ele>
        <time>2025-10-19T09:16:56Z</time>
      </trkpt>
      <trkpt lat="45.05377" lon="2.67058">
        <ele>1364.73</ele>
        <time>2025-10-19T09:17:02Z</time>
      </trkpt>
      <trkpt lat="45.05382" lon="2.67061">
        <ele>1364.73</ele>
        <time>2025-10-19T09:17:07Z</time>
      </trkpt>
      <trkpt lat="45.05388" lon="2.67067">
        <ele>1363.77</ele>
        <time>2025-10-19T09:17:12Z</time>
      </trkpt>
      <trkpt lat="45.05406" lon="2.67081">
        <ele>1361.84</ele>
        <time>2025-10-19T09:17:30Z</time>
      </trkpt>
      <trkpt lat="45.05424" lon="2.67092">
        <ele>1360.4</ele>
        <time>2025-10-19T09:17:46Z</time>
      </trkpt>
      <trkpt lat="45.05436" lon="2.67098">
        <ele>1360.4</ele>
        <time>2025-10-19T09:17:58Z</time>
      </trkpt>
      <trkpt lat="45.05451" lon="2.67104">
        <ele>1356.56</ele>
        <time>2025-10-19T09:18:14Z</time>
      </trkpt>
      <trkpt lat="45.05465" lon="2.67115">
        <ele>1352.71</ele>
        <time>2025-10-19T09:18:32Z</time>
      </trkpt>
      <trkpt lat="45.05469" lon="2.67126">
        <ele>1350.79</ele>
        <time>2025-10-19T09:18:41Z</time>
      </trkpt>
      <trkpt lat="45.05478" lon="2.67147">
        <ele>1348.39</ele>
        <time>2025-10-19T09:19:00Z</time>
      </trkpt>
      <trkpt lat="45.05487" lon="2.6716">
        <ele>1345.98</ele>
        <time>2025-10-19T09:19:13Z</time>
      </trkpt>
      <trkpt lat="45.05494" lon="2.67171">
        <ele>1342.62</ele>
        <time>2025-10-19T09:19:26Z</time>
      </trkpt>
      <trkpt lat="45.05505" lon="2.67185">
        <ele>1339.73</ele>
        <time>2025-10-19T09:19:42Z</time>
      </trkpt>
      <trkpt lat="45.05512" lon="2.67191">
        <ele>1339.25</ele>
        <time>2025-10-19T09:19:58Z</time>
      </trkpt>
      <trkpt lat="45.05515" lon="2.67194">
        <ele>1338.29</ele>
        <time>2025-10-19T09:20:25Z</time>
      </trkpt>
      <trkpt lat="45.0552" lon="2.67198">
        <ele>1337.81</ele>
        <time>2025-10-19T09:20:31Z</time>
      </trkpt>
      <trkpt lat="45.05525" lon="2.67206">
        <ele>1335.89</ele>
        <time>2025-10-19T09:20:39Z</time>
      </trkpt>
      <trkpt lat="45.05541" lon="2.67214">
        <ele>1333.01</ele>
        <time>2025-10-19T09:20:57Z</time>
      </trkpt>
      <trkpt lat="45.05553" lon="2.67224">
        <ele>1331.08</ele>
        <time>2025-10-19T09:21:14Z</time>
      </trkpt>
      <trkpt lat="45.05574" lon="2.67234">
        <ele>1327.72</ele>
        <time>2025-10-19T09:21:31Z</time>
      </trkpt>
      <trkpt lat="45.05595" lon="2.67231">
        <ele>1325.8</ele>
        <time>2025-10-19T09:21:47Z</time>
      </trkpt>
      <trkpt lat="45.0561" lon="2.67228">
        <ele>1325.8</ele>
        <time>2025-10-19T09:22:01Z</time>
      </trkpt>
      <trkpt lat="45.05623" lon="2.6723">
        <ele>1325.8</ele>
        <time>2025-10-19T09:22:13Z</time>
      </trkpt>
      <trkpt lat="45.05646" lon="2.6723">
        <ele>1323.87</ele>
        <time>2025-10-19T09:22:31Z</time>
      </trkpt>
      <trkpt lat="45.0567" lon="2.67241">
        <ele>1320.99</ele>
        <time>2025-10-19T09:22:52Z</time>
      </trkpt>
      <trkpt lat="45.05692" lon="2.67253">
        <ele>1320.99</ele>
        <time>2025-10-19T09:23:12Z</time>
      </trkpt>
      <trkpt lat="45.057" lon="2.67266">
        <ele>1320.03</ele>
        <time>2025-10-19T09:23:22Z</time>
      </trkpt>
      <trkpt lat="45.05718" lon="2.67281">
        <ele>1318.1</ele>
        <time>2025-10-19T09:23:41Z</time>
      </trkpt>
      <trkpt lat="45.05738" lon="2.67292">
        <ele>1315.22</ele>
        <time>2025-10-19T09:24:04Z</time>
      </trkpt>
      <trkpt lat="45.05748" lon="2.67303">
        <ele>1311.86</ele>
        <time>2025-10-19T09:24:19Z</time>
      </trkpt>
      <trkpt lat="45.05751" lon="2.67312">
        <ele>1309.45</ele>
        <time>2025-10-19T09:24:27Z</time>
      </trkpt>
      <trkpt lat="45.05754" lon="2.67314">
        <ele>1308.97</ele>
        <time>2025-10-19T09:24:32Z</time>
      </trkpt>
      <trkpt lat="45.05757" lon="2.67317">
        <ele>1307.53</ele>
        <time>2025-10-19T09:24:36Z</time>
      </trkpt>
      <trkpt lat="45.05764" lon="2.67323">
        <ele>1305.61</ele>
        <time>2025-10-19T09:24:47Z</time>
      </trkpt>
      <trkpt lat="45.05769" lon="2.67332">
        <ele>1304.65</ele>
        <time>2025-10-19T09:24:59Z</time>
      </trkpt>
      <trkpt lat="45.05767" lon="2.67346">
        <ele>1304.17</ele>
        <time>2025-10-19T09:25:19Z</time>
      </trkpt>
      <trkpt lat="45.05766" lon="2.67351">
        <ele>1304.17</ele>
        <time>2025-10-19T09:25:54Z</time>
      </trkpt>
      <trkpt lat="45.05764" lon="2.67352">
        <ele>1305.13</ele>
        <time>2025-10-19T09:26:31Z</time>
      </trkpt>
      <trkpt lat="45.05774" lon="2.67348">
        <ele>1305.13</ele>
        <time>2025-10-19T09:26:59Z</time>
      </trkpt>
      <trkpt lat="45.05771" lon="2.67352">
        <ele>1305.61</ele>
        <time>2025-10-19T09:27:24Z</time>
      </trkpt>
      <trkpt lat="45.05767" lon="2.67347">
        <ele>1305.13</ele>
        <time>2025-10-19T09:27:52Z</time>
      </trkpt>
      <trkpt lat="45.05769" lon="2.67349">
        <ele>1305.61</ele>
        <time>2025-10-19T09:28:29Z</time>
      </trkpt>
      <trkpt lat="45.05777" lon="2.67354">
        <ele>1306.57</ele>
        <time>2025-10-19T09:29:08Z</time>
      </trkpt>
      <trkpt lat="45.05773" lon="2.67368">
        <ele>1303.2</ele>
        <time>2025-10-19T09:29:28Z</time>
      </trkpt>
      <trkpt lat="45.0578" lon="2.67391">
        <ele>1301.76</ele>
        <time>2025-10-19T09:29:47Z</time>
      </trkpt>
      <trkpt lat="45.05792" lon="2.67411">
        <ele>1300.8</ele>
        <time>2025-10-19T09:30:06Z</time>
      </trkpt>
      <trkpt lat="45.058" lon="2.67433">
        <ele>1297.92</ele>
        <time>2025-10-19T09:30:27Z</time>
      </trkpt>
      <trkpt lat="45.05813" lon="2.67457">
        <ele>1300.32</ele>
        <time>2025-10-19T09:30:47Z</time>
      </trkpt>
      <trkpt lat="45.05819" lon="2.67454">
        <ele>1302.72</ele>
        <time>2025-10-19T09:31:02Z</time>
      </trkpt>
      <trkpt lat="45.05828" lon="2.67449">
        <ele>1305.13</ele>
        <time>2025-10-19T09:31:19Z</time>
      </trkpt>
      <trkpt lat="45.05842" lon="2.67456">
        <ele>1305.13</ele>
        <time>2025-10-19T09:31:35Z</time>
      </trkpt>
      <trkpt lat="45.05855" lon="2.67458">
        <ele>1306.57</ele>
        <time>2025-10-19T09:31:53Z</time>
      </trkpt>
      <trkpt lat="45.0587" lon="2.6746">
        <ele>1308.97</ele>
        <time>2025-10-19T09:32:11Z</time>
      </trkpt>
      <trkpt lat="45.05886" lon="2.6747">
        <ele>1309.45</ele>
        <time>2025-10-19T09:32:26Z</time>
      </trkpt>
      <trkpt lat="45.05902" lon="2.67474">
        <ele>1310.9</ele>
        <time>2025-10-19T09:32:42Z</time>
      </trkpt>
      <trkpt lat="45.05917" lon="2.67485">
        <ele>1312.34</ele>
        <time>2025-10-19T09:32:59Z</time>
      </trkpt>
      <trkpt lat="45.0593" lon="2.67496">
        <ele>1312.34</ele>
        <time>2025-10-19T09:33:14Z</time>
      </trkpt>
      <trkpt lat="45.05941" lon="2.67509">
        <ele>1314.74</ele>
        <time>2025-10-19T09:33:33Z</time>
      </trkpt>
      <trkpt lat="45.0595" lon="2.67521">
        <ele>1317.14</ele>
        <time>2025-10-19T09:33:52Z</time>
      </trkpt>
      <trkpt lat="45.05957" lon="2.67529">
        <ele>1320.51</ele>
        <time>2025-10-19T09:34:07Z</time>
      </trkpt>
      <trkpt lat="45.05969" lon="2.67537">
        <ele>1321.95</ele>
        <time>2025-10-19T09:34:27Z</time>
      </trkpt>
      <trkpt lat="45.05977" lon="2.6755">
        <ele>1324.83</ele>
        <time>2025-10-19T09:34:43Z</time>
      </trkpt>
      <trkpt lat="45.05984" lon="2.67565">
        <ele>1325.31</ele>
        <time>2025-10-19T09:34:57Z</time>
      </trkpt>
      <trkpt lat="45.05991" lon="2.67586">
        <ele>1325.31</ele>
        <time>2025-10-19T09:35:13Z</time>
      </trkpt>
      <trkpt lat="45.05992" lon="2.67587">
        <ele>1325.31</ele>
        <time>2025-10-19T09:35:14Z</time>
      </trkpt>
      <trkpt lat="45.06001" lon="2.67607">
        <ele>1325.31</ele>
        <time>2025-10-19T09:35:29Z</time>
      </trkpt>
      <trkpt lat="45.06008" lon="2.67625">
        <ele>1324.35</ele>
        <time>2025-10-19T09:35:43Z</time>
      </trkpt>
      <trkpt lat="45.06012" lon="2.67632">
        <ele>1325.31</ele>
        <time>2025-10-19T09:35:49Z</time>
      </trkpt>
      <trkpt lat="45.06017" lon="2.67644">
        <ele>1326.76</ele>
        <time>2025-10-19T09:36:01Z</time>
      </trkpt>
      <trkpt lat="45.06023" lon="2.67662">
        <ele>1327.72</ele>
        <time>2025-10-19T09:36:16Z</time>
      </trkpt>
      <trkpt lat="45.06029" lon="2.67677">
        <ele>1329.16</ele>
        <time>2025-10-19T09:36:31Z</time>
      </trkpt>
      <trkpt lat="45.06031" lon="2.67683">
        <ele>1328.68</ele>
        <time>2025-10-19T09:36:52Z</time>
      </trkpt>
      <trkpt lat="45.06035" lon="2.67697">
        <ele>1329.16</ele>
        <time>2025-10-19T09:37:18Z</time>
      </trkpt>
      <trkpt lat="45.06045" lon="2.67718">
        <ele>1330.12</ele>
        <time>2025-10-19T09:37:38Z</time>
      </trkpt>
      <trkpt lat="45.06057" lon="2.67731">
        <ele>1332.52</ele>
        <time>2025-10-19T09:37:57Z</time>
      </trkpt>
      <trkpt lat="45.0607" lon="2.67737">
        <ele>1333.49</ele>
        <time>2025-10-19T09:38:13Z</time>
      </trkpt>
      <trkpt lat="45.06086" lon="2.6776">
        <ele>1333.97</ele>
        <time>2025-10-19T09:38:32Z</time>
      </trkpt>
      <trkpt lat="45.06094" lon="2.67772">
        <ele>1334.45</ele>
        <time>2025-10-19T09:38:44Z</time>
      </trkpt>
      <trkpt lat="45.06106" lon="2.67789">
        <ele>1334.93</ele>
        <time>2025-10-19T09:38:57Z</time>
      </trkpt>
      <trkpt lat="45.06112" lon="2.67797">
        <ele>1333.49</ele>
        <time>2025-10-19T09:39:05Z</time>
      </trkpt>
      <trkpt lat="45.06126" lon="2.67815">
        <ele>1333.01</ele>
        <time>2025-10-19T09:39:23Z</time>
      </trkpt>
      <trkpt lat="45.0614" lon="2.67821">
        <ele>1331.56</ele>
        <time>2025-10-19T09:39:39Z</time>
      </trkpt>
      <trkpt lat="45.06155" lon="2.67828">
        <ele>1331.56</ele>
        <time>2025-10-19T09:39:52Z</time>
      </trkpt>
      <trkpt lat="45.06164" lon="2.67833">
        <ele>1333.01</ele>
        <time>2025-10-19T09:39:59Z</time>
      </trkpt>
      <trkpt lat="45.06178" lon="2.67858">
        <ele>1333.01</ele>
        <time>2025-10-19T09:40:16Z</time>
      </trkpt>
      <trkpt lat="45.06193" lon="2.67882">
        <ele>1333.01</ele>
        <time>2025-10-19T09:40:35Z</time>
      </trkpt>
      <trkpt lat="45.06198" lon="2.67913">
        <ele>1331.56</ele>
        <time>2025-10-19T09:40:53Z</time>
      </trkpt>
      <trkpt lat="45.06201" lon="2.67943">
        <ele>1330.6</ele>
        <time>2025-10-19T09:41:11Z</time>
      </trkpt>
      <trkpt lat="45.06201" lon="2.67977">
        <ele>1330.6</ele>
        <time>2025-10-19T09:41:31Z</time>
      </trkpt>
      <trkpt lat="45.06208" lon="2.67996">
        <ele>1330.12</ele>
        <time>2025-10-19T09:41:43Z</time>
      </trkpt>
      <trkpt lat="45.06214" lon="2.68023">
        <ele>1331.08</ele>
        <time>2025-10-19T09:42:01Z</time>
      </trkpt>
      <trkpt lat="45.06211" lon="2.68045">
        <ele>1333.49</ele>
        <time>2025-10-19T09:42:16Z</time>
      </trkpt>
      <trkpt lat="45.0621" lon="2.68064">
        <ele>1333.97</ele>
        <time>2025-10-19T09:42:26Z</time>
      </trkpt>
      <trkpt lat="45.06222" lon="2.68093">
        <ele>1333.97</ele>
        <time>2025-10-19T09:42:46Z</time>
      </trkpt>
      <trkpt lat="45.06232" lon="2.68116">
        <ele>1333.97</ele>
        <time>2025-10-19T09:43:02Z</time>
      </trkpt>
      <trkpt lat="45.06241" lon="2.68139">
        <ele>1337.33</ele>
        <time>2025-10-19T09:43:20Z</time>
      </trkpt>
      <trkpt lat="45.0625" lon="2.68157">
        <ele>1337.81</ele>
        <time>2025-10-19T09:43:35Z</time>
      </trkpt>
      <trkpt lat="45.06252" lon="2.68162">
        <ele>1337.81</ele>
        <time>2025-10-19T09:43:39Z</time>
      </trkpt>
      <trkpt lat="45.06255" lon="2.68169">
        <ele>1338.77</ele>
        <time>2025-10-19T09:43:45Z</time>
      </trkpt>
      <trkpt lat="45.06261" lon="2.68191">
        <ele>1340.7</ele>
        <time>2025-10-19T09:44:02Z</time>
      </trkpt>
      <trkpt lat="45.0627" lon="2.682">
        <ele>1341.66</ele>
        <time>2025-10-19T09:44:16Z</time>
      </trkpt>
      <trkpt lat="45.06285" lon="2.68214">
        <ele>1339.73</ele>
        <time>2025-10-19T09:44:33Z</time>
      </trkpt>
      <trkpt lat="45.06285" lon="2.68215">
        <ele>1339.73</ele>
        <time>2025-10-19T09:44:34Z</time>
      </trkpt>
      <trkpt lat="45.06286" lon="2.68237">
        <ele>1341.66</ele>
        <time>2025-10-19T09:44:49Z</time>
      </trkpt>
      <trkpt lat="45.06295" lon="2.68258">
        <ele>1341.66</ele>
        <time>2025-10-19T09:45:02Z</time>
      </trkpt>
      <trkpt lat="45.06305" lon="2.68279">
        <ele>1338.77</ele>
        <time>2025-10-19T09:45:20Z</time>
      </trkpt>
      <trkpt lat="45.06317" lon="2.68293">
        <ele>1335.89</ele>
        <time>2025-10-19T09:45:42Z</time>
      </trkpt>
      <trkpt lat="45.06333" lon="2.68301">
        <ele>1334.93</ele>
        <time>2025-10-19T09:45:59Z</time>
      </trkpt>
      <trkpt lat="45.06357" lon="2.68315">
        <ele>1333.01</ele>
        <time>2025-10-19T09:46:20Z</time>
      </trkpt>
      <trkpt lat="45.06365" lon="2.68347">
        <ele>1332.04</ele>
        <time>2025-10-19T09:46:40Z</time>
      </trkpt>
      <trkpt lat="45.06365" lon="2.68376">
        <ele>1332.52</ele>
        <time>2025-10-19T09:47:00Z</time>
      </trkpt>
      <trkpt lat="45.06367" lon="2.68384">
        <ele>1332.52</ele>
        <time>2025-10-19T09:47:06Z</time>
      </trkpt>
      <trkpt lat="45.06368" lon="2.68392">
        <ele>1332.52</ele>
        <time>2025-10-19T09:47:09Z</time>
      </trkpt>
      <trkpt lat="45.06371" lon="2.68412">
        <ele>1331.08</ele>
        <time>2025-10-19T09:47:25Z</time>
      </trkpt>
      <trkpt lat="45.06376" lon="2.68423">
        <ele>1332.52</ele>
        <time>2025-10-19T09:47:36Z</time>
      </trkpt>
      <trkpt lat="45.06384" lon="2.68445">
        <ele>1333.49</ele>
        <time>2025-10-19T09:47:57Z</time>
      </trkpt>
      <trkpt lat="45.06386" lon="2.68483">
        <ele>1334.93</ele>
        <time>2025-10-19T09:48:20Z</time>
      </trkpt>
      <trkpt lat="45.06392" lon="2.6852">
        <ele>1336.85</ele>
        <time>2025-10-19T09:48:46Z</time>
      </trkpt>
      <trkpt lat="45.06399" lon="2.68544">
        <ele>1338.77</ele>
        <time>2025-10-19T09:49:09Z</time>
      </trkpt>
      <trkpt lat="45.06407" lon="2.68567">
        <ele>1340.7</ele>
        <time>2025-10-19T09:49:31Z</time>
      </trkpt>
      <trkpt lat="45.06415" lon="2.68593">
        <ele>1341.66</ele>
        <time>2025-10-19T09:49:52Z</time>
      </trkpt>
      <trkpt lat="45.06416" lon="2.68613">
        <ele>1344.06</ele>
        <time>2025-10-19T09:50:13Z</time>
      </trkpt>
      <trkpt lat="45.06413" lon="2.68629">
        <ele>1346.46</ele>
        <time>2025-10-19T09:50:32Z</time>
      </trkpt>
      <trkpt lat="45.06409" lon="2.68645">
        <ele>1348.87</ele>
        <time>2025-10-19T09:50:53Z</time>
      </trkpt>
      <trkpt lat="45.06409" lon="2.6867">
        <ele>1350.79</ele>
        <time>2025-10-19T09:51:13Z</time>
      </trkpt>
      <trkpt lat="45.06411" lon="2.6869">
        <ele>1349.83</ele>
        <time>2025-10-19T09:51:31Z</time>
      </trkpt>
      <trkpt lat="45.06415" lon="2.68714">
        <ele>1348.87</ele>
        <time>2025-10-19T09:51:50Z</time>
      </trkpt>
      <trkpt lat="45.06416" lon="2.68735">
        <ele>1347.43</ele>
        <time>2025-10-19T09:52:07Z</time>
      </trkpt>
      <trkpt lat="45.06425" lon="2.68758">
        <ele>1345.02</ele>
        <time>2025-10-19T09:52:26Z</time>
      </trkpt>
      <trkpt lat="45.06434" lon="2.68775">
        <ele>1343.58</ele>
        <time>2025-10-19T09:52:39Z</time>
      </trkpt>
      <trkpt lat="45.06434" lon="2.68786">
        <ele>1344.54</ele>
        <time>2025-10-19T09:52:48Z</time>
      </trkpt>
      <trkpt lat="45.06434" lon="2.68807">
        <ele>1345.98</ele>
        <time>2025-10-19T09:53:06Z</time>
      </trkpt>
      <trkpt lat="45.06434" lon="2.68831">
        <ele>1347.91</ele>
        <time>2025-10-19T09:53:26Z</time>
      </trkpt>
      <trkpt lat="45.06433" lon="2.68848">
        <ele>1348.87</ele>
        <time>2025-10-19T09:53:41Z</time>
      </trkpt>
      <trkpt lat="45.06426" lon="2.68869">
        <ele>1349.83</ele>
        <time>2025-10-19T09:54:01Z</time>
      </trkpt>
      <trkpt lat="45.06419" lon="2.68875">
        <ele>1351.75</ele>
        <time>2025-10-19T09:54:21Z</time>
      </trkpt>
      <trkpt lat="45.06409" lon="2.68876">
        <ele>1354.15</ele>
        <time>2025-10-19T09:54:49Z</time>
      </trkpt>
      <trkpt lat="45.06403" lon="2.68877">
        <ele>1357.04</ele>
        <time>2025-10-19T09:55:06Z</time>
      </trkpt>
      <trkpt lat="45.06396" lon="2.68884">
        <ele>1358.48</ele>
        <time>2025-10-19T09:55:27Z</time>
      </trkpt>
      <trkpt lat="45.06397" lon="2.68894">
        <ele>1357.52</ele>
        <time>2025-10-19T09:55:34Z</time>
      </trkpt>
      <trkpt lat="45.06394" lon="2.6892">
        <ele>1357.04</ele>
        <time>2025-10-19T09:55:54Z</time>
      </trkpt>
      <trkpt lat="45.06393" lon="2.68935">
        <ele>1358.48</ele>
        <time>2025-10-19T09:56:12Z</time>
      </trkpt>
      <trkpt lat="45.06394" lon="2.68938">
        <ele>1357.04</ele>
        <time>2025-10-19T09:56:15Z</time>
      </trkpt>
      <trkpt lat="45.06401" lon="2.68949">
        <ele>1356.56</ele>
        <time>2025-10-19T09:56:34Z</time>
      </trkpt>
      <trkpt lat="45.0641" lon="2.68962">
        <ele>1353.67</ele>
        <time>2025-10-19T09:56:47Z</time>
      </trkpt>
      <trkpt lat="45.06415" lon="2.68971">
        <ele>1354.63</ele>
        <time>2025-10-19T09:57:01Z</time>
      </trkpt>
      <trkpt lat="45.06425" lon="2.68982">
        <ele>1357.04</ele>
        <time>2025-10-19T09:57:16Z</time>
      </trkpt>
      <trkpt lat="45.06427" lon="2.68981">
        <ele>1356.56</ele>
        <time>2025-10-19T09:57:35Z</time>
      </trkpt>
      <trkpt lat="45.06426" lon="2.68979">
        <ele>1355.6</ele>
        <time>2025-10-19T09:57:38Z</time>
      </trkpt>
      <trkpt lat="45.06429" lon="2.68968">
        <ele>1352.23</ele>
        <time>2025-10-19T09:57:52Z</time>
      </trkpt>
      <trkpt lat="45.06436" lon="2.68959">
        <ele>1348.87</ele>
        <time>2025-10-19T09:58:06Z</time>
      </trkpt>
      <trkpt lat="45.0645" lon="2.68966">
        <ele>1345.5</ele>
        <time>2025-10-19T09:58:25Z</time>
      </trkpt>
      <trkpt lat="45.06461" lon="2.68971">
        <ele>1343.58</ele>
        <time>2025-10-19T09:58:44Z</time>
      </trkpt>
      <trkpt lat="45.06471" lon="2.68977">
        <ele>1341.18</ele>
        <time>2025-10-19T09:59:00Z</time>
      </trkpt>
      <trkpt lat="45.06485" lon="2.68986">
        <ele>1339.73</ele>
        <time>2025-10-19T09:59:15Z</time>
      </trkpt>
      <trkpt lat="45.065" lon="2.68987">
        <ele>1336.37</ele>
        <time>2025-10-19T09:59:30Z</time>
      </trkpt>
      <trkpt lat="45.06518" lon="2.68983">
        <ele>1335.89</ele>
        <time>2025-10-19T09:59:48Z</time>
      </trkpt>
      <trkpt lat="45.06539" lon="2.68977">
        <ele>1333.97</ele>
        <time>2025-10-19T10:00:08Z</time>
      </trkpt>
      <trkpt lat="45.06562" lon="2.68983">
        <ele>1332.52</ele>
        <time>2025-10-19T10:00:29Z</time>
      </trkpt>
      <trkpt lat="45.06568" lon="2.68986">
        <ele>1332.52</ele>
        <time>2025-10-19T10:00:34Z</time>
      </trkpt>
      <trkpt lat="45.0659" lon="2.69001">
        <ele>1329.64</ele>
        <time>2025-10-19T10:00:55Z</time>
      </trkpt>
      <trkpt lat="45.066" lon="2.69019">
        <ele>1327.24</ele>
        <time>2025-10-19T10:01:12Z</time>
      </trkpt>
      <trkpt lat="45.06609" lon="2.69036">
        <ele>1323.87</ele>
        <time>2025-10-19T10:01:28Z</time>
      </trkpt>
      <trkpt lat="45.06611" lon="2.69045">
        <ele>1321.47</ele>
        <time>2025-10-19T10:01:36Z</time>
      </trkpt>
      <trkpt lat="45.06615" lon="2.69071">
        <ele>1318.59</ele>
        <time>2025-10-19T10:01:57Z</time>
      </trkpt>
      <trkpt lat="45.06618" lon="2.69091">
        <ele>1315.7</ele>
        <time>2025-10-19T10:02:13Z</time>
      </trkpt>
      <trkpt lat="45.06609" lon="2.69114">
        <ele>1315.7</ele>
        <time>2025-10-19T10:02:33Z</time>
      </trkpt>
      <trkpt lat="45.06607" lon="2.69116">
        <ele>1317.14</ele>
        <time>2025-10-19T10:02:36Z</time>
      </trkpt>
      <trkpt lat="45.06595" lon="2.69134">
        <ele>1317.62</ele>
        <time>2025-10-19T10:02:55Z</time>
      </trkpt>
      <trkpt lat="45.06586" lon="2.69143">
        <ele>1318.1</ele>
        <time>2025-10-19T10:03:10Z</time>
      </trkpt>
      <trkpt lat="45.06583" lon="2.69158">
        <ele>1315.7</ele>
        <time>2025-10-19T10:03:30Z</time>
      </trkpt>
      <trkpt lat="45.06587" lon="2.69167">
        <ele>1315.7</ele>
        <time>2025-10-19T10:03:47Z</time>
      </trkpt>
      <trkpt lat="45.06588" lon="2.69168">
        <ele>1317.14</ele>
        <time>2025-10-19T10:03:49Z</time>
      </trkpt>
      <trkpt lat="45.06596" lon="2.69177">
        <ele>1318.59</ele>
        <time>2025-10-19T10:04:10Z</time>
      </trkpt>
      <trkpt lat="45.066" lon="2.69195">
        <ele>1321.47</ele>
        <time>2025-10-19T10:04:28Z</time>
      </trkpt>
      <trkpt lat="45.06608" lon="2.69213">
        <ele>1323.39</ele>
        <time>2025-10-19T10:04:52Z</time>
      </trkpt>
      <trkpt lat="45.06618" lon="2.69214">
        <ele>1324.35</ele>
        <time>2025-10-19T10:05:10Z</time>
      </trkpt>
      <trkpt lat="45.06632" lon="2.69216">
        <ele>1325.8</ele>
        <time>2025-10-19T10:05:30Z</time>
      </trkpt>
      <trkpt lat="45.06647" lon="2.69228">
        <ele>1327.24</ele>
        <time>2025-10-19T10:05:52Z</time>
      </trkpt>
      <trkpt lat="45.06666" lon="2.69246">
        <ele>1328.2</ele>
        <time>2025-10-19T10:06:12Z</time>
      </trkpt>
      <trkpt lat="45.06685" lon="2.69262">
        <ele>1329.64</ele>
        <time>2025-10-19T10:06:32Z</time>
      </trkpt>
      <trkpt lat="45.06709" lon="2.69287">
        <ele>1331.08</ele>
        <time>2025-10-19T10:06:55Z</time>
      </trkpt>
      <trkpt lat="45.06719" lon="2.69309">
        <ele>1333.01</ele>
        <time>2025-10-19T10:07:13Z</time>
      </trkpt>
      <trkpt lat="45.06729" lon="2.69331">
        <ele>1333.49</ele>
        <time>2025-10-19T10:07:32Z</time>
      </trkpt>
      <trkpt lat="45.06736" lon="2.69353">
        <ele>1334.93</ele>
        <time>2025-10-19T10:07:49Z</time>
      </trkpt>
      <trkpt lat="45.06742" lon="2.69373">
        <ele>1336.37</ele>
        <time>2025-10-19T10:08:05Z</time>
      </trkpt>
      <trkpt lat="45.06751" lon="2.6939">
        <ele>1336.85</ele>
        <time>2025-10-19T10:08:21Z</time>
      </trkpt>
      <trkpt lat="45.0676" lon="2.69407">
        <ele>1334.45</ele>
        <time>2025-10-19T10:08:39Z</time>
      </trkpt>
      <trkpt lat="45.0677" lon="2.69418">
        <ele>1335.41</ele>
        <time>2025-10-19T10:08:57Z</time>
      </trkpt>
      <trkpt lat="45.06771" lon="2.69418">
        <ele>1335.41</ele>
        <time>2025-10-19T10:08:58Z</time>
      </trkpt>
      <trkpt lat="45.0678" lon="2.69428">
        <ele>1337.81</ele>
        <time>2025-10-19T10:09:18Z</time>
      </trkpt>
      <trkpt lat="45.06793" lon="2.69447">
        <ele>1340.22</ele>
        <time>2025-10-19T10:09:38Z</time>
      </trkpt>
      <trkpt lat="45.068" lon="2.69467">
        <ele>1342.14</ele>
        <time>2025-10-19T10:09:57Z</time>
      </trkpt>
      <trkpt lat="45.06805" lon="2.69488">
        <ele>1343.58</ele>
        <time>2025-10-19T10:10:13Z</time>
      </trkpt>
      <trkpt lat="45.0681" lon="2.69506">
        <ele>1345.02</ele>
        <time>2025-10-19T10:10:28Z</time>
      </trkpt>
      <trkpt lat="45.06819" lon="2.69531">
        <ele>1345.5</ele>
        <time>2025-10-19T10:10:48Z</time>
      </trkpt>
      <trkpt lat="45.06826" lon="2.6955">
        <ele>1345.98</ele>
        <time>2025-10-19T10:11:03Z</time>
      </trkpt>
      <trkpt lat="45.06834" lon="2.69572">
        <ele>1347.43</ele>
        <time>2025-10-19T10:11:21Z</time>
      </trkpt>
      <trkpt lat="45.06838" lon="2.69593">
        <ele>1348.39</ele>
        <time>2025-10-19T10:11:40Z</time>
      </trkpt>
      <trkpt lat="45.06847" lon="2.69615">
        <ele>1349.35</ele>
        <time>2025-10-19T10:11:57Z</time>
      </trkpt>
      <trkpt lat="45.06851" lon="2.69634">
        <ele>1350.79</ele>
        <time>2025-10-19T10:12:11Z</time>
      </trkpt>
      <trkpt lat="45.06851" lon="2.6965">
        <ele>1350.79</ele>
        <time>2025-10-19T10:12:26Z</time>
      </trkpt>
      <trkpt lat="45.06854" lon="2.69672">
        <ele>1352.23</ele>
        <time>2025-10-19T10:12:44Z</time>
      </trkpt>
      <trkpt lat="45.0686" lon="2.69692">
        <ele>1353.19</ele>
        <time>2025-10-19T10:13:00Z</time>
      </trkpt>
      <trkpt lat="45.06868" lon="2.6971">
        <ele>1353.19</ele>
        <time>2025-10-19T10:13:14Z</time>
      </trkpt>
      <trkpt lat="45.0687" lon="2.6972">
        <ele>1353.19</ele>
        <time>2025-10-19T10:13:33Z</time>
      </trkpt>
      <trkpt lat="45.06871" lon="2.69717">
        <ele>1353.19</ele>
        <time>2025-10-19T10:14:04Z</time>
      </trkpt>
      <trkpt lat="45.06871" lon="2.69718">
        <ele>1351.75</ele>
        <time>2025-10-19T10:14:19Z</time>
      </trkpt>
      <trkpt lat="45.06872" lon="2.69718">
        <ele>1351.75</ele>
        <time>2025-10-19T10:14:56Z</time>
      </trkpt>
      <trkpt lat="45.06872" lon="2.6972">
        <ele>1351.75</ele>
        <time>2025-10-19T10:15:33Z</time>
      </trkpt>
      <trkpt lat="45.06872" lon="2.69719">
        <ele>1351.75</ele>
        <time>2025-10-19T10:15:52Z</time>
      </trkpt>
      <trkpt lat="45.0687" lon="2.69717">
        <ele>1351.75</ele>
        <time>2025-10-19T10:16:17Z</time>
      </trkpt>
      <trkpt lat="45.06871" lon="2.69715">
        <ele>1351.75</ele>
        <time>2025-10-19T10:16:47Z</time>
      </trkpt>
      <trkpt lat="45.06875" lon="2.69708">
        <ele>1351.75</ele>
        <time>2025-10-19T10:17:18Z</time>
      </trkpt>
      <trkpt lat="45.06872" lon="2.69711">
        <ele>1351.27</ele>
        <time>2025-10-19T10:17:44Z</time>
      </trkpt>
      <trkpt lat="45.06872" lon="2.69706">
        <ele>1351.75</ele>
        <time>2025-10-19T10:18:14Z</time>
      </trkpt>
      <trkpt lat="45.06872" lon="2.69707">
        <ele>1351.75</ele>
        <time>2025-10-19T10:18:42Z</time>
      </trkpt>
      <trkpt lat="45.06877" lon="2.69707">
        <ele>1351.75</ele>
        <time>2025-10-19T10:19:15Z</time>
      </trkpt>
      <trkpt lat="45.06888" lon="2.69714">
        <ele>1352.23</ele>
        <time>2025-10-19T10:19:45Z</time>
      </trkpt>
      <trkpt lat="45.06888" lon="2.69708">
        <ele>1352.23</ele>
        <time>2025-10-19T10:20:19Z</time>
      </trkpt>
      <trkpt lat="45.06881" lon="2.69707">
        <ele>1352.23</ele>
        <time>2025-10-19T10:20:52Z</time>
      </trkpt>
      <trkpt lat="45.06882" lon="2.6971">
        <ele>1352.71</ele>
        <time>2025-10-19T10:21:27Z</time>
      </trkpt>
      <trkpt lat="45.06873" lon="2.69713">
        <ele>1352.71</ele>
        <time>2025-10-19T10:21:55Z</time>
      </trkpt>
      <trkpt lat="45.0688" lon="2.69715">
        <ele>1353.19</ele>
        <time>2025-10-19T10:22:28Z</time>
      </trkpt>
      <trkpt lat="45.06892" lon="2.6971">
        <ele>1353.19</ele>
        <time>2025-10-19T10:22:57Z</time>
      </trkpt>
      <trkpt lat="45.06893" lon="2.69708">
        <ele>1353.19</ele>
        <time>2025-10-19T10:23:28Z</time>
      </trkpt>
      <trkpt lat="45.06888" lon="2.69714">
        <ele>1353.19</ele>
        <time>2025-10-19T10:23:58Z</time>
      </trkpt>
      <trkpt lat="45.06887" lon="2.69724">
        <ele>1353.19</ele>
        <time>2025-10-19T10:24:24Z</time>
      </trkpt>
      <trkpt lat="45.06893" lon="2.69722">
        <ele>1353.19</ele>
        <time>2025-10-19T10:24:47Z</time>
      </trkpt>
      <trkpt lat="45.06895" lon="2.69729">
        <ele>1353.19</ele>
        <time>2025-10-19T10:25:12Z</time>
      </trkpt>
      <trkpt lat="45.06885" lon="2.69719">
        <ele>1353.19</ele>
        <time>2025-10-19T10:25:37Z</time>
      </trkpt>
      <trkpt lat="45.06891" lon="2.6972">
        <ele>1353.19</ele>
        <time>2025-10-19T10:26:07Z</time>
      </trkpt>
      <trkpt lat="45.06883" lon="2.69725">
        <ele>1353.19</ele>
        <time>2025-10-19T10:26:34Z</time>
      </trkpt>
      <trkpt lat="45.06883" lon="2.69715">
        <ele>1353.19</ele>
        <time>2025-10-19T10:27:04Z</time>
      </trkpt>
      <trkpt lat="45.06881" lon="2.69719">
        <ele>1353.19</ele>
        <time>2025-10-19T10:27:31Z</time>
      </trkpt>
      <trkpt lat="45.0689" lon="2.69724">
        <ele>1353.19</ele>
        <time>2025-10-19T10:27:55Z</time>
      </trkpt>
      <trkpt lat="45.06894" lon="2.6972">
        <ele>1353.19</ele>
        <time>2025-10-19T10:28:22Z</time>
      </trkpt>
      <trkpt lat="45.06885" lon="2.69717">
        <ele>1353.19</ele>
        <time>2025-10-19T10:28:51Z</time>
      </trkpt>
      <trkpt lat="45.06888" lon="2.69714">
        <ele>1354.63</ele>
        <time>2025-10-19T10:29:20Z</time>
      </trkpt>
      <trkpt lat="45.06886" lon="2.69705">
        <ele>1355.12</ele>
        <time>2025-10-19T10:29:51Z</time>
      </trkpt>
      <trkpt lat="45.06889" lon="2.6972">
        <ele>1355.12</ele>
        <time>2025-10-19T10:30:22Z</time>
      </trkpt>
      <trkpt lat="45.06892" lon="2.69718">
        <ele>1355.12</ele>
        <time>2025-10-19T10:30:53Z</time>
      </trkpt>
      <trkpt lat="45.06878" lon="2.69717">
        <ele>1355.12</ele>
        <time>2025-10-19T10:31:26Z</time>
      </trkpt>
      <trkpt lat="45.0688" lon="2.69712">
        <ele>1355.12</ele>
        <time>2025-10-19T10:31:58Z</time>
      </trkpt>
      <trkpt lat="45.06879" lon="2.69712">
        <ele>1355.12</ele>
        <time>2025-10-19T10:32:27Z</time>
      </trkpt>
      <trkpt lat="45.06881" lon="2.69712">
        <ele>1355.12</ele>
        <time>2025-10-19T10:33:01Z</time>
      </trkpt>
      <trkpt lat="45.06881" lon="2.69711">
        <ele>1354.63</ele>
        <time>2025-10-19T10:33:26Z</time>
      </trkpt>
      <trkpt lat="45.06873" lon="2.69719">
        <ele>1354.63</ele>
        <time>2025-10-19T10:33:52Z</time>
      </trkpt>
      <trkpt lat="45.06879" lon="2.69719">
        <ele>1354.63</ele>
        <time>2025-10-19T10:34:18Z</time>
      </trkpt>
      <trkpt lat="45.0688" lon="2.69718">
        <ele>1354.15</ele>
        <time>2025-10-19T10:34:45Z</time>
      </trkpt>
      <trkpt lat="45.06893" lon="2.6971">
        <ele>1354.15</ele>
        <time>2025-10-19T10:35:19Z</time>
      </trkpt>
      <trkpt lat="45.06897" lon="2.69713">
        <ele>1354.15</ele>
        <time>2025-10-19T10:35:46Z</time>
      </trkpt>
      <trkpt lat="45.06877" lon="2.6972">
        <ele>1354.15</ele>
        <time>2025-10-19T10:36:15Z</time>
      </trkpt>
      <trkpt lat="45.0687" lon="2.69718">
        <ele>1353.67</ele>
        <time>2025-10-19T10:36:40Z</time>
      </trkpt>
      <trkpt lat="45.06869" lon="2.69717">
        <ele>1354.15</ele>
        <time>2025-10-19T10:37:03Z</time>
      </trkpt>
      <trkpt lat="45.06874" lon="2.69718">
        <ele>1354.15</ele>
        <time>2025-10-19T10:37:31Z</time>
      </trkpt>
      <trkpt lat="45.06876" lon="2.69713">
        <ele>1354.15</ele>
        <time>2025-10-19T10:37:59Z</time>
      </trkpt>
      <trkpt lat="45.06875" lon="2.69714">
        <ele>1353.19</ele>
        <time>2025-10-19T10:38:25Z</time>
      </trkpt>
      <trkpt lat="45.06887" lon="2.69732">
        <ele>1352.71</ele>
        <time>2025-10-19T10:38:41Z</time>
      </trkpt>
      <trkpt lat="45.06899" lon="2.6974">
        <ele>1351.75</ele>
        <time>2025-10-19T10:39:00Z</time>
      </trkpt>
      <trkpt lat="45.06914" lon="2.69744">
        <ele>1350.31</ele>
        <time>2025-10-19T10:39:21Z</time>
      </trkpt>
      <trkpt lat="45.06933" lon="2.69735">
        <ele>1348.87</ele>
        <time>2025-10-19T10:39:41Z</time>
      </trkpt>
      <trkpt lat="45.0695" lon="2.69744">
        <ele>1347.43</ele>
        <time>2025-10-19T10:39:59Z</time>
      </trkpt>
      <trkpt lat="45.06958" lon="2.69755">
        <ele>1346.94</ele>
        <time>2025-10-19T10:40:15Z</time>
      </trkpt>
      <trkpt lat="45.06959" lon="2.69758">
        <ele>1346.46</ele>
        <time>2025-10-19T10:40:18Z</time>
      </trkpt>
      <trkpt lat="45.06974" lon="2.69765">
        <ele>1345.5</ele>
        <time>2025-10-19T10:40:37Z</time>
      </trkpt>
      <trkpt lat="45.06992" lon="2.6977">
        <ele>1344.54</ele>
        <time>2025-10-19T10:40:58Z</time>
      </trkpt>
      <trkpt lat="45.07009" lon="2.69782">
        <ele>1343.1</ele>
        <time>2025-10-19T10:41:19Z</time>
      </trkpt>
      <trkpt lat="45.07023" lon="2.69806">
        <ele>1341.66</ele>
        <time>2025-10-19T10:41:36Z</time>
      </trkpt>
      <trkpt lat="45.07023" lon="2.69819">
        <ele>1341.18</ele>
        <time>2025-10-19T10:41:55Z</time>
      </trkpt>
      <trkpt lat="45.07021" lon="2.69811">
        <ele>1341.18</ele>
        <time>2025-10-19T10:42:17Z</time>
      </trkpt>
      <trkpt lat="45.0702" lon="2.6982">
        <ele>1341.18</ele>
        <time>2025-10-19T10:42:45Z</time>
      </trkpt>
      <trkpt lat="45.07022" lon="2.69833">
        <ele>1341.18</ele>
        <time>2025-10-19T10:43:00Z</time>
      </trkpt>
      <trkpt lat="45.07025" lon="2.69847">
        <ele>1339.73</ele>
        <time>2025-10-19T10:43:18Z</time>
      </trkpt>
      <trkpt lat="45.07024" lon="2.6986">
        <ele>1339.25</ele>
        <time>2025-10-19T10:43:30Z</time>
      </trkpt>
      <trkpt lat="45.0702" lon="2.69884">
        <ele>1337.33</ele>
        <time>2025-10-19T10:43:49Z</time>
      </trkpt>
      <trkpt lat="45.07014" lon="2.6992">
        <ele>1335.89</ele>
        <time>2025-10-19T10:44:08Z</time>
      </trkpt>
      <trkpt lat="45.07011" lon="2.69945">
        <ele>1334.93</ele>
        <time>2025-10-19T10:44:25Z</time>
      </trkpt>
      <trkpt lat="45.0702" lon="2.69969">
        <ele>1333.01</ele>
        <time>2025-10-19T10:44:44Z</time>
      </trkpt>
      <trkpt lat="45.07025" lon="2.69979">
        <ele>1333.01</ele>
        <time>2025-10-19T10:44:52Z</time>
      </trkpt>
      <trkpt lat="45.0703" lon="2.70002">
        <ele>1332.04</ele>
        <time>2025-10-19T10:45:08Z</time>
      </trkpt>
      <trkpt lat="45.07045" lon="2.70027">
        <ele>1330.12</ele>
        <time>2025-10-19T10:45:29Z</time>
      </trkpt>
      <trkpt lat="45.07068" lon="2.70039">
        <ele>1330.12</ele>
        <time>2025-10-19T10:45:49Z</time>
      </trkpt>
      <trkpt lat="45.07077" lon="2.70055">
        <ele>1329.16</ele>
        <time>2025-10-19T10:46:02Z</time>
      </trkpt>
      <trkpt lat="45.0708" lon="2.70083">
        <ele>1327.72</ele>
        <time>2025-10-19T10:46:19Z</time>
      </trkpt>
      <trkpt lat="45.07081" lon="2.70112">
        <ele>1325.31</ele>
        <time>2025-10-19T10:46:38Z</time>
      </trkpt>
      <trkpt lat="45.07081" lon="2.70118">
        <ele>1326.28</ele>
        <time>2025-10-19T10:46:42Z</time>
      </trkpt>
      <trkpt lat="45.07084" lon="2.70132">
        <ele>1325.31</ele>
        <time>2025-10-19T10:46:51Z</time>
      </trkpt>
      <trkpt lat="45.07096" lon="2.70145">
        <ele>1322.91</ele>
        <time>2025-10-19T10:47:06Z</time>
      </trkpt>
      <trkpt lat="45.07109" lon="2.70144">
        <ele>1321.95</ele>
        <time>2025-10-19T10:47:24Z</time>
      </trkpt>
      <trkpt lat="45.07131" lon="2.70138">
        <ele>1320.99</ele>
        <time>2025-10-19T10:47:43Z</time>
      </trkpt>
      <trkpt lat="45.07154" lon="2.70128">
        <ele>1319.07</ele>
        <time>2025-10-19T10:48:04Z</time>
      </trkpt>
      <trkpt lat="45.07171" lon="2.70126">
        <ele>1317.14</ele>
        <time>2025-10-19T10:48:22Z</time>
      </trkpt>
      <trkpt lat="45.07195" lon="2.70124">
        <ele>1316.18</ele>
        <time>2025-10-19T10:48:43Z</time>
      </trkpt>
      <trkpt lat="45.07218" lon="2.70121">
        <ele>1315.22</ele>
        <time>2025-10-19T10:49:03Z</time>
      </trkpt>
      <trkpt lat="45.07238" lon="2.70108">
        <ele>1315.22</ele>
        <time>2025-10-19T10:49:20Z</time>
      </trkpt>
      <trkpt lat="45.07255" lon="2.70106">
        <ele>1316.18</ele>
        <time>2025-10-19T10:49:36Z</time>
      </trkpt>
      <trkpt lat="45.07257" lon="2.70107">
        <ele>1316.66</ele>
        <time>2025-10-19T10:49:38Z</time>
      </trkpt>
      <trkpt lat="45.07261" lon="2.70111">
        <ele>1317.14</ele>
        <time>2025-10-19T10:49:42Z</time>
      </trkpt>
      <trkpt lat="45.07271" lon="2.70118">
        <ele>1318.59</ele>
        <time>2025-10-19T10:49:57Z</time>
      </trkpt>
      <trkpt lat="45.07274" lon="2.7013">
        <ele>1318.59</ele>
        <time>2025-10-19T10:50:17Z</time>
      </trkpt>
      <trkpt lat="45.07275" lon="2.70134">
        <ele>1317.14</ele>
        <time>2025-10-19T10:50:20Z</time>
      </trkpt>
      <trkpt lat="45.07277" lon="2.70151">
        <ele>1314.26</ele>
        <time>2025-10-19T10:50:33Z</time>
      </trkpt>
      <trkpt lat="45.07279" lon="2.70173">
        <ele>1310.9</ele>
        <time>2025-10-19T10:50:50Z</time>
      </trkpt>
      <trkpt lat="45.07286" lon="2.70194">
        <ele>1308.01</ele>
        <time>2025-10-19T10:51:06Z</time>
      </trkpt>
      <trkpt lat="45.07287" lon="2.70198">
        <ele>1308.01</ele>
        <time>2025-10-19T10:51:09Z</time>
      </trkpt>
      <trkpt lat="45.07295" lon="2.70224">
        <ele>1306.57</ele>
        <time>2025-10-19T10:51:28Z</time>
      </trkpt>
      <trkpt lat="45.07302" lon="2.70252">
        <ele>1306.57</ele>
        <time>2025-10-19T10:51:42Z</time>
      </trkpt>
      <trkpt lat="45.07304" lon="2.70271">
        <ele>1305.13</ele>
        <time>2025-10-19T10:51:56Z</time>
      </trkpt>
      <trkpt lat="45.07311" lon="2.70294">
        <ele>1302.72</ele>
        <time>2025-10-19T10:52:17Z</time>
      </trkpt>
      <trkpt lat="45.07324" lon="2.70305">
        <ele>1301.28</ele>
        <time>2025-10-19T10:52:37Z</time>
      </trkpt>
      <trkpt lat="45.07327" lon="2.70309">
        <ele>1302.24</ele>
        <time>2025-10-19T10:52:41Z</time>
      </trkpt>
      <trkpt lat="45.07339" lon="2.70324">
        <ele>1305.61</ele>
        <time>2025-10-19T10:52:59Z</time>
      </trkpt>
      <trkpt lat="45.07354" lon="2.70332">
        <ele>1307.53</ele>
        <time>2025-10-19T10:53:22Z</time>
      </trkpt>
      <trkpt lat="45.07367" lon="2.70346">
        <ele>1307.53</ele>
        <time>2025-10-19T10:53:41Z</time>
      </trkpt>
      <trkpt lat="45.07375" lon="2.7036">
        <ele>1306.57</ele>
        <time>2025-10-19T10:53:57Z</time>
      </trkpt>
      <trkpt lat="45.07376" lon="2.70362">
        <ele>1306.57</ele>
        <time>2025-10-19T10:53:58Z</time>
      </trkpt>
      <trkpt lat="45.07373" lon="2.70377">
        <ele>1309.93</ele>
        <time>2025-10-19T10:54:14Z</time>
      </trkpt>
      <trkpt lat="45.07378" lon="2.7039">
        <ele>1312.82</ele>
        <time>2025-10-19T10:54:32Z</time>
      </trkpt>
      <trkpt lat="45.0738" lon="2.70398">
        <ele>1314.26</ele>
        <time>2025-10-19T10:54:44Z</time>
      </trkpt>
      <trkpt lat="45.07386" lon="2.70401">
        <ele>1317.14</ele>
        <time>2025-10-19T10:55:02Z</time>
      </trkpt>
      <trkpt lat="45.0739" lon="2.70408">
        <ele>1319.07</ele>
        <time>2025-10-19T10:55:21Z</time>
      </trkpt>
      <trkpt lat="45.07393" lon="2.70413">
        <ele>1320.51</ele>
        <time>2025-10-19T10:55:54Z</time>
      </trkpt>
      <trkpt lat="45.074" lon="2.70412">
        <ele>1321.95</ele>
        <time>2025-10-19T10:56:09Z</time>
      </trkpt>
      <trkpt lat="45.07405" lon="2.7041">
        <ele>1324.35</ele>
        <time>2025-10-19T10:56:28Z</time>
      </trkpt>
      <trkpt lat="45.07405" lon="2.70412">
        <ele>1324.35</ele>
        <time>2025-10-19T10:56:36Z</time>
      </trkpt>
      <trkpt lat="45.07404" lon="2.70431">
        <ele>1324.83</ele>
        <time>2025-10-19T10:56:52Z</time>
      </trkpt>
      <trkpt lat="45.07391" lon="2.70442">
        <ele>1325.31</ele>
        <time>2025-10-19T10:57:07Z</time>
      </trkpt>
      <trkpt lat="45.07388" lon="2.70458">
        <ele>1326.76</ele>
        <time>2025-10-19T10:57:25Z</time>
      </trkpt>
      <trkpt lat="45.07388" lon="2.70466">
        <ele>1329.64</ele>
        <time>2025-10-19T10:57:38Z</time>
      </trkpt>
      <trkpt lat="45.07377" lon="2.70472">
        <ele>1330.12</ele>
        <time>2025-10-19T10:57:55Z</time>
      </trkpt>
      <trkpt lat="45.07374" lon="2.70473">
        <ele>1329.16</ele>
        <time>2025-10-19T10:57:57Z</time>
      </trkpt>
      <trkpt lat="45.07355" lon="2.70481">
        <ele>1326.76</ele>
        <time>2025-10-19T10:58:14Z</time>
      </trkpt>
      <trkpt lat="45.07351" lon="2.70483">
        <ele>1326.28</ele>
        <time>2025-10-19T10:58:19Z</time>
      </trkpt>
      <trkpt lat="45.07345" lon="2.70487">
        <ele>1325.8</ele>
        <time>2025-10-19T10:58:25Z</time>
      </trkpt>
      <trkpt lat="45.07341" lon="2.7049">
        <ele>1325.31</ele>
        <time>2025-10-19T10:58:30Z</time>
      </trkpt>
      <trkpt lat="45.07328" lon="2.70498">
        <ele>1324.35</ele>
        <time>2025-10-19T10:58:43Z</time>
      </trkpt>
      <trkpt lat="45.07318" lon="2.70507">
        <ele>1322.91</ele>
        <time>2025-10-19T10:58:55Z</time>
      </trkpt>
      <trkpt lat="45.07311" lon="2.70513">
        <ele>1322.43</ele>
        <time>2025-10-19T10:59:04Z</time>
      </trkpt>
      <trkpt lat="45.07307" lon="2.70516">
        <ele>1321.95</ele>
        <time>2025-10-19T10:59:08Z</time>
      </trkpt>
      <trkpt lat="45.07301" lon="2.70524">
        <ele>1320.03</ele>
        <time>2025-10-19T10:59:16Z</time>
      </trkpt>
      <trkpt lat="45.07289" lon="2.70538">
        <ele>1318.1</ele>
        <time>2025-10-19T10:59:30Z</time>
      </trkpt>
      <trkpt lat="45.07283" lon="2.70547">
        <ele>1316.66</ele>
        <time>2025-10-19T10:59:43Z</time>
      </trkpt>
      <trkpt lat="45.07275" lon="2.70566">
        <ele>1313.3</ele>
        <time>2025-10-19T11:00:00Z</time>
      </trkpt>
      <trkpt lat="45.07268" lon="2.70589">
        <ele>1310.9</ele>
        <time>2025-10-19T11:00:18Z</time>
      </trkpt>
      <trkpt lat="45.07266" lon="2.70597">
        <ele>1309.93</ele>
        <time>2025-10-19T11:00:23Z</time>
      </trkpt>
      <trkpt lat="45.07266" lon="2.70621">
        <ele>1308.01</ele>
        <time>2025-10-19T11:00:39Z</time>
      </trkpt>
      <trkpt lat="45.07264" lon="2.70641">
        <ele>1305.13</ele>
        <time>2025-10-19T11:00:54Z</time>
      </trkpt>
      <trkpt lat="45.07268" lon="2.7066">
        <ele>1302.72</ele>
        <time>2025-10-19T11:01:09Z</time>
      </trkpt>
      <trkpt lat="45.07272" lon="2.70681">
        <ele>1300.32</ele>
        <time>2025-10-19T11:01:25Z</time>
      </trkpt>
      <trkpt lat="45.07275" lon="2.70703">
        <ele>1297.92</ele>
        <time>2025-10-19T11:01:43Z</time>
      </trkpt>
      <trkpt lat="45.07274" lon="2.7071">
        <ele>1296.96</ele>
        <time>2025-10-19T11:01:48Z</time>
      </trkpt>
      <trkpt lat="45.0727" lon="2.70726">
        <ele>1296.48</ele>
        <time>2025-10-19T11:01:58Z</time>
      </trkpt>
      <trkpt lat="45.07267" lon="2.70745">
        <ele>1294.07</ele>
        <time>2025-10-19T11:02:14Z</time>
      </trkpt>
      <trkpt lat="45.07266" lon="2.70755">
        <ele>1292.63</ele>
        <time>2025-10-19T11:02:22Z</time>
      </trkpt>
      <trkpt lat="45.07269" lon="2.70787">
        <ele>1291.19</ele>
        <time>2025-10-19T11:02:42Z</time>
      </trkpt>
      <trkpt lat="45.07271" lon="2.70799">
        <ele>1289.27</ele>
        <time>2025-10-19T11:02:52Z</time>
      </trkpt>
      <trkpt lat="45.07286" lon="2.70814">
        <ele>1288.3</ele>
        <time>2025-10-19T11:03:11Z</time>
      </trkpt>
      <trkpt lat="45.07301" lon="2.70818">
        <ele>1287.34</ele>
        <time>2025-10-19T11:03:30Z</time>
      </trkpt>
      <trkpt lat="45.07325" lon="2.70833">
        <ele>1285.9</ele>
        <time>2025-10-19T11:03:51Z</time>
      </trkpt>
      <trkpt lat="45.0733" lon="2.70866">
        <ele>1283.5</ele>
        <time>2025-10-19T11:04:13Z</time>
      </trkpt>
      <trkpt lat="45.07325" lon="2.70886">
        <ele>1281.09</ele>
        <time>2025-10-19T11:04:28Z</time>
      </trkpt>
      <trkpt lat="45.07326" lon="2.70905">
        <ele>1279.65</ele>
        <time>2025-10-19T11:04:41Z</time>
      </trkpt>
      <trkpt lat="45.07331" lon="2.7093">
        <ele>1276.29</ele>
        <time>2025-10-19T11:04:58Z</time>
      </trkpt>
      <trkpt lat="45.07332" lon="2.70953">
        <ele>1273.88</ele>
        <time>2025-10-19T11:05:13Z</time>
      </trkpt>
      <trkpt lat="45.07331" lon="2.7098">
        <ele>1271.96</ele>
        <time>2025-10-19T11:05:31Z</time>
      </trkpt>
      <trkpt lat="45.07332" lon="2.71008">
        <ele>1269.08</ele>
        <time>2025-10-19T11:05:51Z</time>
      </trkpt>
      <trkpt lat="45.07329" lon="2.71021">
        <ele>1267.64</ele>
        <time>2025-10-19T11:06:10Z</time>
      </trkpt>
      <trkpt lat="45.07327" lon="2.71032">
        <ele>1266.67</ele>
        <time>2025-10-19T11:06:28Z</time>
      </trkpt>
      <trkpt lat="45.07326" lon="2.71051">
        <ele>1264.75</ele>
        <time>2025-10-19T11:06:46Z</time>
      </trkpt>
      <trkpt lat="45.07317" lon="2.71072">
        <ele>1261.39</ele>
        <time>2025-10-19T11:07:03Z</time>
      </trkpt>
      <trkpt lat="45.07314" lon="2.71078">
        <ele>1261.39</ele>
        <time>2025-10-19T11:07:08Z</time>
      </trkpt>
      <trkpt lat="45.07306" lon="2.711">
        <ele>1258.5</ele>
        <time>2025-10-19T11:07:25Z</time>
      </trkpt>
      <trkpt lat="45.07303" lon="2.71107">
        <ele>1258.02</ele>
        <time>2025-10-19T11:07:30Z</time>
      </trkpt>
      <trkpt lat="45.073" lon="2.71114">
        <ele>1257.54</ele>
        <time>2025-10-19T11:07:35Z</time>
      </trkpt>
      <trkpt lat="45.07297" lon="2.71118">
        <ele>1257.06</ele>
        <time>2025-10-19T11:07:39Z</time>
      </trkpt>
      <trkpt lat="45.07292" lon="2.71142">
        <ele>1255.14</ele>
        <time>2025-10-19T11:07:56Z</time>
      </trkpt>
      <trkpt lat="45.07292" lon="2.71166">
        <ele>1252.74</ele>
        <time>2025-10-19T11:08:14Z</time>
      </trkpt>
      <trkpt lat="45.07303" lon="2.7119">
        <ele>1250.81</ele>
        <time>2025-10-19T11:08:32Z</time>
      </trkpt>
      <trkpt lat="45.07321" lon="2.71205">
        <ele>1248.41</ele>
        <time>2025-10-19T11:08:50Z</time>
      </trkpt>
      <trkpt lat="45.07337" lon="2.71215">
        <ele>1245.53</ele>
        <time>2025-10-19T11:09:08Z</time>
      </trkpt>
      <trkpt lat="45.07347" lon="2.71218">
        <ele>1246.01</ele>
        <time>2025-10-19T11:09:22Z</time>
      </trkpt>
      <trkpt lat="45.07352" lon="2.71217">
        <ele>1244.56</ele>
        <time>2025-10-19T11:09:26Z</time>
      </trkpt>
      <trkpt lat="45.07353" lon="2.71216">
        <ele>1244.56</ele>
        <time>2025-10-19T11:09:27Z</time>
      </trkpt>
      <trkpt lat="45.0737" lon="2.71211">
        <ele>1243.6</ele>
        <time>2025-10-19T11:09:41Z</time>
      </trkpt>
      <trkpt lat="45.07389" lon="2.71208">
        <ele>1242.16</ele>
        <time>2025-10-19T11:09:58Z</time>
      </trkpt>
      <trkpt lat="45.07398" lon="2.71207">
        <ele>1242.16</ele>
        <time>2025-10-19T11:10:06Z</time>
      </trkpt>
      <trkpt lat="45.07419" lon="2.71209">
        <ele>1241.2</ele>
        <time>2025-10-19T11:10:24Z</time>
      </trkpt>
      <trkpt lat="45.07439" lon="2.7121">
        <ele>1242.16</ele>
        <time>2025-10-19T11:10:44Z</time>
      </trkpt>
      <trkpt lat="45.07455" lon="2.71214">
        <ele>1242.16</ele>
        <time>2025-10-19T11:11:01Z</time>
      </trkpt>
      <trkpt lat="45.07469" lon="2.71206">
        <ele>1242.64</ele>
        <time>2025-10-19T11:11:17Z</time>
      </trkpt>
      <trkpt lat="45.07473" lon="2.71203">
        <ele>1241.68</ele>
        <time>2025-10-19T11:11:21Z</time>
      </trkpt>
      <trkpt lat="45.07489" lon="2.71205">
        <ele>1240.72</ele>
        <time>2025-10-19T11:11:36Z</time>
      </trkpt>
      <trkpt lat="45.07507" lon="2.71213">
        <ele>1240.72</ele>
        <time>2025-10-19T11:11:53Z</time>
      </trkpt>
      <trkpt lat="45.07526" lon="2.71207">
        <ele>1237.83</ele>
        <time>2025-10-19T11:12:08Z</time>
      </trkpt>
      <trkpt lat="45.07545" lon="2.71223">
        <ele>1236.39</ele>
        <time>2025-10-19T11:12:27Z</time>
      </trkpt>
      <trkpt lat="45.07545" lon="2.71258">
        <ele>1234.95</ele>
        <time>2025-10-19T11:12:46Z</time>
      </trkpt>
      <trkpt lat="45.07544" lon="2.71266">
        <ele>1234.95</ele>
        <time>2025-10-19T11:12:50Z</time>
      </trkpt>
      <trkpt lat="45.07541" lon="2.71282">
        <ele>1234.95</ele>
        <time>2025-10-19T11:13:01Z</time>
      </trkpt>
      <trkpt lat="45.07552" lon="2.71303">
        <ele>1233.51</ele>
        <time>2025-10-19T11:13:18Z</time>
      </trkpt>
      <trkpt lat="45.07556" lon="2.7131">
        <ele>1233.03</ele>
        <time>2025-10-19T11:13:25Z</time>
      </trkpt>
      <trkpt lat="45.07557" lon="2.71317">
        <ele>1233.03</ele>
        <time>2025-10-19T11:13:29Z</time>
      </trkpt>
      <trkpt lat="45.07555" lon="2.71343">
        <ele>1233.03</ele>
        <time>2025-10-19T11:13:45Z</time>
      </trkpt>
      <trkpt lat="45.07553" lon="2.71368">
        <ele>1230.14</ele>
        <time>2025-10-19T11:13:59Z</time>
      </trkpt>
      <trkpt lat="45.07551" lon="2.71374">
        <ele>1230.14</ele>
        <time>2025-10-19T11:14:04Z</time>
      </trkpt>
      <trkpt lat="45.07549" lon="2.71382">
        <ele>1229.66</ele>
        <time>2025-10-19T11:14:09Z</time>
      </trkpt>
      <trkpt lat="45.07545" lon="2.714">
        <ele>1229.66</ele>
        <time>2025-10-19T11:14:22Z</time>
      </trkpt>
      <trkpt lat="45.07541" lon="2.71421">
        <ele>1229.66</ele>
        <time>2025-10-19T11:14:36Z</time>
      </trkpt>
      <trkpt lat="45.0754" lon="2.71437">
        <ele>1228.7</ele>
        <time>2025-10-19T11:14:47Z</time>
      </trkpt>
      <trkpt lat="45.0754" lon="2.71463">
        <ele>1228.7</ele>
        <time>2025-10-19T11:15:04Z</time>
      </trkpt>
      <trkpt lat="45.07549" lon="2.71489">
        <ele>1227.74</ele>
        <time>2025-10-19T11:15:23Z</time>
      </trkpt>
      <trkpt lat="45.07559" lon="2.71512">
        <ele>1227.74</ele>
        <time>2025-10-19T11:15:41Z</time>
      </trkpt>
      <trkpt lat="45.07566" lon="2.71532">
        <ele>1227.74</ele>
        <time>2025-10-19T11:15:57Z</time>
      </trkpt>
      <trkpt lat="45.07567" lon="2.71535">
        <ele>1227.74</ele>
        <time>2025-10-19T11:15:59Z</time>
      </trkpt>
      <trkpt lat="45.07574" lon="2.71558">
        <ele>1226.78</ele>
        <time>2025-10-19T11:16:16Z</time>
      </trkpt>
      <trkpt lat="45.07577" lon="2.71582">
        <ele>1225.82</ele>
        <time>2025-10-19T11:16:32Z</time>
      </trkpt>
      <trkpt lat="45.07578" lon="2.7159">
        <ele>1225.34</ele>
        <time>2025-10-19T11:16:37Z</time>
      </trkpt>
      <trkpt lat="45.07578" lon="2.716">
        <ele>1225.34</ele>
        <time>2025-10-19T11:16:43Z</time>
      </trkpt>
      <trkpt lat="45.0758" lon="2.71617">
        <ele>1224.38</ele>
        <time>2025-10-19T11:16:54Z</time>
      </trkpt>
      <trkpt lat="45.07587" lon="2.71641">
        <ele>1224.38</ele>
        <time>2025-10-19T11:17:11Z</time>
      </trkpt>
      <trkpt lat="45.07599" lon="2.71661">
        <ele>1222.93</ele>
        <time>2025-10-19T11:17:28Z</time>
      </trkpt>
      <trkpt lat="45.07613" lon="2.71685">
        <ele>1220.05</ele>
        <time>2025-10-19T11:17:48Z</time>
      </trkpt>
      <trkpt lat="45.07624" lon="2.71703">
        <ele>1218.13</ele>
        <time>2025-10-19T11:18:05Z</time>
      </trkpt>
      <trkpt lat="45.07639" lon="2.71724">
        <ele>1215.72</ele>
        <time>2025-10-19T11:18:23Z</time>
      </trkpt>
      <trkpt lat="45.07653" lon="2.71732">
        <ele>1214.28</ele>
        <time>2025-10-19T11:18:38Z</time>
      </trkpt>
      <trkpt lat="45.07666" lon="2.71746">
        <ele>1213.8</ele>
        <time>2025-10-19T11:18:55Z</time>
      </trkpt>
      <trkpt lat="45.07672" lon="2.71765">
        <ele>1213.32</ele>
        <time>2025-10-19T11:19:08Z</time>
      </trkpt>
      <trkpt lat="45.07676" lon="2.71797">
        <ele>1210.92</ele>
        <time>2025-10-19T11:19:27Z</time>
      </trkpt>
      <trkpt lat="45.07673" lon="2.71827">
        <ele>1208.03</ele>
        <time>2025-10-19T11:19:44Z</time>
      </trkpt>
      <trkpt lat="45.07673" lon="2.7183">
        <ele>1207.55</ele>
        <time>2025-10-19T11:19:46Z</time>
      </trkpt>
      <trkpt lat="45.07672" lon="2.71841">
        <ele>1205.63</ele>
        <time>2025-10-19T11:19:54Z</time>
      </trkpt>
      <trkpt lat="45.07673" lon="2.71851">
        <ele>1205.15</ele>
        <time>2025-10-19T11:20:01Z</time>
      </trkpt>
      <trkpt lat="45.07682" lon="2.71874">
        <ele>1204.19</ele>
        <time>2025-10-19T11:20:17Z</time>
      </trkpt>
      <trkpt lat="45.07683" lon="2.71877">
        <ele>1205.63</ele>
        <time>2025-10-19T11:20:20Z</time>
      </trkpt>
      <trkpt lat="45.07683" lon="2.71879">
        <ele>1205.63</ele>
        <time>2025-10-19T11:20:21Z</time>
      </trkpt>
      <trkpt lat="45.07686" lon="2.71883">
        <ele>1205.63</ele>
        <time>2025-10-19T11:20:25Z</time>
      </trkpt>
      <trkpt lat="45.07692" lon="2.71895">
        <ele>1206.59</ele>
        <time>2025-10-19T11:20:36Z</time>
      </trkpt>
      <trkpt lat="45.07695" lon="2.719">
        <ele>1206.59</ele>
        <time>2025-10-19T11:20:40Z</time>
      </trkpt>
      <trkpt lat="45.07697" lon="2.71903">
        <ele>1207.07</ele>
        <time>2025-10-19T11:20:43Z</time>
      </trkpt>
      <trkpt lat="45.07698" lon="2.71905">
        <ele>1207.07</ele>
        <time>2025-10-19T11:20:45Z</time>
      </trkpt>
      <trkpt lat="45.07709" lon="2.71918">
        <ele>1207.55</ele>
        <time>2025-10-19T11:21:00Z</time>
      </trkpt>
      <trkpt lat="45.07711" lon="2.71919">
        <ele>1207.55</ele>
        <time>2025-10-19T11:21:02Z</time>
      </trkpt>
      <trkpt lat="45.07724" lon="2.71929">
        <ele>1209.96</ele>
        <time>2025-10-19T11:21:20Z</time>
      </trkpt>
      <trkpt lat="45.07726" lon="2.71931">
        <ele>1209.96</ele>
        <time>2025-10-19T11:21:24Z</time>
      </trkpt>
      <trkpt lat="45.07736" lon="2.71935">
        <ele>1211.88</ele>
        <time>2025-10-19T11:21:40Z</time>
      </trkpt>
      <trkpt lat="45.07749" lon="2.71938">
        <ele>1213.32</ele>
        <time>2025-10-19T11:21:58Z</time>
      </trkpt>
      <trkpt lat="45.07767" lon="2.71951">
        <ele>1213.8</ele>
        <time>2025-10-19T11:22:19Z</time>
      </trkpt>
      <trkpt lat="45.07782" lon="2.71953">
        <ele>1215.24</ele>
        <time>2025-10-19T11:22:32Z</time>
      </trkpt>
      <trkpt lat="45.07798" lon="2.71959">
        <ele>1216.21</ele>
        <time>2025-10-19T11:22:50Z</time>
      </trkpt>
      <trkpt lat="45.07812" lon="2.71969">
        <ele>1217.17</ele>
        <time>2025-10-19T11:23:05Z</time>
      </trkpt>
      <trkpt lat="45.07819" lon="2.71985">
        <ele>1218.13</ele>
        <time>2025-10-19T11:23:20Z</time>
      </trkpt>
      <trkpt lat="45.07826" lon="2.72002">
        <ele>1218.61</ele>
        <time>2025-10-19T11:23:35Z</time>
      </trkpt>
      <trkpt lat="45.07833" lon="2.72017">
        <ele>1220.53</ele>
        <time>2025-10-19T11:23:52Z</time>
      </trkpt>
      <trkpt lat="45.07842" lon="2.72026">
        <ele>1221.49</ele>
        <time>2025-10-19T11:24:07Z</time>
      </trkpt>
      <trkpt lat="45.07854" lon="2.72029">
        <ele>1223.9</ele>
        <time>2025-10-19T11:24:23Z</time>
      </trkpt>
      <trkpt lat="45.07864" lon="2.72033">
        <ele>1225.34</ele>
        <time>2025-10-19T11:24:37Z</time>
      </trkpt>
      <trkpt lat="45.07877" lon="2.72036">
        <ele>1226.3</ele>
        <time>2025-10-19T11:24:53Z</time>
      </trkpt>
      <trkpt lat="45.07892" lon="2.72043">
        <ele>1226.78</ele>
        <time>2025-10-19T11:25:10Z</time>
      </trkpt>
      <trkpt lat="45.07895" lon="2.72043">
        <ele>1225.82</ele>
        <time>2025-10-19T11:25:14Z</time>
      </trkpt>
      <trkpt lat="45.07911" lon="2.72038">
        <ele>1223.9</ele>
        <time>2025-10-19T11:25:30Z</time>
      </trkpt>
      <trkpt lat="45.07929" lon="2.72036">
        <ele>1223.42</ele>
        <time>2025-10-19T11:25:49Z</time>
      </trkpt>
      <trkpt lat="45.07942" lon="2.72052">
        <ele>1223.42</ele>
        <time>2025-10-19T11:26:03Z</time>
      </trkpt>
      <trkpt lat="45.0795" lon="2.72069">
        <ele>1224.86</ele>
        <time>2025-10-19T11:26:14Z</time>
      </trkpt>
      <trkpt lat="45.07957" lon="2.72087">
        <ele>1225.34</ele>
        <time>2025-10-19T11:26:29Z</time>
      </trkpt>
      <trkpt lat="45.07968" lon="2.72098">
        <ele>1223.9</ele>
        <time>2025-10-19T11:26:43Z</time>
      </trkpt>
      <trkpt lat="45.07973" lon="2.72103">
        <ele>1223.9</ele>
        <time>2025-10-19T11:26:49Z</time>
      </trkpt>
      <trkpt lat="45.07974" lon="2.72106">
        <ele>1223.9</ele>
        <time>2025-10-19T11:26:51Z</time>
      </trkpt>
      <trkpt lat="45.07977" lon="2.7211">
        <ele>1223.42</ele>
        <time>2025-10-19T11:26:54Z</time>
      </trkpt>
      <trkpt lat="45.07984" lon="2.72124">
        <ele>1223.42</ele>
        <time>2025-10-19T11:27:06Z</time>
      </trkpt>
      <trkpt lat="45.07985" lon="2.72128">
        <ele>1223.42</ele>
        <time>2025-10-19T11:27:09Z</time>
      </trkpt>
      <trkpt lat="45.07986" lon="2.7214">
        <ele>1222.93</ele>
        <time>2025-10-19T11:27:17Z</time>
      </trkpt>
      <trkpt lat="45.07994" lon="2.72162">
        <ele>1221.97</ele>
        <time>2025-10-19T11:27:32Z</time>
      </trkpt>
      <trkpt lat="45.08006" lon="2.72169">
        <ele>1220.05</ele>
        <time>2025-10-19T11:27:48Z</time>
      </trkpt>
      <trkpt lat="45.08019" lon="2.72173">
        <ele>1217.65</ele>
        <time>2025-10-19T11:28:04Z</time>
      </trkpt>
      <trkpt lat="45.08033" lon="2.72181">
        <ele>1215.24</ele>
        <time>2025-10-19T11:28:17Z</time>
      </trkpt>
      <trkpt lat="45.08046" lon="2.72197">
        <ele>1213.32</ele>
        <time>2025-10-19T11:28:33Z</time>
      </trkpt>
      <trkpt lat="45.0805" lon="2.72208">
        <ele>1211.4</ele>
        <time>2025-10-19T11:28:41Z</time>
      </trkpt>
      <trkpt lat="45.08059" lon="2.72231">
        <ele>1209</ele>
        <time>2025-10-19T11:28:59Z</time>
      </trkpt>
      <trkpt lat="45.08065" lon="2.72247">
        <ele>1207.55</ele>
        <time>2025-10-19T11:29:17Z</time>
      </trkpt>
      <trkpt lat="45.0807" lon="2.72258">
        <ele>1207.55</ele>
        <time>2025-10-19T11:29:25Z</time>
      </trkpt>
      <trkpt lat="45.08078" lon="2.72276">
        <ele>1208.03</ele>
        <time>2025-10-19T11:29:39Z</time>
      </trkpt>
      <trkpt lat="45.08082" lon="2.72283">
        <ele>1208.51</ele>
        <time>2025-10-19T11:30:03Z</time>
      </trkpt>
      <trkpt lat="45.08091" lon="2.72287">
        <ele>1208.51</ele>
        <time>2025-10-19T11:30:28Z</time>
      </trkpt>
      <trkpt lat="45.08101" lon="2.72293">
        <ele>1209.48</ele>
        <time>2025-10-19T11:30:37Z</time>
      </trkpt>
      <trkpt lat="45.08107" lon="2.7231">
        <ele>1210.92</ele>
        <time>2025-10-19T11:30:52Z</time>
      </trkpt>
      <trkpt lat="45.08098" lon="2.72323">
        <ele>1211.4</ele>
        <time>2025-10-19T11:31:05Z</time>
      </trkpt>
      <trkpt lat="45.08097" lon="2.72324">
        <ele>1211.4</ele>
        <time>2025-10-19T11:31:06Z</time>
      </trkpt>
      <trkpt lat="45.08089" lon="2.72341">
        <ele>1211.88</ele>
        <time>2025-10-19T11:31:21Z</time>
      </trkpt>
      <trkpt lat="45.0809" lon="2.72355">
        <ele>1212.84</ele>
        <time>2025-10-19T11:31:31Z</time>
      </trkpt>
      <trkpt lat="45.08096" lon="2.72374">
        <ele>1213.32</ele>
        <time>2025-10-19T11:31:46Z</time>
      </trkpt>
      <trkpt lat="45.08096" lon="2.72375">
        <ele>1213.8</ele>
        <time>2025-10-19T11:32:04Z</time>
      </trkpt>
      <trkpt lat="45.08098" lon="2.72371">
        <ele>1213.8</ele>
        <time>2025-10-19T11:32:38Z</time>
      </trkpt>
      <trkpt lat="45.08094" lon="2.7237">
        <ele>1213.8</ele>
        <time>2025-10-19T11:33:19Z</time>
      </trkpt>
      <trkpt lat="45.08094" lon="2.72369">
        <ele>1213.8</ele>
        <time>2025-10-19T11:33:37Z</time>
      </trkpt>
      <trkpt lat="45.08091" lon="2.7237">
        <ele>1213.8</ele>
        <time>2025-10-19T11:34:22Z</time>
      </trkpt>
      <trkpt lat="45.081" lon="2.72388">
        <ele>1214.28</ele>
        <time>2025-10-19T11:34:37Z</time>
      </trkpt>
      <trkpt lat="45.08104" lon="2.72397">
        <ele>1215.72</ele>
        <time>2025-10-19T11:34:53Z</time>
      </trkpt>
      <trkpt lat="45.08107" lon="2.72408">
        <ele>1216.21</ele>
        <time>2025-10-19T11:35:12Z</time>
      </trkpt>
      <trkpt lat="45.08109" lon="2.7241">
        <ele>1216.69</ele>
        <time>2025-10-19T11:35:14Z</time>
      </trkpt>
      <trkpt lat="45.08119" lon="2.72423">
        <ele>1217.65</ele>
        <time>2025-10-19T11:35:30Z</time>
      </trkpt>
      <trkpt lat="45.08132" lon="2.72425">
        <ele>1219.57</ele>
        <time>2025-10-19T11:35:47Z</time>
      </trkpt>
      <trkpt lat="45.08146" lon="2.72425">
        <ele>1221.01</ele>
        <time>2025-10-19T11:36:04Z</time>
      </trkpt>
      <trkpt lat="45.08158" lon="2.72427">
        <ele>1221.97</ele>
        <time>2025-10-19T11:36:18Z</time>
      </trkpt>
      <trkpt lat="45.0816" lon="2.72428">
        <ele>1221.97</ele>
        <time>2025-10-19T11:36:20Z</time>
      </trkpt>
      <trkpt lat="45.08172" lon="2.72446">
        <ele>1223.42</ele>
        <time>2025-10-19T11:36:37Z</time>
      </trkpt>
      <trkpt lat="45.08171" lon="2.7245">
        <ele>1223.42</ele>
        <time>2025-10-19T11:36:39Z</time>
      </trkpt>
      <trkpt lat="45.0817" lon="2.72452">
        <ele>1223.9</ele>
        <time>2025-10-19T11:36:41Z</time>
      </trkpt>
      <trkpt lat="45.08167" lon="2.7246">
        <ele>1223.9</ele>
        <time>2025-10-19T11:36:46Z</time>
      </trkpt>
      <trkpt lat="45.08168" lon="2.72486">
        <ele>1224.86</ele>
        <time>2025-10-19T11:37:03Z</time>
      </trkpt>
      <trkpt lat="45.08173" lon="2.72496">
        <ele>1225.82</ele>
        <time>2025-10-19T11:37:11Z</time>
      </trkpt>
      <trkpt lat="45.08177" lon="2.72502">
        <ele>1226.3</ele>
        <time>2025-10-19T11:37:16Z</time>
      </trkpt>
      <trkpt lat="45.08178" lon="2.72505">
        <ele>1226.3</ele>
        <time>2025-10-19T11:37:19Z</time>
      </trkpt>
      <trkpt lat="45.08184" lon="2.72522">
        <ele>1228.22</ele>
        <time>2025-10-19T11:37:34Z</time>
      </trkpt>
      <trkpt lat="45.08187" lon="2.7253">
        <ele>1228.22</ele>
        <time>2025-10-19T11:37:41Z</time>
      </trkpt>
      <trkpt lat="45.08192" lon="2.72548">
        <ele>1229.18</ele>
        <time>2025-10-19T11:37:55Z</time>
      </trkpt>
      <trkpt lat="45.08194" lon="2.72565">
        <ele>1231.11</ele>
        <time>2025-10-19T11:38:09Z</time>
      </trkpt>
      <trkpt lat="45.08199" lon="2.72583">
        <ele>1232.07</ele>
        <time>2025-10-19T11:38:23Z</time>
      </trkpt>
      <trkpt lat="45.08207" lon="2.72595">
        <ele>1233.03</ele>
        <time>2025-10-19T11:38:36Z</time>
      </trkpt>
      <trkpt lat="45.08211" lon="2.726">
        <ele>1233.03</ele>
        <time>2025-10-19T11:38:41Z</time>
      </trkpt>
      <trkpt lat="45.08219" lon="2.72613">
        <ele>1233.99</ele>
        <time>2025-10-19T11:38:55Z</time>
      </trkpt>
      <trkpt lat="45.08219" lon="2.72614">
        <ele>1233.99</ele>
        <time>2025-10-19T11:38:56Z</time>
      </trkpt>
      <trkpt lat="45.08225" lon="2.72619">
        <ele>1234.47</ele>
        <time>2025-10-19T11:39:03Z</time>
      </trkpt>
      <trkpt lat="45.08229" lon="2.72622">
        <ele>1234.47</ele>
        <time>2025-10-19T11:39:07Z</time>
      </trkpt>
      <trkpt lat="45.08242" lon="2.72631">
        <ele>1236.39</ele>
        <time>2025-10-19T11:39:23Z</time>
      </trkpt>
      <trkpt lat="45.08253" lon="2.72638">
        <ele>1237.83</ele>
        <time>2025-10-19T11:39:38Z</time>
      </trkpt>
      <trkpt lat="45.08269" lon="2.72651">
        <ele>1238.8</ele>
        <time>2025-10-19T11:39:56Z</time>
      </trkpt>
      <trkpt lat="45.08276" lon="2.72656">
        <ele>1239.28</ele>
        <time>2025-10-19T11:40:04Z</time>
      </trkpt>
      <trkpt lat="45.08291" lon="2.72668">
        <ele>1240.24</ele>
        <time>2025-10-19T11:40:21Z</time>
      </trkpt>
      <trkpt lat="45.08306" lon="2.7268">
        <ele>1240.72</ele>
        <time>2025-10-19T11:40:39Z</time>
      </trkpt>
      <trkpt lat="45.08319" lon="2.72686">
        <ele>1243.12</ele>
        <time>2025-10-19T11:40:57Z</time>
      </trkpt>
      <trkpt lat="45.08334" lon="2.72695">
        <ele>1244.08</ele>
        <time>2025-10-19T11:41:13Z</time>
      </trkpt>
      <trkpt lat="45.08348" lon="2.72709">
        <ele>1245.53</ele>
        <time>2025-10-19T11:41:29Z</time>
      </trkpt>
      <trkpt lat="45.08363" lon="2.72721">
        <ele>1247.45</ele>
        <time>2025-10-19T11:41:49Z</time>
      </trkpt>
      <trkpt lat="45.08375" lon="2.72735">
        <ele>1249.37</ele>
        <time>2025-10-19T11:42:05Z</time>
      </trkpt>
      <trkpt lat="45.08385" lon="2.72746">
        <ele>1249.85</ele>
        <time>2025-10-19T11:42:18Z</time>
      </trkpt>
      <trkpt lat="45.08392" lon="2.72755">
        <ele>1250.81</ele>
        <time>2025-10-19T11:42:27Z</time>
      </trkpt>
      <trkpt lat="45.08399" lon="2.72771">
        <ele>1251.77</ele>
        <time>2025-10-19T11:42:39Z</time>
      </trkpt>
      <trkpt lat="45.08406" lon="2.72786">
        <ele>1252.74</ele>
        <time>2025-10-19T11:42:52Z</time>
      </trkpt>
      <trkpt lat="45.0841" lon="2.72801">
        <ele>1253.7</ele>
        <time>2025-10-19T11:43:05Z</time>
      </trkpt>
      <trkpt lat="45.08415" lon="2.72814">
        <ele>1254.18</ele>
        <time>2025-10-19T11:43:17Z</time>
      </trkpt>
      <trkpt lat="45.08424" lon="2.72833">
        <ele>1255.62</ele>
        <time>2025-10-19T11:43:32Z</time>
      </trkpt>
      <trkpt lat="45.08434" lon="2.72843">
        <ele>1256.58</ele>
        <time>2025-10-19T11:43:47Z</time>
      </trkpt>
      <trkpt lat="45.08442" lon="2.72849">
        <ele>1257.06</ele>
        <time>2025-10-19T11:43:58Z</time>
      </trkpt>
      <trkpt lat="45.08449" lon="2.72857">
        <ele>1257.54</ele>
        <time>2025-10-19T11:44:08Z</time>
      </trkpt>
      <trkpt lat="45.08452" lon="2.72862">
        <ele>1258.02</ele>
        <time>2025-10-19T11:44:14Z</time>
      </trkpt>
      <trkpt lat="45.08455" lon="2.72866">
        <ele>1258.5</ele>
        <time>2025-10-19T11:44:17Z</time>
      </trkpt>
      <trkpt lat="45.08464" lon="2.72886">
        <ele>1258.98</ele>
        <time>2025-10-19T11:44:33Z</time>
      </trkpt>
      <trkpt lat="45.08465" lon="2.72888">
        <ele>1258.98</ele>
        <time>2025-10-19T11:44:35Z</time>
      </trkpt>
      <trkpt lat="45.0847" lon="2.72896">
        <ele>1259.94</ele>
        <time>2025-10-19T11:44:43Z</time>
      </trkpt>
      <trkpt lat="45.08478" lon="2.72905">
        <ele>1261.39</ele>
        <time>2025-10-19T11:44:54Z</time>
      </trkpt>
      <trkpt lat="45.08486" lon="2.72915">
        <ele>1261.87</ele>
        <time>2025-10-19T11:45:07Z</time>
      </trkpt>
      <trkpt lat="45.08495" lon="2.72923">
        <ele>1262.83</ele>
        <time>2025-10-19T11:45:21Z</time>
      </trkpt>
      <trkpt lat="45.085" lon="2.72929">
        <ele>1263.31</ele>
        <time>2025-10-19T11:45:29Z</time>
      </trkpt>
      <trkpt lat="45.08511" lon="2.72944">
        <ele>1265.23</ele>
        <time>2025-10-19T11:45:44Z</time>
      </trkpt>
      <trkpt lat="45.08518" lon="2.72959">
        <ele>1265.23</ele>
        <time>2025-10-19T11:45:57Z</time>
      </trkpt>
      <trkpt lat="45.0852" lon="2.72962">
        <ele>1264.75</ele>
        <time>2025-10-19T11:46:01Z</time>
      </trkpt>
      <trkpt lat="45.08528" lon="2.72976">
        <ele>1266.67</ele>
        <time>2025-10-19T11:46:15Z</time>
      </trkpt>
      <trkpt lat="45.08532" lon="2.7298">
        <ele>1266.67</ele>
        <time>2025-10-19T11:46:21Z</time>
      </trkpt>
      <trkpt lat="45.08535" lon="2.72984">
        <ele>1266.19</ele>
        <time>2025-10-19T11:46:25Z</time>
      </trkpt>
      <trkpt lat="45.0854" lon="2.72993">
        <ele>1267.16</ele>
        <time>2025-10-19T11:46:33Z</time>
      </trkpt>
      <trkpt lat="45.08545" lon="2.73002">
        <ele>1267.64</ele>
        <time>2025-10-19T11:46:40Z</time>
      </trkpt>
      <trkpt lat="45.08547" lon="2.73006">
        <ele>1268.12</ele>
        <time>2025-10-19T11:46:44Z</time>
      </trkpt>
      <trkpt lat="45.08549" lon="2.73009">
        <ele>1268.12</ele>
        <time>2025-10-19T11:46:47Z</time>
      </trkpt>
      <trkpt lat="45.08551" lon="2.73032">
        <ele>1269.08</ele>
        <time>2025-10-19T11:47:04Z</time>
      </trkpt>
      <trkpt lat="45.08551" lon="2.73051">
        <ele>1269.56</ele>
        <time>2025-10-19T11:47:20Z</time>
      </trkpt>
      <trkpt lat="45.08552" lon="2.7307">
        <ele>1271</ele>
        <time>2025-10-19T11:47:34Z</time>
      </trkpt>
      <trkpt lat="45.08554" lon="2.73089">
        <ele>1271.48</ele>
        <time>2025-10-19T11:47:48Z</time>
      </trkpt>
      <trkpt lat="45.08554" lon="2.73093">
        <ele>1271.96</ele>
        <time>2025-10-19T11:47:51Z</time>
      </trkpt>
      <trkpt lat="45.08556" lon="2.73104">
        <ele>1271.96</ele>
        <time>2025-10-19T11:47:59Z</time>
      </trkpt>
      <trkpt lat="45.08558" lon="2.73122">
        <ele>1273.4</ele>
        <time>2025-10-19T11:48:13Z</time>
      </trkpt>
      <trkpt lat="45.08559" lon="2.73142">
        <ele>1275.33</ele>
        <time>2025-10-19T11:48:29Z</time>
      </trkpt>
      <trkpt lat="45.08559" lon="2.7316">
        <ele>1275.81</ele>
        <time>2025-10-19T11:48:43Z</time>
      </trkpt>
      <trkpt lat="45.08559" lon="2.73169">
        <ele>1276.77</ele>
        <time>2025-10-19T11:48:50Z</time>
      </trkpt>
      <trkpt lat="45.08556" lon="2.73178">
        <ele>1276.77</ele>
        <time>2025-10-19T11:48:57Z</time>
      </trkpt>
      <trkpt lat="45.08553" lon="2.732">
        <ele>1278.21</ele>
        <time>2025-10-19T11:49:12Z</time>
      </trkpt>
      <trkpt lat="45.08553" lon="2.73205">
        <ele>1278.69</ele>
        <time>2025-10-19T11:49:16Z</time>
      </trkpt>
      <trkpt lat="45.08548" lon="2.73219">
        <ele>1280.61</ele>
        <time>2025-10-19T11:49:27Z</time>
      </trkpt>
      <trkpt lat="45.08548" lon="2.73224">
        <ele>1280.61</ele>
        <time>2025-10-19T11:49:30Z</time>
      </trkpt>
      <trkpt lat="45.08539" lon="2.73242">
        <ele>1282.06</ele>
        <time>2025-10-19T11:49:46Z</time>
      </trkpt>
      <trkpt lat="45.08538" lon="2.73244">
        <ele>1282.06</ele>
        <time>2025-10-19T11:49:48Z</time>
      </trkpt>
      <trkpt lat="45.08536" lon="2.73248">
        <ele>1282.06</ele>
        <time>2025-10-19T11:49:52Z</time>
      </trkpt>
      <trkpt lat="45.08531" lon="2.73266">
        <ele>1282.54</ele>
        <time>2025-10-19T11:50:06Z</time>
      </trkpt>
      <trkpt lat="45.08524" lon="2.73287">
        <ele>1283.98</ele>
        <time>2025-10-19T11:50:22Z</time>
      </trkpt>
      <trkpt lat="45.08522" lon="2.7331">
        <ele>1284.46</ele>
        <time>2025-10-19T11:50:36Z</time>
      </trkpt>
      <trkpt lat="45.08524" lon="2.73323">
        <ele>1284.46</ele>
        <time>2025-10-19T11:50:45Z</time>
      </trkpt>
      <trkpt lat="45.08525" lon="2.73344">
        <ele>1284.46</ele>
        <time>2025-10-19T11:51:00Z</time>
      </trkpt>
      <trkpt lat="45.0853" lon="2.73368">
        <ele>1284.46</ele>
        <time>2025-10-19T11:51:16Z</time>
      </trkpt>
      <trkpt lat="45.08532" lon="2.73375">
        <ele>1283.5</ele>
        <time>2025-10-19T11:51:22Z</time>
      </trkpt>
      <trkpt lat="45.08542" lon="2.734">
        <ele>1283.02</ele>
        <time>2025-10-19T11:51:41Z</time>
      </trkpt>
      <trkpt lat="45.08542" lon="2.73401">
        <ele>1283.02</ele>
        <time>2025-10-19T11:51:42Z</time>
      </trkpt>
      <trkpt lat="45.08548" lon="2.73423">
        <ele>1282.54</ele>
        <time>2025-10-19T11:52:01Z</time>
      </trkpt>
      <trkpt lat="45.08548" lon="2.73444">
        <ele>1281.57</ele>
        <time>2025-10-19T11:52:16Z</time>
      </trkpt>
      <trkpt lat="45.08539" lon="2.73471">
        <ele>1280.61</ele>
        <time>2025-10-19T11:52:35Z</time>
      </trkpt>
      <trkpt lat="45.08535" lon="2.73497">
        <ele>1279.17</ele>
        <time>2025-10-19T11:52:54Z</time>
      </trkpt>
      <trkpt lat="45.08532" lon="2.73524">
        <ele>1277.73</ele>
        <time>2025-10-19T11:53:11Z</time>
      </trkpt>
      <trkpt lat="45.08528" lon="2.73546">
        <ele>1277.25</ele>
        <time>2025-10-19T11:53:26Z</time>
      </trkpt>
      <trkpt lat="45.08524" lon="2.73563">
        <ele>1276.29</ele>
        <time>2025-10-19T11:53:38Z</time>
      </trkpt>
      <trkpt lat="45.08517" lon="2.73581">
        <ele>1275.33</ele>
        <time>2025-10-19T11:53:53Z</time>
      </trkpt>
      <trkpt lat="45.08513" lon="2.73598">
        <ele>1274.36</ele>
        <time>2025-10-19T11:54:10Z</time>
      </trkpt>
      <trkpt lat="45.08523" lon="2.73611">
        <ele>1273.88</ele>
        <time>2025-10-19T11:54:23Z</time>
      </trkpt>
      <trkpt lat="45.08524" lon="2.73614">
        <ele>1273.4</ele>
        <time>2025-10-19T11:54:25Z</time>
      </trkpt>
      <trkpt lat="45.0853" lon="2.73637">
        <ele>1271.96</ele>
        <time>2025-10-19T11:54:40Z</time>
      </trkpt>
      <trkpt lat="45.08531" lon="2.73641">
        <ele>1271.96</ele>
        <time>2025-10-19T11:54:43Z</time>
      </trkpt>
      <trkpt lat="45.08536" lon="2.73658">
        <ele>1271</ele>
        <time>2025-10-19T11:54:55Z</time>
      </trkpt>
      <trkpt lat="45.08541" lon="2.73676">
        <ele>1269.56</ele>
        <time>2025-10-19T11:55:09Z</time>
      </trkpt>
      <trkpt lat="45.08541" lon="2.737">
        <ele>1268.6</ele>
        <time>2025-10-19T11:55:27Z</time>
      </trkpt>
      <trkpt lat="45.0854" lon="2.73721">
        <ele>1267.64</ele>
        <time>2025-10-19T11:55:43Z</time>
      </trkpt>
      <trkpt lat="45.0854" lon="2.73733">
        <ele>1267.16</ele>
        <time>2025-10-19T11:55:53Z</time>
      </trkpt>
      <trkpt lat="45.08541" lon="2.73737">
        <ele>1266.67</ele>
        <time>2025-10-19T11:55:56Z</time>
      </trkpt>
      <trkpt lat="45.08551" lon="2.73768">
        <ele>1264.75</ele>
        <time>2025-10-19T11:56:19Z</time>
      </trkpt>
      <trkpt lat="45.08551" lon="2.73804">
        <ele>1263.31</ele>
        <time>2025-10-19T11:56:39Z</time>
      </trkpt>
      <trkpt lat="45.08564" lon="2.73834">
        <ele>1261.87</ele>
        <time>2025-10-19T11:57:02Z</time>
      </trkpt>
      <trkpt lat="45.08576" lon="2.73855">
        <ele>1259.46</ele>
        <time>2025-10-19T11:57:22Z</time>
      </trkpt>
      <trkpt lat="45.08571" lon="2.73889">
        <ele>1258.5</ele>
        <time>2025-10-19T11:57:44Z</time>
      </trkpt>
      <trkpt lat="45.08564" lon="2.7392">
        <ele>1257.54</ele>
        <time>2025-10-19T11:58:08Z</time>
      </trkpt>
      <trkpt lat="45.08575" lon="2.73943">
        <ele>1256.1</ele>
        <time>2025-10-19T11:58:24Z</time>
      </trkpt>
      <trkpt lat="45.08578" lon="2.7395">
        <ele>1256.1</ele>
        <time>2025-10-19T11:58:28Z</time>
      </trkpt>
      <trkpt lat="45.08578" lon="2.73973">
        <ele>1254.18</ele>
        <time>2025-10-19T11:58:44Z</time>
      </trkpt>
      <trkpt lat="45.0857" lon="2.73989">
        <ele>1255.14</ele>
        <time>2025-10-19T11:58:56Z</time>
      </trkpt>
      <trkpt lat="45.08561" lon="2.7401">
        <ele>1256.58</ele>
        <time>2025-10-19T11:59:12Z</time>
      </trkpt>
      <trkpt lat="45.08554" lon="2.74021">
        <ele>1255.62</ele>
        <time>2025-10-19T11:59:23Z</time>
      </trkpt>
      <trkpt lat="45.08558" lon="2.74044">
        <ele>1257.54</ele>
        <time>2025-10-19T11:59:38Z</time>
      </trkpt>
      <trkpt lat="45.08556" lon="2.74065">
        <ele>1258.5</ele>
        <time>2025-10-19T11:59:55Z</time>
      </trkpt>
      <trkpt lat="45.08552" lon="2.74091">
        <ele>1259.46</ele>
        <time>2025-10-19T12:00:12Z</time>
      </trkpt>
      <trkpt lat="45.08551" lon="2.74115">
        <ele>1258.02</ele>
        <time>2025-10-19T12:00:30Z</time>
      </trkpt>
      <trkpt lat="45.08551" lon="2.74138">
        <ele>1256.58</ele>
        <time>2025-10-19T12:00:45Z</time>
      </trkpt>
      <trkpt lat="45.08549" lon="2.74146">
        <ele>1256.58</ele>
        <time>2025-10-19T12:00:50Z</time>
      </trkpt>
      <trkpt lat="45.08548" lon="2.74173">
        <ele>1256.58</ele>
        <time>2025-10-19T12:01:06Z</time>
      </trkpt>
      <trkpt lat="45.08549" lon="2.74194">
        <ele>1256.58</ele>
        <time>2025-10-19T12:01:24Z</time>
      </trkpt>
      <trkpt lat="45.08549" lon="2.74197">
        <ele>1258.02</ele>
        <time>2025-10-19T12:01:26Z</time>
      </trkpt>
      <trkpt lat="45.08546" lon="2.74224">
        <ele>1258.02</ele>
        <time>2025-10-19T12:01:42Z</time>
      </trkpt>
      <trkpt lat="45.08538" lon="2.74247">
        <ele>1258.02</ele>
        <time>2025-10-19T12:01:58Z</time>
      </trkpt>
      <trkpt lat="45.08537" lon="2.7425">
        <ele>1258.02</ele>
        <time>2025-10-19T12:02:00Z</time>
      </trkpt>
      <trkpt lat="45.08529" lon="2.74271">
        <ele>1258.02</ele>
        <time>2025-10-19T12:02:16Z</time>
      </trkpt>
      <trkpt lat="45.08524" lon="2.74297">
        <ele>1258.5</ele>
        <time>2025-10-19T12:02:36Z</time>
      </trkpt>
      <trkpt lat="45.08519" lon="2.74323">
        <ele>1258.98</ele>
        <time>2025-10-19T12:02:52Z</time>
      </trkpt>
      <trkpt lat="45.08515" lon="2.74347">
        <ele>1259.94</ele>
        <time>2025-10-19T12:03:10Z</time>
      </trkpt>
      <trkpt lat="45.0851" lon="2.74361">
        <ele>1258.5</ele>
        <time>2025-10-19T12:03:23Z</time>
      </trkpt>
      <trkpt lat="45.0851" lon="2.74385">
        <ele>1258.02</ele>
        <time>2025-10-19T12:03:40Z</time>
      </trkpt>
      <trkpt lat="45.08514" lon="2.74411">
        <ele>1258.02</ele>
        <time>2025-10-19T12:03:59Z</time>
      </trkpt>
      <trkpt lat="45.08511" lon="2.74424">
        <ele>1259.46</ele>
        <time>2025-10-19T12:04:08Z</time>
      </trkpt>
      <trkpt lat="45.08503" lon="2.74459">
        <ele>1259.94</ele>
        <time>2025-10-19T12:04:29Z</time>
      </trkpt>
      <trkpt lat="45.08503" lon="2.74465">
        <ele>1258.5</ele>
        <time>2025-10-19T12:04:32Z</time>
      </trkpt>
      <trkpt lat="45.08503" lon="2.74496">
        <ele>1259.94</ele>
        <time>2025-10-19T12:04:51Z</time>
      </trkpt>
      <trkpt lat="45.08506" lon="2.74514">
        <ele>1260.91</ele>
        <time>2025-10-19T12:05:07Z</time>
      </trkpt>
      <trkpt lat="45.0851" lon="2.74538">
        <ele>1261.39</ele>
        <time>2025-10-19T12:05:25Z</time>
      </trkpt>
      <trkpt lat="45.0851" lon="2.74547">
        <ele>1262.35</ele>
        <time>2025-10-19T12:05:32Z</time>
      </trkpt>
      <trkpt lat="45.08511" lon="2.74568">
        <ele>1262.35</ele>
        <time>2025-10-19T12:05:49Z</time>
      </trkpt>
      <trkpt lat="45.08507" lon="2.7459">
        <ele>1263.79</ele>
        <time>2025-10-19T12:06:06Z</time>
      </trkpt>
      <trkpt lat="45.08501" lon="2.74603">
        <ele>1266.19</ele>
        <time>2025-10-19T12:06:16Z</time>
      </trkpt>
      <trkpt lat="45.08492" lon="2.74622">
        <ele>1267.16</ele>
        <time>2025-10-19T12:06:30Z</time>
      </trkpt>
      <trkpt lat="45.08483" lon="2.74632">
        <ele>1266.67</ele>
        <time>2025-10-19T12:06:42Z</time>
      </trkpt>
      <trkpt lat="45.08473" lon="2.74641">
        <ele>1266.67</ele>
        <time>2025-10-19T12:06:59Z</time>
      </trkpt>
      <trkpt lat="45.08474" lon="2.74646">
        <ele>1266.67</ele>
        <time>2025-10-19T12:07:09Z</time>
      </trkpt>
      <trkpt lat="45.08477" lon="2.7466">
        <ele>1265.23</ele>
        <time>2025-10-19T12:07:19Z</time>
      </trkpt>
      <trkpt lat="45.08476" lon="2.74662">
        <ele>1264.27</ele>
        <time>2025-10-19T12:07:21Z</time>
      </trkpt>
      <trkpt lat="45.08474" lon="2.74663">
        <ele>1264.27</ele>
        <time>2025-10-19T12:07:23Z</time>
      </trkpt>
      <trkpt lat="45.08454" lon="2.74665">
        <ele>1262.83</ele>
        <time>2025-10-19T12:07:40Z</time>
      </trkpt>
      <trkpt lat="45.08453" lon="2.74666">
        <ele>1262.83</ele>
        <time>2025-10-19T12:07:41Z</time>
      </trkpt>
      <trkpt lat="45.08447" lon="2.74665">
        <ele>1262.35</ele>
        <time>2025-10-19T12:07:46Z</time>
      </trkpt>
      <trkpt lat="45.08434" lon="2.74656">
        <ele>1262.35</ele>
        <time>2025-10-19T12:08:00Z</time>
      </trkpt>
      <trkpt lat="45.0842" lon="2.74643">
        <ele>1261.87</ele>
        <time>2025-10-19T12:08:16Z</time>
      </trkpt>
      <trkpt lat="45.08412" lon="2.7464">
        <ele>1261.39</ele>
        <time>2025-10-19T12:08:23Z</time>
      </trkpt>
      <trkpt lat="45.08392" lon="2.74633">
        <ele>1259.46</ele>
        <time>2025-10-19T12:08:42Z</time>
      </trkpt>
      <trkpt lat="45.08384" lon="2.74639">
        <ele>1258.98</ele>
        <time>2025-10-19T12:08:49Z</time>
      </trkpt>
      <trkpt lat="45.08366" lon="2.74654">
        <ele>1257.54</ele>
        <time>2025-10-19T12:09:06Z</time>
      </trkpt>
      <trkpt lat="45.08351" lon="2.74659">
        <ele>1254.66</ele>
        <time>2025-10-19T12:09:21Z</time>
      </trkpt>
      <trkpt lat="45.08348" lon="2.74663">
        <ele>1254.18</ele>
        <time>2025-10-19T12:09:25Z</time>
      </trkpt>
      <trkpt lat="45.08347" lon="2.74667">
        <ele>1253.22</ele>
        <time>2025-10-19T12:09:28Z</time>
      </trkpt>
      <trkpt lat="45.0835" lon="2.74686">
        <ele>1249.85</ele>
        <time>2025-10-19T12:09:42Z</time>
      </trkpt>
      <trkpt lat="45.08353" lon="2.74693">
        <ele>1248.89</ele>
        <time>2025-10-19T12:09:48Z</time>
      </trkpt>
      <trkpt lat="45.08356" lon="2.74699">
        <ele>1246.97</ele>
        <time>2025-10-19T12:09:53Z</time>
      </trkpt>
      <trkpt lat="45.08359" lon="2.74701">
        <ele>1248.41</ele>
        <time>2025-10-19T12:09:56Z</time>
      </trkpt>
      <trkpt lat="45.08369" lon="2.74707">
        <ele>1245.53</ele>
        <time>2025-10-19T12:10:08Z</time>
      </trkpt>
      <trkpt lat="45.0838" lon="2.74711">
        <ele>1244.56</ele>
        <time>2025-10-19T12:10:21Z</time>
      </trkpt>
      <trkpt lat="45.08381" lon="2.74716">
        <ele>1244.08</ele>
        <time>2025-10-19T12:10:24Z</time>
      </trkpt>
      <trkpt lat="45.0838" lon="2.7472">
        <ele>1244.08</ele>
        <time>2025-10-19T12:10:27Z</time>
      </trkpt>
      <trkpt lat="45.08377" lon="2.74737">
        <ele>1241.68</ele>
        <time>2025-10-19T12:10:43Z</time>
      </trkpt>
      <trkpt lat="45.08377" lon="2.74747">
        <ele>1238.8</ele>
        <time>2025-10-19T12:10:59Z</time>
      </trkpt>
      <trkpt lat="45.08377" lon="2.74754">
        <ele>1235.91</ele>
        <time>2025-10-19T12:11:10Z</time>
      </trkpt>
      <trkpt lat="45.08376" lon="2.74761">
        <ele>1233.99</ele>
        <time>2025-10-19T12:11:19Z</time>
      </trkpt>
      <trkpt lat="45.08375" lon="2.74767">
        <ele>1233.99</ele>
        <time>2025-10-19T12:11:23Z</time>
      </trkpt>
      <trkpt lat="45.08369" lon="2.7479">
        <ele>1233.51</ele>
        <time>2025-10-19T12:11:39Z</time>
      </trkpt>
      <trkpt lat="45.08365" lon="2.74806">
        <ele>1233.03</ele>
        <time>2025-10-19T12:11:54Z</time>
      </trkpt>
      <trkpt lat="45.08365" lon="2.74809">
        <ele>1232.07</ele>
        <time>2025-10-19T12:12:00Z</time>
      </trkpt>
      <trkpt lat="45.08367" lon="2.74816">
        <ele>1231.11</ele>
        <time>2025-10-19T12:12:06Z</time>
      </trkpt>
      <trkpt lat="45.08367" lon="2.74844">
        <ele>1230.62</ele>
        <time>2025-10-19T12:12:21Z</time>
      </trkpt>
      <trkpt lat="45.08367" lon="2.74848">
        <ele>1230.14</ele>
        <time>2025-10-19T12:12:23Z</time>
      </trkpt>
      <trkpt lat="45.08361" lon="2.74875">
        <ele>1229.66</ele>
        <time>2025-10-19T12:12:40Z</time>
      </trkpt>
      <trkpt lat="45.08353" lon="2.74904">
        <ele>1229.18</ele>
        <time>2025-10-19T12:12:57Z</time>
      </trkpt>
      <trkpt lat="45.08349" lon="2.74929">
        <ele>1229.18</ele>
        <time>2025-10-19T12:13:14Z</time>
      </trkpt>
    </trkseg>
  </trk>
</gpx>